Darstellungsparameter: Aktuell verwendete Einstellungen:
Skalierung der Graphiken ... ?
xyx+y,   Skalierungsfaktor:      Skalierung: Modus: x, Faktor: 1
Darstellungszeitraum ... ?
Vom - - bis: - -   Zeitraum: 14.08.2008 - 13.11.2008
Min/Max/Avg-Anzeige ... ?
Zeige MMA aktuell
Zeige MMA Monat
Zeige MMA alles
Zeige --A aktuell
Zeige --A Monat
Zeige --A alles
Keine MMA-Anzeige
MMA:
Average (ber die Originaldaten)
MMA-Basis: 17.04.2019 - 19.05.2019
Quicknavigation für Darstellung... ?
Tage:      1T, 2T, 3T, 5T -1T -2T -3T -5T +1T +2T +3T +5T
Wochen: 1W, 2W, 3W -1W -2W -3W +1W +2W +3W
Monate: 1M, 3M, 6M -1M -3M -6M +1M +3M +6M
Jahre:    1J, 3J, 5J, 10J -1J -3J -5J -10J +1J +3J +5J +10J
Nutze für die Darstellung ... ?
Originaldaten oder Mittelwerte auf ...
Stundenbasis Tagesbasis Wochenbasis
Monatsbasis Jahresbasis      Datenbasis: Original-Daten
Darstellen als:
Statistik (Auto) Statistik J:M      Darstellung:
Zur Graphik,    zurück zur Übersicht aller Sensoren.
 
Tabellarische Datenbersicht: ?
 
Sensor: Nr:Datum:Temp:Abs-Feuchte:Windchill:Wind:
Aussen-T/F 1 14-08-2008 00:02:04 17.1 C 8.3 g/m*3 17.1 C 0 km/h
2 14-08-2008 00:14:04 16.8 C 8.29 g/m*3 16.8 C 0 km/h
3 14-08-2008 00:26:04 16.4 C 8.23 g/m*3 16.4 C 0 km/h
4 14-08-2008 00:38:04 16.2 C 8.27 g/m*3 16.2 C 0 km/h
5 14-08-2008 00:50:04 16.4 C 8.51 g/m*3 16.4 C 0 km/h
6 14-08-2008 01:02:04 16.4 C 8.51 g/m*3 16.4 C 0 km/h
7 14-08-2008 01:14:04 16.4 C 8.65 g/m*3 16.4 C 0 km/h
8 14-08-2008 01:26:05 16.1 C 8.5 g/m*3 16.1 C 0 km/h
9 14-08-2008 01:38:05 15.9 C 8.67 g/m*3 15.9 C 0 km/h
10 14-08-2008 01:50:05 15.8 C 8.62 g/m*3 15.8 C 0 km/h
11 14-08-2008 02:02:05 16 C 8.58 g/m*3 16 C 0 km/h
12 14-08-2008 02:14:05 16 C 8.58 g/m*3 16 C 0 km/h
13 14-08-2008 02:26:05 15.8 C 8.62 g/m*3 15.8 C 0 km/h
14 14-08-2008 02:38:05 15.4 C 8.67 g/m*3 15.4 C 0 km/h
15 14-08-2008 02:50:05 15.3 C 8.88 g/m*3 15.3 C 0 km/h
16 14-08-2008 03:02:05 15.1 C 8.77 g/m*3 15.1 C 0 km/h
17 14-08-2008 03:14:05 15 C 8.85 g/m*3 15 C 0 km/h
18 14-08-2008 03:26:05 14.9 C 8.92 g/m*3 14.9 C 0 km/h
19 14-08-2008 03:38:05 14.8 C 8.99 g/m*3 14.8 C 0 km/h
20 14-08-2008 03:50:05 14.7 C 8.94 g/m*3 14.7 C 0 km/h
21 14-08-2008 04:02:05 14.5 C 8.95 g/m*3 14.5 C 0 km/h
22 14-08-2008 04:14:05 14.5 C 9.08 g/m*3 14.5 C 0 km/h
23 14-08-2008 04:26:05 14.3 C 8.97 g/m*3 14.3 C 0 km/h
24 14-08-2008 04:38:05 14.1 C 8.98 g/m*3 14.1 C 0 km/h
25 14-08-2008 04:50:05 13.9 C 8.99 g/m*3 13.9 C 0 km/h
Sensor: Nr:Datum:Temp:Abs-Feuchte:Windchill:Wind:
Aussen-T/F 26 14-08-2008 05:02:05 13.9 C 9.11 g/m*3 13.9 C 0 km/h
27 14-08-2008 05:14:05 13.8 C 9.17 g/m*3 13.8 C 0 km/h
28 14-08-2008 05:26:05 13.6 C 9.06 g/m*3 13.6 C 0 km/h
29 14-08-2008 05:38:06 13.6 C 9.06 g/m*3 13.6 C 0 km/h
30 14-08-2008 05:50:06 13.5 C 9.12 g/m*3 13.5 C 0 km/h
31 14-08-2008 06:02:06 13.6 C 9.06 g/m*3 13.6 C 0 km/h
32 14-08-2008 06:14:06 13.6 C 9.06 g/m*3 13.6 C 0 km/h
33 14-08-2008 06:26:03 13.7 C 9.12 g/m*3 13.7 C 0 km/h
34 14-08-2008 06:38:04 13.7 C 9.12 g/m*3 13.7 C 0 km/h
35 14-08-2008 06:50:02 13.7 C 9.12 g/m*3 13.7 C 0 km/h
36 14-08-2008 07:02:02 13.8 C 9.06 g/m*3 13.8 C 0 km/h
37 14-08-2008 07:14:02 13.8 C 9.06 g/m*3 13.8 C 0 km/h
38 14-08-2008 07:26:02 13.8 C 9.06 g/m*3 13.8 C 0 km/h
39 14-08-2008 07:38:01 14 C 9.05 g/m*3 14 C 0 km/h
40 14-08-2008 07:50:02 14.1 C 9.1 g/m*3 14.1 C 0 km/h
41 14-08-2008 08:02:01 14.3 C 8.97 g/m*3 14.3 C 0 km/h
42 14-08-2008 08:14:01 14.5 C 9.08 g/m*3 14.5 C 0 km/h
43 14-08-2008 08:26:02 14.6 C 9.13 g/m*3 14.6 C 0 km/h
44 14-08-2008 08:38:01 14.9 C 9.05 g/m*3 14.9 C 0 km/h
45 14-08-2008 08:50:02 15.4 C 8.41 g/m*3 15.4 C 0 km/h
46 14-08-2008 09:02:01 15.8 C 8.21 g/m*3 15.8 C 0 km/h
47 14-08-2008 09:14:01 16.1 C 7.95 g/m*3 16.1 C 0 km/h
48 14-08-2008 09:26:02 16.4 C 7.82 g/m*3 16.4 C 0 km/h
49 14-08-2008 09:38:02 16.8 C 7.15 g/m*3 16.8 C 0 km/h
50 14-08-2008 09:50:02 17.1 C 7.13 g/m*3 17.1 C 0 km/h
Sensor: Nr:Datum:Temp:Abs-Feuchte:Windchill:Wind:
Aussen-T/F 51 14-08-2008 10:02:02 17.4 C 7.11 g/m*3 17.4 C 0 km/h
52 14-08-2008 10:14:02 17.8 C 7.13 g/m*3 17.8 C 0 km/h
53 14-08-2008 10:26:01 18.1 C 7.11 g/m*3 18.1 C 0 km/h
54 14-08-2008 10:38:02 18.3 C 6.88 g/m*3 18.3 C 0 km/h
55 14-08-2008 10:50:02 18.8 C 7.09 g/m*3 18.8 C 0 km/h
56 14-08-2008 11:02:02 19.1 C 7.05 g/m*3 19.1 C 0 km/h
57 14-08-2008 11:14:02 19.5 C 7.05 g/m*3 19.5 C 0 km/h
58 14-08-2008 11:26:02 19.8 C 7 g/m*3 19.8 C 0 km/h
59 14-08-2008 11:38:02 20.3 C 7.03 g/m*3 20.3 C 0 km/h
60 14-08-2008 11:50:02 20.4 C 6.72 g/m*3 20.4 C 0 km/h
61 14-08-2008 12:02:02 20.8 C 6.34 g/m*3 20.8 C 0 km/h
62 14-08-2008 12:14:02 21.2 C 6.12 g/m*3 21.2 C 0 km/h
63 14-08-2008 12:26:01 22 C 6.02 g/m*3 22 C 0 km/h
64 14-08-2008 12:38:02 21.9 C 5.79 g/m*3 21.9 C 0 km/h
65 14-08-2008 12:50:02 22 C 5.43 g/m*3 22 C 0 km/h
66 14-08-2008 13:02:02 22.9 C 6.13 g/m*3 22.9 C 0 km/h
67 14-08-2008 13:14:02 23.2 C 6.03 g/m*3 23.2 C 0 km/h
68 14-08-2008 13:26:02 23.4 C 6.31 g/m*3 23.4 C 0 km/h
69 14-08-2008 13:38:02 24 C 6.09 g/m*3 24 C 0 km/h
70 14-08-2008 13:50:02 23.4 C 6.31 g/m*3 23.4 C 0 km/h
71 14-08-2008 14:02:01 23.4 C 5.89 g/m*3 23.4 C 0 km/h
72 14-08-2008 14:14:01 23.1 C 5.79 g/m*3 23.1 C 0 km/h
73 14-08-2008 14:26:02 23 C 5.76 g/m*3 23 C 0 km/h
74 14-08-2008 14:38:01 23.4 C 6.1 g/m*3 23.4 C 0 km/h
75 14-08-2008 14:50:02 24.1 C 5.69 g/m*3 24.1 C 0 km/h
Sensor: Nr:Datum:Temp:Abs-Feuchte:Windchill:Wind:
Aussen-T/F 76 14-08-2008 15:02:01 24.3 C 5.53 g/m*3 24.3 C 0 km/h
77 14-08-2008 15:14:01 24.2 C 5.5 g/m*3 24.2 C 0 km/h
78 14-08-2008 15:26:02 24.4 C 5.56 g/m*3 24.4 C 0 km/h
79 14-08-2008 15:38:01 24.5 C 5.6 g/m*3 24.5 C 0 km/h
80 14-08-2008 15:50:01 24.8 C 5.46 g/m*3 24.8 C 0 km/h
81 14-08-2008 16:02:01 25.2 C 5.35 g/m*3 25.2 C 0 km/h
82 14-08-2008 16:14:01 25.1 C 5.56 g/m*3 25.1 C 0 km/h
83 14-08-2008 16:26:01 25.5 C 5.21 g/m*3 25.5 C 0 km/h
84 14-08-2008 16:38:01 25.6 C 5 g/m*3 25.6 C 0 km/h
85 14-08-2008 16:50:01 26.2 C 5.17 g/m*3 26.2 C 0 km/h
86 14-08-2008 17:02:02 25.1 C 5.09 g/m*3 25.1 C 0 km/h
87 14-08-2008 17:14:03 26.7 C 5.06 g/m*3 26.7 C 0 km/h
88 14-08-2008 17:26:01 26.5 C 5.01 g/m*3 26.5 C 0 km/h
89 14-08-2008 17:38:02 26.7 C 5.06 g/m*3 26.7 C 0 km/h
90 14-08-2008 17:50:01 26.6 C 5.03 g/m*3 26.6 C 0 km/h
91 14-08-2008 18:02:02 26.7 C 5.06 g/m*3 26.7 C 0 km/h
92 14-08-2008 18:14:02 26.8 C 5.09 g/m*3 26.8 C 0 km/h
93 14-08-2008 18:26:01 26.8 C 5.09 g/m*3 26.8 C 0 km/h
94 14-08-2008 18:38:02 26.2 C 4.92 g/m*3 26.2 C 0 km/h
95 14-08-2008 18:50:02 26.4 C 4.98 g/m*3 26.4 C 0 km/h
96 14-08-2008 19:02:02 25.8 C 4.82 g/m*3 25.8 C 0 km/h
97 14-08-2008 19:14:02 25.1 C 5.09 g/m*3 25.1 C 0 km/h
98 14-08-2008 19:26:02 23.8 C 5.59 g/m*3 23.8 C 0 km/h
99 14-08-2008 19:38:02 23.7 C 5.56 g/m*3 23.7 C 0 km/h
100 14-08-2008 19:50:01 23.6 C 5.96 g/m*3 23.6 C 0 km/h
Sensor: Nr:Datum:Temp:Abs-Feuchte:Windchill:Wind:
Aussen-T/F 101 14-08-2008 20:02:02 22.8 C 5.69 g/m*3 22.8 C 0 km/h
102 14-08-2008 20:14:02 22.6 C 6.03 g/m*3 22.6 C 0 km/h
103 14-08-2008 20:26:01 21.8 C 5.95 g/m*3 21.8 C 0 km/h
104 14-08-2008 20:38:02 20.9 C 6.19 g/m*3 20.9 C 0 km/h
105 14-08-2008 20:50:02 20.5 C 6.23 g/m*3 20.5 C 0 km/h
106 14-08-2008 21:02:02 19.9 C 6.19 g/m*3 19.9 C 0 km/h
107 14-08-2008 21:14:02 19.4 C 6.17 g/m*3 19.4 C 0 km/h
108 14-08-2008 21:26:02 19 C 6.03 g/m*3 19 C 0 km/h
109 14-08-2008 21:38:01 18.8 C 6.6 g/m*3 18.8 C 0 km/h
110 14-08-2008 21:51:03 18.6 C 6.68 g/m*3 18.6 C 0 km/h
111 14-08-2008 22:03:03 18.3 C 6.88 g/m*3 18.3 C 0 km/h
112 14-08-2008 22:15:03 18.1 C 6.8 g/m*3 18.1 C 0 km/h
113 14-08-2008 22:27:03 18.1 C 6.64 g/m*3 18.1 C 0 km/h
114 14-08-2008 22:39:03 17.9 C 6.87 g/m*3 17.9 C 0 km/h
115 14-08-2008 22:51:03 17.5 C 7.01 g/m*3 17.5 C 0 km/h
116 14-08-2008 23:03:03 17.5 C 7.01 g/m*3 17.5 C 0 km/h
117 14-08-2008 23:15:03 17.4 C 7.41 g/m*3 17.4 C 0 km/h
118 14-08-2008 23:27:03 17.2 C 7.47 g/m*3 17.2 C 0 km/h
119 14-08-2008 23:39:03 17 C 7.38 g/m*3 17 C 0 km/h
120 14-08-2008 23:51:03 17.1 C 7.42 g/m*3 17.1 C 0 km/h
121 15-08-2008 00:03:03 17 C 7.38 g/m*3 17 C 0 km/h
122 15-08-2008 00:15:03 17 C 7.52 g/m*3 17 C 0 km/h
123 15-08-2008 00:27:03 16.8 C 7.72 g/m*3 16.8 C 0 km/h
124 15-08-2008 00:39:03 16.8 C 7.58 g/m*3 16.8 C 0 km/h
125 15-08-2008 00:51:03 16.7 C 7.67 g/m*3 16.7 C 0 km/h
Sensor: Nr:Datum:Temp:Abs-Feuchte:Windchill:Wind:
Aussen-T/F 126 15-08-2008 01:03:03 16.6 C 7.63 g/m*3 16.6 C 0 km/h
127 15-08-2008 01:15:04 16.7 C 7.67 g/m*3 16.7 C 0 km/h
128 15-08-2008 01:27:04 16.5 C 7.72 g/m*3 16.5 C 0 km/h
129 15-08-2008 01:39:04 16.3 C 7.77 g/m*3 16.3 C 0 km/h
130 15-08-2008 01:51:04 16.1 C 7.68 g/m*3 16.1 C 0 km/h
131 15-08-2008 02:03:04 16.1 C 7.68 g/m*3 16.1 C 0 km/h
132 15-08-2008 02:15:04 16 C 7.77 g/m*3 16 C 0 km/h
133 15-08-2008 02:27:04 15.9 C 7.99 g/m*3 15.9 C 0 km/h
134 15-08-2008 02:39:04 15.7 C 7.89 g/m*3 15.7 C 0 km/h
135 15-08-2008 02:51:04 15.6 C 7.85 g/m*3 15.6 C 0 km/h
136 15-08-2008 03:03:04 15.6 C 7.98 g/m*3 15.6 C 0 km/h
137 15-08-2008 03:15:04 15.5 C 8.06 g/m*3 15.5 C 0 km/h
138 15-08-2008 03:27:04 15.5 C 8.06 g/m*3 15.5 C 0 km/h
139 15-08-2008 03:39:04 15.2 C 8.05 g/m*3 15.2 C 0 km/h
140 15-08-2008 03:51:04 15.2 C 8.18 g/m*3 15.2 C 0 km/h
141 15-08-2008 04:03:04 14.9 C 8.28 g/m*3 14.9 C 0 km/h
142 15-08-2008 04:15:04 14.7 C 8.31 g/m*3 14.7 C 0 km/h
143 15-08-2008 04:27:04 14.5 C 8.33 g/m*3 14.5 C 0 km/h
144 15-08-2008 04:39:04 14.6 C 8.38 g/m*3 14.6 C 0 km/h
145 15-08-2008 04:51:04 14.6 C 8.38 g/m*3 14.6 C 0 km/h
146 15-08-2008 05:03:05 14.5 C 8.33 g/m*3 14.5 C 0 km/h
147 15-08-2008 05:15:05 14.3 C 8.35 g/m*3 14.3 C 0 km/h
148 15-08-2008 05:27:05 14 C 8.32 g/m*3 14 C 0 km/h
149 15-08-2008 05:39:05 13.8 C 8.46 g/m*3 13.8 C 0 km/h
150 15-08-2008 05:51:05 13.8 C 8.46 g/m*3 13.8 C 0 km/h
Sensor: Nr:Datum:Temp:Abs-Feuchte:Windchill:Wind:
Aussen-T/F 151 15-08-2008 06:03:05 13.7 C 8.53 g/m*3 13.7 C 0 km/h
152 15-08-2008 06:15:05 13.6 C 8.47 g/m*3 13.6 C 0 km/h
153 15-08-2008 06:27:05 13.6 C 8.47 g/m*3 13.6 C 0 km/h
154 15-08-2008 06:39:05 13.5 C 8.54 g/m*3 13.5 C 0 km/h
155 15-08-2008 06:51:01 13.5 C 8.54 g/m*3 13.5 C 0 km/h
156 15-08-2008 07:03:02 13.4 C 8.6 g/m*3 13.4 C 0 km/h
157 15-08-2008 07:15:01 13.3 C 8.55 g/m*3 13.3 C 0 km/h
158 15-08-2008 07:27:01 13 C 8.51 g/m*3 13 C 0 km/h
159 15-08-2008 07:39:02 12.8 C 8.62 g/m*3 12.8 C 0 km/h
160 15-08-2008 07:51:02 12.8 C 8.74 g/m*3 12.8 C 0 km/h
161 15-08-2008 08:03:02 12.9 C 8.79 g/m*3 12.9 C 0 km/h
162 15-08-2008 08:15:02 13 C 8.73 g/m*3 13 C 0 km/h
163 15-08-2008 08:27:02 13.3 C 8.9 g/m*3 13.3 C 0 km/h
164 15-08-2008 08:39:02 13.5 C 8.77 g/m*3 13.5 C 0 km/h
165 15-08-2008 08:51:02 13.8 C 8.82 g/m*3 13.8 C 0 km/h
166 15-08-2008 09:03:03 14.1 C 8.86 g/m*3 14.1 C 0 km/h
167 15-08-2008 09:15:02 14.4 C 8.65 g/m*3 14.4 C 0 km/h
168 15-08-2008 09:27:03 15 C 8.98 g/m*3 15 C 0 km/h
169 15-08-2008 09:39:02 16 C 8.86 g/m*3 16 C 0 km/h
170 15-08-2008 09:51:02 16.8 C 8.72 g/m*3 16.8 C 0 km/h
171 15-08-2008 10:03:02 17.2 C 8.05 g/m*3 17.2 C 0 km/h
172 15-08-2008 10:15:02 17.7 C 8.15 g/m*3 17.7 C 0 km/h
173 15-08-2008 10:27:02 18.1 C 8.19 g/m*3 18.1 C 0 km/h
174 15-08-2008 10:39:02 18.4 C 8.02 g/m*3 18.4 C 0 km/h
175 15-08-2008 10:51:01 18.9 C 7.94 g/m*3 18.9 C 0 km/h
Sensor: Nr:Datum:Temp:Abs-Feuchte:Windchill:Wind:
Aussen-T/F 176 15-08-2008 11:03:02 19.3 C 7.3 g/m*3 19.3 C 0 km/h
177 15-08-2008 11:15:01 19.9 C 7.56 g/m*3 19.9 C 0 km/h
178 15-08-2008 11:27:01 20.6 C 7.52 g/m*3 20.6 C 0 km/h
179 15-08-2008 11:39:01 20.8 C 7.42 g/m*3 20.8 C 0 km/h
180 15-08-2008 11:51:02 20.5 C 7.3 g/m*3 20.5 C 0 km/h
181 15-08-2008 12:03:02 21.2 C 7.23 g/m*3 21.2 C 0 km/h
182 15-08-2008 12:15:02 22.1 C 7.22 g/m*3 22.1 C 0 km/h
183 15-08-2008 12:27:02 22.8 C 7.52 g/m*3 22.8 C 0 km/h
184 15-08-2008 12:39:02 23 C 6.99 g/m*3 23 C 0 km/h
185 15-08-2008 12:51:02 22.7 C 7.07 g/m*3 22.7 C 0 km/h
186 15-08-2008 13:03:03 21.6 C 7.21 g/m*3 21.6 C 0 km/h
187 15-08-2008 13:15:02 22 C 6.79 g/m*3 22 C 0 km/h
188 15-08-2008 13:27:02 21.7 C 6.87 g/m*3 21.7 C 0 km/h
189 15-08-2008 13:39:03 22.1 C 6.83 g/m*3 22.1 C 0 km/h
190 15-08-2008 13:51:02 22.7 C 6.67 g/m*3 22.7 C 0 km/h
191 15-08-2008 14:03:01 22.3 C 7.7 g/m*3 22.3 C 0 km/h
192 15-08-2008 14:15:02 19.6 C 8.61 g/m*3 19.6 C 0 km/h
193 15-08-2008 14:27:02 19.2 C 8.08 g/m*3 19.2 C 0 km/h
194 15-08-2008 14:39:01 19.7 C 7.81 g/m*3 19.7 C 0 km/h
195 15-08-2008 14:51:02 20.5 C 8.36 g/m*3 20.5 C 0 km/h
196 15-08-2008 15:03:01 22.7 C 7.07 g/m*3 22.7 C 0 km/h
197 15-08-2008 15:21:02 20.6 C 7.87 g/m*3 20.6 C 0 km/h
198 15-08-2008 15:33:01 20.7 C 8.1 g/m*3 20.7 C 0 km/h
199 15-08-2008 15:45:02 22 C 8.15 g/m*3 22 C 0 km/h
200 15-08-2008 15:57:02 22.6 C 7.23 g/m*3 22.6 C 0 km/h
Sensor: Nr:Datum:Temp:Abs-Feuchte:Windchill:Wind:
Aussen-T/F 201 15-08-2008 16:09:01 22.9 C 7.56 g/m*3 22.9 C 0 km/h
202 15-08-2008 16:21:02 23.6 C 7.02 g/m*3 23.6 C 0 km/h
203 15-08-2008 16:33:01 24.8 C 6.83 g/m*3 24.8 C 0 km/h
204 15-08-2008 16:45:01 26.1 C 6.12 g/m*3 26.1 C 0 km/h
205 15-08-2008 16:57:01 24.8 C 6.15 g/m*3 24.8 C 0 km/h
206 15-08-2008 17:09:01 23.8 C 6.67 g/m*3 23.8 C 0 km/h
207 15-08-2008 17:21:01 24.4 C 6.9 g/m*3 24.4 C 0 km/h
208 15-08-2008 17:33:01 25.3 C 6.55 g/m*3 25.3 C 0 km/h
209 15-08-2008 17:45:01 24.3 C 7.08 g/m*3 24.3 C 0 km/h
210 15-08-2008 17:57:01 23.6 C 7.44 g/m*3 23.6 C 0 km/h
211 15-08-2008 18:09:02 24 C 6.74 g/m*3 24 C 0 km/h
212 15-08-2008 18:21:01 24 C 6.96 g/m*3 24 C 0 km/h
213 15-08-2008 18:33:02 23.4 C 6.94 g/m*3 23.4 C 0 km/h
214 15-08-2008 18:45:03 23.8 C 6.88 g/m*3 23.8 C 0 km/h
215 15-08-2008 18:57:03 24.1 C 7 g/m*3 24.1 C 0 km/h
216 15-08-2008 19:09:02 24.6 C 6.98 g/m*3 24.6 C 0 km/h
217 15-08-2008 19:21:02 24.6 C 6.75 g/m*3 24.6 C 0 km/h
218 15-08-2008 19:33:02 24.7 C 7.02 g/m*3 24.7 C 0 km/h
219 15-08-2008 19:45:01 24.2 C 7.26 g/m*3 24.2 C 0 km/h
220 15-08-2008 19:57:01 22 C 7.38 g/m*3 22 C 0 km/h
221 15-08-2008 20:09:02 20.6 C 7.52 g/m*3 20.6 C 0 km/h
222 15-08-2008 20:21:01 19.9 C 7.56 g/m*3 19.9 C 0 km/h
223 15-08-2008 20:33:02 19.4 C 7.51 g/m*3 19.4 C 0 km/h
224 15-08-2008 20:45:03 19.1 C 7.54 g/m*3 19.1 C 0 km/h
225 15-08-2008 20:57:03 18.9 C 7.78 g/m*3 18.9 C 0 km/h
Sensor: Nr:Datum:Temp:Abs-Feuchte:Windchill:Wind:
Aussen-T/F 226 15-08-2008 21:09:02 18.4 C 7.86 g/m*3 18.4 C 0 km/h
227 15-08-2008 21:21:02 18.1 C 7.57 g/m*3 18.1 C 0 km/h
228 15-08-2008 21:33:02 18.2 C 8.08 g/m*3 18.2 C 0 km/h
229 15-08-2008 21:45:01 18 C 7.99 g/m*3 18 C 0 km/h
230 15-08-2008 21:57:01 17.7 C 8.6 g/m*3 17.7 C 0 km/h
231 15-08-2008 22:10:03 17.1 C 9.03 g/m*3 17.1 C 0 km/h
232 15-08-2008 22:22:03 17.1 C 8.88 g/m*3 17.1 C 0 km/h
233 15-08-2008 22:34:03 16.8 C 8.72 g/m*3 16.8 C 0 km/h
234 15-08-2008 22:46:03 16.7 C 8.67 g/m*3 16.7 C 0 km/h
235 15-08-2008 22:58:03 17 C 8.25 g/m*3 17 C 0 km/h
236 15-08-2008 23:10:03 17 C 8.25 g/m*3 17 C 0 km/h
237 15-08-2008 23:22:03 16.7 C 8.38 g/m*3 16.7 C 0 km/h
238 15-08-2008 23:34:03 16.3 C 8.32 g/m*3 16.3 C 0 km/h
239 15-08-2008 23:46:04 16 C 8.31 g/m*3 16 C 0 km/h
240 15-08-2008 23:58:04 15.8 C 8.35 g/m*3 15.8 C 0 km/h
241 16-08-2008 00:10:04 15.4 C 8.41 g/m*3 15.4 C 0 km/h
242 16-08-2008 00:22:04 15.4 C 8.41 g/m*3 15.4 C 0 km/h
243 16-08-2008 00:34:04 15.1 C 8.51 g/m*3 15.1 C 0 km/h
244 16-08-2008 00:46:04 14.8 C 8.36 g/m*3 14.8 C 0 km/h
245 16-08-2008 00:58:04 14.7 C 8.56 g/m*3 14.7 C 0 km/h
246 16-08-2008 01:10:04 14.4 C 8.65 g/m*3 14.4 C 0 km/h
247 16-08-2008 01:22:04 14.1 C 8.5 g/m*3 14.1 C 0 km/h
248 16-08-2008 01:34:04 14.1 C 8.62 g/m*3 14.1 C 0 km/h
249 16-08-2008 01:46:04 13.9 C 8.63 g/m*3 13.9 C 0 km/h
250 16-08-2008 01:58:04 13.9 C 8.75 g/m*3 13.9 C 0 km/h
Sensor: Nr:Datum:Temp:Abs-Feuchte:Windchill:Wind:
Aussen-T/F 251 16-08-2008 02:10:04 13.7 C 8.64 g/m*3 13.7 C 0 km/h
252 16-08-2008 02:22:04 13.5 C 8.66 g/m*3 13.5 C 0 km/h
253 16-08-2008 02:34:04 13.4 C 8.6 g/m*3 13.4 C 0 km/h
254 16-08-2008 02:46:04 13.2 C 8.5 g/m*3 13.2 C 0 km/h
255 16-08-2008 02:58:04 13.1 C 8.56 g/m*3 13.1 C 0 km/h
256 16-08-2008 03:10:04 12.9 C 8.57 g/m*3 12.9 C 0 km/h
257 16-08-2008 03:22:04 12.7 C 8.68 g/m*3 12.7 C 0 km/h
258 16-08-2008 03:34:04 12.5 C 8.58 g/m*3 12.5 C 0 km/h
259 16-08-2008 03:46:04 12.4 C 8.52 g/m*3 12.4 C 0 km/h
260 16-08-2008 03:58:05 12.4 C 8.63 g/m*3 12.4 C 0 km/h
261 16-08-2008 04:10:05 12.1 C 8.47 g/m*3 12.1 C 0 km/h
262 16-08-2008 04:22:05 12 C 8.63 g/m*3 12 C 0 km/h
263 16-08-2008 04:34:05 11.8 C 8.63 g/m*3 11.8 C 0 km/h
264 16-08-2008 04:46:05 11.6 C 8.63 g/m*3 11.6 C 0 km/h
265 16-08-2008 04:58:05 11.5 C 8.57 g/m*3 11.5 C 0 km/h
266 16-08-2008 05:10:05 11.4 C 8.52 g/m*3 11.4 C 0 km/h
267 16-08-2008 05:22:05 11.2 C 8.41 g/m*3 11.2 C 0 km/h
268 16-08-2008 05:34:05 11.1 C 8.36 g/m*3 11.1 C 0 km/h
269 16-08-2008 05:46:05 11 C 8.41 g/m*3 11 C 0 km/h
270 16-08-2008 05:58:05 10.8 C 8.3 g/m*3 10.8 C 0 km/h
271 16-08-2008 06:10:05 10.8 C 8.3 g/m*3 10.8 C 0 km/h
272 16-08-2008 06:22:05 10.7 C 8.25 g/m*3 10.7 C 0 km/h
273 16-08-2008 06:34:05 10.6 C 8.2 g/m*3 10.6 C 0 km/h
274 16-08-2008 06:46:05 10.5 C 8.24 g/m*3 10.5 C 0 km/h
275 16-08-2008 06:58:05 10.5 C 8.24 g/m*3 10.5 C 0 km/h
Sensor: Nr:Datum:Temp:Abs-Feuchte:Windchill:Wind:
Aussen-T/F 276 16-08-2008 07:10:05 10.6 C 8.3 g/m*3 10.6 C 0 km/h
277 16-08-2008 07:22:02 10.7 C 8.25 g/m*3 10.7 C 0 km/h
278 16-08-2008 07:34:03 10.8 C 8.3 g/m*3 10.8 C 0 km/h
279 16-08-2008 07:46:02 10.9 C 8.36 g/m*3 10.9 C 0 km/h
280 16-08-2008 07:58:02 11 C 8.41 g/m*3 11 C 0 km/h
281 16-08-2008 08:10:02 11.1 C 8.46 g/m*3 11.1 C 0 km/h
282 16-08-2008 08:22:02 11.4 C 8.62 g/m*3 11.4 C 0 km/h
283 16-08-2008 08:34:02 11.6 C 8.73 g/m*3 11.6 C 0 km/h
284 16-08-2008 08:46:03 12 C 8.74 g/m*3 12 C 0 km/h
285 16-08-2008 08:58:03 12.2 C 8.63 g/m*3 12.2 C 0 km/h
286 16-08-2008 09:10:02 12.6 C 8.74 g/m*3 12.6 C 0 km/h
287 16-08-2008 09:22:03 13 C 8.62 g/m*3 13 C 0 km/h
288 16-08-2008 09:34:02 13.5 C 8.77 g/m*3 13.5 C 0 km/h
289 16-08-2008 09:46:02 14.1 C 8.74 g/m*3 14.1 C 0 km/h
290 16-08-2008 09:58:02 14.7 C 8.69 g/m*3 14.7 C 0 km/h
291 16-08-2008 10:10:02 15.3 C 8.75 g/m*3 15.3 C 0 km/h
292 16-08-2008 10:22:02 16.1 C 8.77 g/m*3 16.1 C 0 km/h
293 16-08-2008 10:34:02 16.7 C 8.81 g/m*3 16.7 C 0 km/h
294 16-08-2008 10:46:02 17.4 C 8.74 g/m*3 17.4 C 0 km/h
295 16-08-2008 10:58:02 18.1 C 8.5 g/m*3 18.1 C 0 km/h
296 16-08-2008 11:10:01 18.9 C 8.59 g/m*3 18.9 C 0 km/h
297 16-08-2008 11:22:02 20 C 8.64 g/m*3 20 C 0 km/h
298 16-08-2008 11:34:01 20.7 C 8.28 g/m*3 20.7 C 0 km/h
299 16-08-2008 11:46:01 20.4 C 7.78 g/m*3 20.4 C 0 km/h
300 16-08-2008 11:58:01 20.8 C 7.97 g/m*3 20.8 C 0 km/h
Sensor: Nr:Datum:Temp:Abs-Feuchte:Windchill:Wind:
Aussen-T/F 301 16-08-2008 12:10:01 21.4 C 7.31 g/m*3 21.4 C 0 km/h
302 16-08-2008 12:22:01 22.1 C 6.83 g/m*3 22.1 C 0 km/h
303 16-08-2008 12:34:01 22.5 C 6.99 g/m*3 22.5 C 0 km/h
304 16-08-2008 12:46:01 22.4 C 6.16 g/m*3 22.4 C 0 km/h
305 16-08-2008 12:58:01 22.5 C 5.79 g/m*3 22.5 C 0 km/h
306 16-08-2008 13:10:02 22.7 C 5.66 g/m*3 22.7 C 0 km/h
307 16-08-2008 13:22:01 23.5 C 5.5 g/m*3 23.5 C 0 km/h
308 16-08-2008 13:34:02 24.8 C 5.92 g/m*3 24.8 C 0 km/h
309 16-08-2008 13:46:02 25.1 C 5.32 g/m*3 25.1 C 0 km/h
310 16-08-2008 13:58:03 25.2 C 4.89 g/m*3 25.2 C 0 km/h
311 16-08-2008 14:10:02 24.8 C 5.01 g/m*3 24.8 C 0 km/h
312 16-08-2008 14:22:02 25.7 C 5.51 g/m*3 25.7 C 0 km/h
313 16-08-2008 14:34:01 26.7 C 5.06 g/m*3 26.7 C 0 km/h
314 16-08-2008 14:46:02 26.8 C 5.09 g/m*3 26.8 C 0 km/h
315 16-08-2008 14:58:02 27.2 C 5.2 g/m*3 27.2 C 0 km/h
316 16-08-2008 15:10:02 27.8 C 5.38 g/m*3 27.8 C 0 km/h
317 16-08-2008 15:22:02 28.3 C 5.53 g/m*3 28.3 C 0 km/h
318 16-08-2008 15:34:02 28.8 C 5.68 g/m*3 28.8 C 0 km/h
319 16-08-2008 15:46:01 29.4 C 5.87 g/m*3 29.4 C 0 km/h
320 16-08-2008 15:58:01 29.9 C 6.03 g/m*3 29.9 C 0 km/h
321 16-08-2008 16:10:02 30.2 C 6.13 g/m*3 30.2 C 0 km/h
322 16-08-2008 16:22:01 29.8 C 6 g/m*3 29.8 C 0 km/h
323 16-08-2008 16:34:02 29.8 C 6 g/m*3 29.8 C 0 km/h
324 16-08-2008 16:46:02 30.2 C 6.13 g/m*3 30.2 C 0 km/h
325 16-08-2008 16:58:02 30.6 C 6.26 g/m*3 30.6 C 0 km/h
Sensor: Nr:Datum:Temp:Abs-Feuchte:Windchill:Wind:
Aussen-T/F 326 16-08-2008 17:10:02 30.9 C 6.37 g/m*3 30.9 C 0 km/h
327 16-08-2008 17:22:02 29.2 C 5.81 g/m*3 29.2 C 0 km/h
328 16-08-2008 17:34:02 28.6 C 5.62 g/m*3 28.6 C 0 km/h
329 16-08-2008 17:46:02 29 C 5.74 g/m*3 29 C 0 km/h
330 16-08-2008 17:58:02 29.5 C 5.9 g/m*3 29.5 C 0 km/h
331 16-08-2008 18:10:01 30.3 C 6.16 g/m*3 30.3 C 0 km/h
332 16-08-2008 18:22:02 30.3 C 6.16 g/m*3 30.3 C 0 km/h
333 16-08-2008 18:34:01 30.3 C 6.16 g/m*3 30.3 C 0 km/h
334 16-08-2008 18:46:01 30.1 C 6.1 g/m*3 30.1 C 0 km/h
335 16-08-2008 18:58:01 29.7 C 5.97 g/m*3 29.7 C 0 km/h
336 16-08-2008 19:10:02 28.4 C 5.56 g/m*3 28.4 C 0 km/h
337 16-08-2008 19:22:01 26.5 C 6.26 g/m*3 26.5 C 0 km/h
338 16-08-2008 19:34:02 24.9 C 6.18 g/m*3 24.9 C 0 km/h
339 16-08-2008 19:46:01 23.6 C 6.38 g/m*3 23.6 C 0 km/h
340 16-08-2008 19:58:01 22.8 C 6.3 g/m*3 22.8 C 0 km/h
341 16-08-2008 20:10:02 22 C 6.4 g/m*3 22 C 0 km/h
342 16-08-2008 20:22:02 21.3 C 6.52 g/m*3 21.3 C 0 km/h
343 16-08-2008 20:34:02 20.8 C 6.7 g/m*3 20.8 C 0 km/h
344 16-08-2008 20:46:02 20.6 C 6.8 g/m*3 20.6 C 0 km/h
345 16-08-2008 20:58:02 19.6 C 6.92 g/m*3 19.6 C 0 km/h
346 16-08-2008 21:10:02 19.2 C 6.76 g/m*3 19.2 C 0 km/h
347 16-08-2008 21:22:01 19 C 6.84 g/m*3 19 C 0 km/h
348 16-08-2008 21:34:02 18.9 C 6.97 g/m*3 18.9 C 0 km/h
349 16-08-2008 21:46:02 18.7 C 7.04 g/m*3 18.7 C 0 km/h
350 16-08-2008 21:58:02 18.6 C 7.16 g/m*3 18.6 C 0 km/h
Sensor: Nr:Datum:Temp:Abs-Feuchte:Windchill:Wind:
Aussen-T/F 351 16-08-2008 22:10:02 18.5 C 7.28 g/m*3 18.5 C 0 km/h
352 16-08-2008 22:23:02 18.5 C 7.28 g/m*3 18.5 C 0 km/h
353 16-08-2008 22:35:02 18.2 C 7.15 g/m*3 18.2 C 0 km/h
354 16-08-2008 22:47:02 18.2 C 7.15 g/m*3 18.2 C 0 km/h
355 16-08-2008 22:59:02 18 C 7.07 g/m*3 18 C 0 km/h
356 16-08-2008 23:11:02 17.8 C 7.59 g/m*3 17.8 C 0 km/h
357 16-08-2008 23:23:02 17.5 C 7.75 g/m*3 17.5 C 0 km/h
358 16-08-2008 23:35:02 17.3 C 7.37 g/m*3 17.3 C 0 km/h
359 16-08-2008 23:47:02 17.1 C 7.42 g/m*3 17.1 C 0 km/h
360 16-08-2008 23:59:03 16.9 C 7.19 g/m*3 16.9 C 0 km/h
361 17-08-2008 00:11:03 16.6 C 7.06 g/m*3 16.6 C 0 km/h
362 17-08-2008 00:23:03 16.2 C 7.03 g/m*3 16.2 C 0 km/h
363 17-08-2008 00:35:03 16.1 C 7.26 g/m*3 16.1 C 0 km/h
364 17-08-2008 00:47:03 15.9 C 7.31 g/m*3 15.9 C 0 km/h
365 17-08-2008 00:59:03 15.8 C 7.4 g/m*3 15.8 C 0 km/h
366 17-08-2008 01:11:03 15.6 C 7.45 g/m*3 15.6 C 0 km/h
367 17-08-2008 01:23:03 15.3 C 7.44 g/m*3 15.3 C 0 km/h
368 17-08-2008 01:35:03 15.1 C 7.48 g/m*3 15.1 C 0 km/h
369 17-08-2008 01:47:03 14.9 C 7.52 g/m*3 14.9 C 0 km/h
370 17-08-2008 01:59:03 14.8 C 7.6 g/m*3 14.8 C 0 km/h
371 17-08-2008 02:11:03 14.7 C 7.55 g/m*3 14.7 C 0 km/h
372 17-08-2008 02:23:03 14.4 C 7.54 g/m*3 14.4 C 0 km/h
373 17-08-2008 02:35:03 14.4 C 7.66 g/m*3 14.4 C 0 km/h
374 17-08-2008 02:47:03 14.3 C 7.62 g/m*3 14.3 C 0 km/h
375 17-08-2008 02:59:03 14.1 C 7.65 g/m*3 14.1 C 0 km/h
Sensor: Nr:Datum:Temp:Abs-Feuchte:Windchill:Wind:
Aussen-T/F 376 17-08-2008 03:11:03 13.8 C 7.86 g/m*3 13.8 C 0 km/h
377 17-08-2008 03:23:03 13.7 C 7.82 g/m*3 13.7 C 0 km/h
378 17-08-2008 03:35:03 13.7 C 7.82 g/m*3 13.7 C 0 km/h
379 17-08-2008 03:47:03 13.5 C 7.72 g/m*3 13.5 C 0 km/h
380 17-08-2008 03:59:03 13.6 C 7.77 g/m*3 13.6 C 0 km/h
381 17-08-2008 04:11:04 13.4 C 7.79 g/m*3 13.4 C 0 km/h
382 17-08-2008 04:23:04 13.1 C 7.76 g/m*3 13.1 C 0 km/h
383 17-08-2008 04:35:04 13.1 C 7.87 g/m*3 13.1 C 0 km/h
384 17-08-2008 04:47:04 12.9 C 7.89 g/m*3 12.9 C 0 km/h
385 17-08-2008 04:59:04 12.9 C 7.89 g/m*3 12.9 C 0 km/h
386 17-08-2008 05:11:04 12.8 C 7.95 g/m*3 12.8 C 0 km/h
387 17-08-2008 05:23:04 12.7 C 7.9 g/m*3 12.7 C 0 km/h
388 17-08-2008 05:35:04 12.5 C 7.92 g/m*3 12.5 C 0 km/h
389 17-08-2008 05:47:04 12.3 C 7.82 g/m*3 12.3 C 0 km/h
390 17-08-2008 05:59:04 12.4 C 7.98 g/m*3 12.4 C 0 km/h
391 17-08-2008 06:11:04 12.2 C 7.88 g/m*3 12.2 C 0 km/h
392 17-08-2008 06:23:04 12.1 C 7.94 g/m*3 12.1 C 0 km/h
393 17-08-2008 06:35:04 11.9 C 8.05 g/m*3 11.9 C 0 km/h
394 17-08-2008 06:47:04 11.9 C 8.05 g/m*3 11.9 C 0 km/h
395 17-08-2008 06:59:04 12 C 7.99 g/m*3 12 C 0 km/h
396 17-08-2008 07:11:04 12 C 7.99 g/m*3 12 C 0 km/h
397 17-08-2008 07:23:04 12 C 8.1 g/m*3 12 C 0 km/h
398 17-08-2008 07:35:04 12 C 8.1 g/m*3 12 C 0 km/h
399 17-08-2008 07:47:04 12.1 C 8.15 g/m*3 12.1 C 0 km/h
400 17-08-2008 07:59:04 12.5 C 8.36 g/m*3 12.5 C 0 km/h
Sensor: Nr:Datum:Temp:Abs-Feuchte:Windchill:Wind:
Aussen-T/F 401 17-08-2008 08:11:05 12.5 C 8.36 g/m*3 12.5 C 0 km/h
402 17-08-2008 08:23:05 12.6 C 8.3 g/m*3 12.6 C 0 km/h
403 17-08-2008 08:35:05 12.9 C 8.45 g/m*3 12.9 C 0 km/h
404 17-08-2008 08:47:05 13.2 C 8.38 g/m*3 13.2 C 0 km/h
405 17-08-2008 08:59:05 13.6 C 8.47 g/m*3 13.6 C 0 km/h
406 17-08-2008 09:11:02 13.9 C 8.51 g/m*3 13.9 C 0 km/h
407 17-08-2008 09:23:03 14.6 C 8.51 g/m*3 14.6 C 0 km/h
408 17-08-2008 09:35:03 15.1 C 8.39 g/m*3 15.1 C 0 km/h
409 17-08-2008 09:47:01 15.5 C 8.46 g/m*3 15.5 C 0 km/h
410 17-08-2008 09:59:01 16.2 C 8.69 g/m*3 16.2 C 0 km/h
411 17-08-2008 10:11:03 17.1 C 8.88 g/m*3 17.1 C 0 km/h
412 17-08-2008 10:23:02 17.8 C 8.95 g/m*3 17.8 C 0 km/h
413 17-08-2008 10:35:02 18.7 C 9.13 g/m*3 18.7 C 0 km/h
414 17-08-2008 10:47:02 19.6 C 8.95 g/m*3 19.6 C 0 km/h
415 17-08-2008 10:59:02 20.2 C 8.92 g/m*3 20.2 C 0 km/h
416 17-08-2008 11:11:03 21 C 8.61 g/m*3 21 C 0 km/h
417 17-08-2008 11:23:03 21.8 C 8.83 g/m*3 21.8 C 0 km/h
418 17-08-2008 11:35:03 22.5 C 8.19 g/m*3 22.5 C 0 km/h
419 17-08-2008 11:47:02 22.9 C 7.77 g/m*3 22.9 C 0 km/h
420 17-08-2008 11:59:02 23.1 C 7.23 g/m*3 23.1 C 0 km/h
421 17-08-2008 12:11:02 23.7 C 6.84 g/m*3 23.7 C 0 km/h
422 17-08-2008 12:23:02 24.3 C 6.64 g/m*3 24.3 C 0 km/h
423 17-08-2008 12:35:02 24.1 C 5.69 g/m*3 24.1 C 0 km/h
424 17-08-2008 12:47:03 24.5 C 5.6 g/m*3 24.5 C 0 km/h
425 17-08-2008 12:59:03 24.5 C 4.7 g/m*3 24.5 C 0 km/h
Sensor: Nr:Datum:Temp:Abs-Feuchte:Windchill:Wind:
Aussen-T/F 426 17-08-2008 13:11:02 25 C 4.83 g/m*3 25 C 0 km/h
427 17-08-2008 13:23:02 25.5 C 4.73 g/m*3 25.5 C 0 km/h
428 17-08-2008 13:35:02 26.4 C 4.98 g/m*3 26.4 C 0 km/h
429 17-08-2008 13:47:02 26.1 C 4.9 g/m*3 26.1 C 0 km/h
430 17-08-2008 13:59:02 26.6 C 5.03 g/m*3 26.6 C 0 km/h
431 17-08-2008 14:11:02 26.3 C 4.95 g/m*3 26.3 C 0 km/h
432 17-08-2008 14:23:01 26.2 C 5.17 g/m*3 26.2 C 0 km/h
433 17-08-2008 14:35:01 26.8 C 5.35 g/m*3 26.8 C 0 km/h
434 17-08-2008 14:47:01 26.8 C 5.6 g/m*3 26.8 C 0 km/h
435 17-08-2008 14:59:01 25.9 C 5.57 g/m*3 25.9 C 0 km/h
436 17-08-2008 15:11:02 25.1 C 5.56 g/m*3 25.1 C 0 km/h
437 17-08-2008 15:23:01 25.3 C 5.62 g/m*3 25.3 C 0 km/h
438 17-08-2008 15:35:01 25.7 C 5.99 g/m*3 25.7 C 0 km/h
439 17-08-2008 15:47:02 27.6 C 5.59 g/m*3 27.6 C 0 km/h
440 17-08-2008 15:59:02 28.5 C 5.87 g/m*3 28.5 C 0 km/h
441 17-08-2008 16:11:02 27.9 C 5.68 g/m*3 27.9 C 0 km/h
442 17-08-2008 16:23:02 27.1 C 5.69 g/m*3 27.1 C 0 km/h
443 17-08-2008 16:35:01 27.1 C 5.43 g/m*3 27.1 C 0 km/h
444 17-08-2008 16:47:02 26.3 C 5.45 g/m*3 26.3 C 0 km/h
445 17-08-2008 16:59:02 26.6 C 5.54 g/m*3 26.6 C 0 km/h
446 17-08-2008 17:11:01 26.3 C 5.69 g/m*3 26.3 C 0 km/h
447 17-08-2008 17:23:02 26 C 5.84 g/m*3 26 C 0 km/h
448 17-08-2008 17:35:01 25.9 C 6.54 g/m*3 25.9 C 0 km/h
449 17-08-2008 17:47:01 25.4 C 6.12 g/m*3 25.4 C 0 km/h
450 17-08-2008 17:59:01 25.4 C 6.83 g/m*3 25.4 C 0 km/h
Sensor: Nr:Datum:Temp:Abs-Feuchte:Windchill:Wind:
Aussen-T/F 451 17-08-2008 18:11:02 25.2 C 6.98 g/m*3 25.2 C 0 km/h
452 17-08-2008 18:23:01 25.2 C 6.52 g/m*3 25.2 C 0 km/h
453 17-08-2008 18:35:02 24.9 C 6.87 g/m*3 24.9 C 0 km/h
454 17-08-2008 18:47:02 24.6 C 6.75 g/m*3 24.6 C 0 km/h
455 17-08-2008 18:59:02 24.6 C 6.98 g/m*3 24.6 C 0 km/h
456 17-08-2008 19:11:02 25.4 C 7.06 g/m*3 25.4 C 0 km/h
457 17-08-2008 19:23:02 24.8 C 7.28 g/m*3 24.8 C 0 km/h
458 17-08-2008 19:35:02 23.9 C 7.79 g/m*3 23.9 C 0 km/h
459 17-08-2008 19:47:01 23.7 C 7.7 g/m*3 23.7 C 0 km/h
460 17-08-2008 19:59:01 24.1 C 7.88 g/m*3 24.1 C 0 km/h
461 17-08-2008 20:11:01 23.3 C 7.95 g/m*3 23.3 C 0 km/h
462 17-08-2008 20:23:01 22.1 C 7.81 g/m*3 22.1 C 0 km/h
463 17-08-2008 20:35:02 21.4 C 8.06 g/m*3 21.4 C 0 km/h
464 17-08-2008 20:47:02 21.1 C 7.92 g/m*3 21.1 C 0 km/h
465 17-08-2008 20:59:02 20.8 C 8.33 g/m*3 20.8 C 0 km/h
466 17-08-2008 21:11:02 20.8 C 8.15 g/m*3 20.8 C 0 km/h
467 17-08-2008 21:23:02 21 C 8.06 g/m*3 21 C 0 km/h
468 17-08-2008 21:35:02 20.1 C 9.56 g/m*3 20.1 C 0 km/h
469 17-08-2008 21:47:02 17.7 C 11.32 g/m*3 17.7 C 0 km/h
470 17-08-2008 21:59:02 17.3 C 11.93 g/m*3 17.3 C 0 km/h
471 17-08-2008 22:11:01 17.4 C 12.3 g/m*3 17.4 C 0 km/h
472 17-08-2008 22:23:02 17.6 C 12.6 g/m*3 17.6 C 0 km/h
473 17-08-2008 22:36:02 17.3 C 12.08 g/m*3 17.3 C 0 km/h
474 17-08-2008 22:48:02 17.2 C 11.86 g/m*3 17.2 C 0 km/h
475 17-08-2008 23:00:02 17 C 11.72 g/m*3 17 C 0 km/h
Sensor: Nr:Datum:Temp:Abs-Feuchte:Windchill:Wind:
Aussen-T/F 476 17-08-2008 23:12:02 16.8 C 11.58 g/m*3 16.8 C 0 km/h
477 17-08-2008 23:24:02 16.5 C 11.37 g/m*3 16.5 C 0 km/h
478 17-08-2008 23:36:02 16.3 C 11.38 g/m*3 16.3 C 0 km/h
479 17-08-2008 23:48:02 16.1 C 11.24 g/m*3 16.1 C 0 km/h
480 18-08-2008 00:00:02 16.1 C 11.24 g/m*3 16.1 C 0 km/h
481 18-08-2008 00:12:02 16 C 11.17 g/m*3 16 C 0 km/h
482 18-08-2008 00:24:02 16.1 C 11.24 g/m*3 16.1 C 0 km/h
483 18-08-2008 00:36:03 16.1 C 11.24 g/m*3 16.1 C 0 km/h
484 18-08-2008 00:48:03 16.4 C 11.45 g/m*3 16.4 C 0 km/h
485 18-08-2008 01:00:03 16.5 C 11.37 g/m*3 16.5 C 0 km/h
486 18-08-2008 01:12:03 16.5 C 11.37 g/m*3 16.5 C 0 km/h
487 18-08-2008 01:24:03 16.6 C 11.44 g/m*3 16.6 C 0 km/h
488 18-08-2008 01:36:03 16.5 C 11.37 g/m*3 16.5 C 0 km/h
489 18-08-2008 01:48:03 16.6 C 11.44 g/m*3 16.6 C 0 km/h
490 18-08-2008 02:00:03 16.6 C 11.44 g/m*3 16.6 C 0 km/h
491 18-08-2008 02:12:03 16.6 C 11.44 g/m*3 16.6 C 0 km/h
492 18-08-2008 02:24:03 16.6 C 11.44 g/m*3 16.6 C 0 km/h
493 18-08-2008 02:36:03 16.7 C 11.51 g/m*3 16.7 C 0 km/h
494 18-08-2008 02:48:03 16.4 C 11.31 g/m*3 16.4 C 0 km/h
495 18-08-2008 03:00:03 16.3 C 11.38 g/m*3 16.3 C 0 km/h
496 18-08-2008 03:12:03 16.2 C 11.31 g/m*3 16.2 C 0 km/h
497 18-08-2008 03:24:03 16 C 11.17 g/m*3 16 C 0 km/h
498 18-08-2008 03:36:03 15.8 C 11.31 g/m*3 15.8 C 0 km/h
499 18-08-2008 03:48:03 15.5 C 11.1 g/m*3 15.5 C 0 km/h
500 18-08-2008 04:00:03 15.4 C 11.04 g/m*3 15.4 C 0 km/h
Sensor: Nr:Datum:Temp:Abs-Feuchte:Windchill:Wind:
Aussen-T/F 501 18-08-2008 04:12:03 15.4 C 11.17 g/m*3 15.4 C 0 km/h
502 18-08-2008 04:24:03 15.4 C 11.17 g/m*3 15.4 C 0 km/h
503 18-08-2008 04:36:03 15.4 C 11.17 g/m*3 15.4 C 0 km/h
504 18-08-2008 04:48:04 15.5 C 11.24 g/m*3 15.5 C 0 km/h
505 18-08-2008 05:00:04 15.5 C 11.24 g/m*3 15.5 C 0 km/h
506 18-08-2008 05:12:04 15.7 C 11.51 g/m*3 15.7 C 0 km/h
507 18-08-2008 05:24:04 15.8 C 11.44 g/m*3 15.8 C 0 km/h
508 18-08-2008 05:36:04 15.7 C 11.24 g/m*3 15.7 C 0 km/h
509 18-08-2008 05:48:04 15.8 C 11.44 g/m*3 15.8 C 0 km/h
510 18-08-2008 06:00:04 15.9 C 11.38 g/m*3 15.9 C 0 km/h
511 18-08-2008 06:12:04 15.9 C 11.38 g/m*3 15.9 C 0 km/h
512 18-08-2008 06:24:04 15.5 C 11.1 g/m*3 15.5 C 0 km/h
513 18-08-2008 06:36:04 15.3 C 10.97 g/m*3 15.3 C 0 km/h
514 18-08-2008 06:48:02 15.2 C 11.03 g/m*3 15.2 C 0 km/h
515 18-08-2008 07:00:03 15.2 C 11.03 g/m*3 15.2 C 0 km/h
516 18-08-2008 07:12:02 15.2 C 11.16 g/m*3 15.2 C 0 km/h
517 18-08-2008 07:24:02 15.2 C 11.16 g/m*3 15.2 C 0 km/h
518 18-08-2008 07:36:02 15.2 C 11.29 g/m*3 15.2 C 0 km/h
519 18-08-2008 07:48:02 15.3 C 11.36 g/m*3 15.3 C 0 km/h
520 18-08-2008 08:00:02 15.5 C 11.5 g/m*3 15.5 C 0 km/h
521 18-08-2008 08:12:01 15.9 C 11.65 g/m*3 15.9 C 0 km/h
522 18-08-2008 08:24:02 16.4 C 11.72 g/m*3 16.4 C 0 km/h
523 18-08-2008 08:36:01 16.8 C 11.72 g/m*3 16.8 C 0 km/h
524 18-08-2008 08:48:02 17.1 C 11.5 g/m*3 17.1 C 0 km/h
525 18-08-2008 09:00:02 17.9 C 11.76 g/m*3 17.9 C 0 km/h
Sensor: Nr:Datum:Temp:Abs-Feuchte:Windchill:Wind:
Aussen-T/F 526 18-08-2008 09:12:01 18.3 C 11.57 g/m*3 18.3 C 0 km/h
527 18-08-2008 09:24:01 18.8 C 11.76 g/m*3 18.8 C 0 km/h
528 18-08-2008 09:36:01 19.6 C 11.65 g/m*3 19.6 C 0 km/h
529 18-08-2008 09:48:02 20 C 10.89 g/m*3 20 C 0 km/h
530 18-08-2008 10:00:02 20.1 C 10.95 g/m*3 20.1 C 0 km/h
531 18-08-2008 10:12:02 20.4 C 10.79 g/m*3 20.4 C 0 km/h
532 18-08-2008 10:24:02 20.6 C 11.1 g/m*3 20.6 C 0 km/h
533 18-08-2008 10:36:02 21 C 10.62 g/m*3 21 C 0 km/h
534 18-08-2008 10:48:02 21.3 C 10.44 g/m*3 21.3 C 0 km/h
535 18-08-2008 11:00:02 21.6 C 10.24 g/m*3 21.6 C 0 km/h
536 18-08-2008 11:12:02 22 C 10.48 g/m*3 22 C 0 km/h
537 18-08-2008 11:24:03 22.5 C 10.39 g/m*3 22.5 C 0 km/h
538 18-08-2008 11:36:02 22.7 C 9.7 g/m*3 22.7 C 0 km/h
539 18-08-2008 11:48:02 23.2 C 9.77 g/m*3 23.2 C 0 km/h
540 18-08-2008 12:00:02 23.8 C 9.46 g/m*3 23.8 C 0 km/h
541 18-08-2008 12:12:02 23.9 C 9.52 g/m*3 23.9 C 0 km/h
542 18-08-2008 12:24:02 23.5 C 9.52 g/m*3 23.5 C 0 km/h
543 18-08-2008 12:36:02 23.6 C 9.36 g/m*3 23.6 C 0 km/h
544 18-08-2008 12:48:01 23.5 C 9.31 g/m*3 23.5 C 0 km/h
545 18-08-2008 13:00:01 23.7 C 9.41 g/m*3 23.7 C 0 km/h
546 18-08-2008 13:12:02 24.1 C 9.41 g/m*3 24.1 C 0 km/h
547 18-08-2008 13:24:01 24.8 C 9.1 g/m*3 24.8 C 0 km/h
548 18-08-2008 13:36:02 25.5 C 9 g/m*3 25.5 C 0 km/h
549 18-08-2008 13:48:02 25.9 C 8.72 g/m*3 25.9 C 0 km/h
550 18-08-2008 14:00:02 24.7 C 8.6 g/m*3 24.7 C 0 km/h
Sensor: Nr:Datum:Temp:Abs-Feuchte:Windchill:Wind:
Aussen-T/F 551 18-08-2008 14:12:02 24.6 C 8.78 g/m*3 24.6 C 0 km/h
552 18-08-2008 14:24:02 23.9 C 9.3 g/m*3 23.9 C 0 km/h
553 18-08-2008 14:36:02 24.7 C 9.05 g/m*3 24.7 C 0 km/h
554 18-08-2008 14:48:01 25.3 C 8.66 g/m*3 25.3 C 0 km/h
555 18-08-2008 15:00:01 25.4 C 8.48 g/m*3 25.4 C 0 km/h
556 18-08-2008 15:12:01 25.5 C 8.29 g/m*3 25.5 C 0 km/h
557 18-08-2008 15:24:01 25.3 C 8.19 g/m*3 25.3 C 0 km/h
558 18-08-2008 15:36:02 25.2 C 8.15 g/m*3 25.2 C 0 km/h
559 18-08-2008 15:48:02 25.1 C 8.1 g/m*3 25.1 C 0 km/h
560 18-08-2008 16:00:02 25.4 C 8.71 g/m*3 25.4 C 0 km/h
561 18-08-2008 16:12:02 25.7 C 9.1 g/m*3 25.7 C 0 km/h
562 18-08-2008 16:24:02 26.2 C 8.62 g/m*3 26.2 C 0 km/h
563 18-08-2008 16:36:02 26.4 C 8.46 g/m*3 26.4 C 0 km/h
564 18-08-2008 16:48:02 27.9 C 8.11 g/m*3 27.9 C 0 km/h
565 18-08-2008 17:00:02 29 C 7.76 g/m*3 29 C 0 km/h
566 18-08-2008 17:12:02 29.8 C 7.2 g/m*3 29.8 C 0 km/h
567 18-08-2008 17:24:02 29.4 C 7.34 g/m*3 29.4 C 0 km/h
568 18-08-2008 17:36:02 28.6 C 7.03 g/m*3 28.6 C 0 km/h
569 18-08-2008 17:48:02 29.7 C 6.86 g/m*3 29.7 C 0 km/h
570 18-08-2008 18:00:02 30 C 6.97 g/m*3 30 C 0 km/h
571 18-08-2008 18:12:03 29.6 C 6.83 g/m*3 29.6 C 0 km/h
572 18-08-2008 18:24:02 28.5 C 6.99 g/m*3 28.5 C 0 km/h
573 18-08-2008 18:36:03 28.9 C 7.14 g/m*3 28.9 C 0 km/h
574 18-08-2008 18:48:02 28 C 7.07 g/m*3 28 C 0 km/h
575 18-08-2008 19:00:03 28 C 7.34 g/m*3 28 C 0 km/h
Sensor: Nr:Datum:Temp:Abs-Feuchte:Windchill:Wind:
Aussen-T/F 576 18-08-2008 19:12:01 28 C 7.34 g/m*3 28 C 0 km/h
577 18-08-2008 19:24:02 27.5 C 7.67 g/m*3 27.5 C 0 km/h
578 18-08-2008 19:36:01 27.6 C 7.71 g/m*3 27.6 C 0 km/h
579 18-08-2008 19:48:02 28.2 C 8.25 g/m*3 28.2 C 0 km/h
580 18-08-2008 20:00:02 27.5 C 8.2 g/m*3 27.5 C 0 km/h
581 18-08-2008 20:12:01 26.3 C 8.66 g/m*3 26.3 C 0 km/h
582 18-08-2008 20:24:02 25.3 C 8.9 g/m*3 25.3 C 0 km/h
583 18-08-2008 20:36:01 24.6 C 9.23 g/m*3 24.6 C 0 km/h
584 18-08-2008 20:48:03 24.1 C 9.19 g/m*3 24.1 C 0 km/h
585 18-08-2008 21:00:03 23.7 C 9.63 g/m*3 23.7 C 0 km/h
586 18-08-2008 21:12:02 23.4 C 9.25 g/m*3 23.4 C 0 km/h
587 18-08-2008 21:24:03 23 C 9.45 g/m*3 23 C 0 km/h
588 18-08-2008 21:36:02 22.8 C 9.35 g/m*3 22.8 C 0 km/h
589 18-08-2008 21:48:02 22.6 C 9.64 g/m*3 22.6 C 0 km/h
590 18-08-2008 22:00:02 22.4 C 9.33 g/m*3 22.4 C 0 km/h
591 18-08-2008 22:13:01 22.4 C 9.33 g/m*3 22.4 C 0 km/h
592 18-08-2008 22:25:01 22.3 C 9.48 g/m*3 22.3 C 0 km/h
593 18-08-2008 22:37:01 22.1 C 9.56 g/m*3 22.1 C 0 km/h
594 18-08-2008 22:49:01 22 C 9.32 g/m*3 22 C 0 km/h
595 18-08-2008 23:01:01 21.9 C 9.46 g/m*3 21.9 C 0 km/h
596 18-08-2008 23:13:01 22 C 9.12 g/m*3 22 C 0 km/h
597 18-08-2008 23:25:01 21.8 C 9.78 g/m*3 21.8 C 0 km/h
598 18-08-2008 23:37:01 21.7 C 9.92 g/m*3 21.7 C 0 km/h
599 18-08-2008 23:49:01 21.6 C 9.86 g/m*3 21.6 C 0 km/h
600 19-08-2008 00:01:01 21.8 C 9.98 g/m*3 21.8 C 0 km/h
Sensor: Nr:Datum:Temp:Abs-Feuchte:Windchill:Wind:
Aussen-T/F 601 19-08-2008 00:13:01 22 C 10.29 g/m*3 22 C 0 km/h
602 19-08-2008 00:25:02 20.7 C 11.34 g/m*3 20.7 C 0 km/h
603 19-08-2008 00:37:02 20.5 C 11.74 g/m*3 20.5 C 0 km/h
604 19-08-2008 00:49:02 20.5 C 11.92 g/m*3 20.5 C 0 km/h
605 19-08-2008 01:01:02 20.6 C 12.17 g/m*3 20.6 C 0 km/h
606 19-08-2008 01:13:02 20.2 C 11.89 g/m*3 20.2 C 0 km/h
607 19-08-2008 01:25:02 19.8 C 11.79 g/m*3 19.8 C 0 km/h
608 19-08-2008 01:37:02 19.7 C 11.72 g/m*3 19.7 C 0 km/h
609 19-08-2008 01:49:02 19.5 C 11.75 g/m*3 19.5 C 0 km/h
610 19-08-2008 02:01:02 19.5 C 11.75 g/m*3 19.5 C 0 km/h
611 19-08-2008 02:13:02 19.2 C 11.54 g/m*3 19.2 C 0 km/h
612 19-08-2008 02:25:02 19.3 C 11.78 g/m*3 19.3 C 0 km/h
613 19-08-2008 02:37:02 19.1 C 11.64 g/m*3 19.1 C 0 km/h
614 19-08-2008 02:49:02 18.9 C 11.83 g/m*3 18.9 C 0 km/h
615 19-08-2008 03:01:02 18.7 C 11.69 g/m*3 18.7 C 0 km/h
616 19-08-2008 03:13:02 18.8 C 11.92 g/m*3 18.8 C 0 km/h
617 19-08-2008 03:25:02 19 C 11.9 g/m*3 19 C 0 km/h
618 19-08-2008 03:37:02 18.9 C 11.83 g/m*3 18.9 C 0 km/h
619 19-08-2008 03:49:02 18.7 C 11.69 g/m*3 18.7 C 0 km/h
620 19-08-2008 04:01:02 18.6 C 11.78 g/m*3 18.6 C 0 km/h
621 19-08-2008 04:13:02 18.5 C 11.71 g/m*3 18.5 C 0 km/h
622 19-08-2008 04:25:03 18.5 C 11.71 g/m*3 18.5 C 0 km/h
623 19-08-2008 04:37:03 18.9 C 11.34 g/m*3 18.9 C 0 km/h
624 19-08-2008 04:49:03 19.1 C 10.66 g/m*3 19.1 C 0 km/h
625 19-08-2008 05:01:03 19.2 C 10.72 g/m*3 19.2 C 0 km/h
Sensor: Nr:Datum:Temp:Abs-Feuchte:Windchill:Wind:
Aussen-T/F 626 19-08-2008 05:13:03 19 C 10.59 g/m*3 19 C 0 km/h
627 19-08-2008 05:25:03 18.8 C 10.79 g/m*3 18.8 C 0 km/h
628 19-08-2008 05:37:03 18.6 C 10.82 g/m*3 18.6 C 0 km/h
629 19-08-2008 05:49:03 18.3 C 10.79 g/m*3 18.3 C 0 km/h
630 19-08-2008 06:01:03 18.3 C 10.79 g/m*3 18.3 C 0 km/h
631 19-08-2008 06:13:03 18.3 C 10.32 g/m*3 18.3 C 0 km/h
632 19-08-2008 06:25:03 18.5 C 9.97 g/m*3 18.5 C 0 km/h
633 19-08-2008 06:37:03 18.7 C 9.77 g/m*3 18.7 C 0 km/h
634 19-08-2008 06:49:03 18.5 C 9.65 g/m*3 18.5 C 0 km/h
635 19-08-2008 07:01:02 18.5 C 9.49 g/m*3 18.5 C 0 km/h
636 19-08-2008 07:13:02 18.4 C 9.59 g/m*3 18.4 C 0 km/h
637 19-08-2008 07:25:02 18.2 C 9.64 g/m*3 18.2 C 0 km/h
638 19-08-2008 07:37:02 18 C 9.68 g/m*3 18 C 0 km/h
639 19-08-2008 07:49:02 18.5 C 9.49 g/m*3 18.5 C 0 km/h
640 19-08-2008 08:01:03 19 C 9.29 g/m*3 19 C 0 km/h
641 19-08-2008 08:13:03 19.4 C 8.84 g/m*3 19.4 C 0 km/h
642 19-08-2008 08:25:02 19.5 C 8.89 g/m*3 19.5 C 0 km/h
643 19-08-2008 08:37:02 19.7 C 8.83 g/m*3 19.7 C 0 km/h
644 19-08-2008 08:49:02 19.9 C 8.59 g/m*3 19.9 C 0 km/h
645 19-08-2008 09:01:02 20 C 8.47 g/m*3 20 C 0 km/h
646 19-08-2008 09:13:02 20.2 C 8.57 g/m*3 20.2 C 0 km/h
647 19-08-2008 09:25:02 20.1 C 8.52 g/m*3 20.1 C 0 km/h
648 19-08-2008 09:37:02 20 C 8.47 g/m*3 20 C 0 km/h
649 19-08-2008 09:49:02 20.2 C 8.74 g/m*3 20.2 C 0 km/h
650 19-08-2008 10:01:02 20.3 C 8.62 g/m*3 20.3 C 0 km/h
Sensor: Nr:Datum:Temp:Abs-Feuchte:Windchill:Wind:
Aussen-T/F 651 19-08-2008 10:13:02 20.7 C 8.82 g/m*3 20.7 C 0 km/h
652 19-08-2008 10:25:02 21 C 8.61 g/m*3 21 C 0 km/h
653 19-08-2008 10:37:02 20.8 C 8.87 g/m*3 20.8 C 0 km/h
654 19-08-2008 10:49:02 21.2 C 8.9 g/m*3 21.2 C 0 km/h
655 19-08-2008 11:01:02 21.3 C 8.95 g/m*3 21.3 C 0 km/h
656 19-08-2008 11:13:02 21.6 C 8.91 g/m*3 21.6 C 0 km/h
657 19-08-2008 11:25:02 21.5 C 8.86 g/m*3 21.5 C 0 km/h
658 19-08-2008 11:37:02 22.2 C 8.83 g/m*3 22.2 C 0 km/h
659 19-08-2008 11:49:02 21.9 C 8.68 g/m*3 21.9 C 0 km/h
660 19-08-2008 12:01:03 22.6 C 8.84 g/m*3 22.6 C 0 km/h
661 19-08-2008 12:13:03 22.7 C 8.49 g/m*3 22.7 C 0 km/h
662 19-08-2008 12:25:02 22.5 C 8.39 g/m*3 22.5 C 0 km/h
663 19-08-2008 12:37:03 22.7 C 8.28 g/m*3 22.7 C 0 km/h
664 19-08-2008 12:49:02 22.8 C 8.13 g/m*3 22.8 C 0 km/h
665 19-08-2008 13:01:01 23 C 8.02 g/m*3 23 C 0 km/h
666 19-08-2008 13:13:01 23.5 C 8.04 g/m*3 23.5 C 0 km/h
667 19-08-2008 13:25:02 23.9 C 8.22 g/m*3 23.9 C 0 km/h
668 19-08-2008 13:37:01 23.7 C 7.91 g/m*3 23.7 C 0 km/h
669 19-08-2008 13:49:02 23.7 C 8.13 g/m*3 23.7 C 0 km/h
670 19-08-2008 14:01:01 24.3 C 7.97 g/m*3 24.3 C 0 km/h
671 19-08-2008 14:13:01 24.5 C 7.83 g/m*3 24.5 C 0 km/h
672 19-08-2008 14:25:02 24.2 C 7.7 g/m*3 24.2 C 0 km/h
673 19-08-2008 14:37:01 23.6 C 7.87 g/m*3 23.6 C 0 km/h
674 19-08-2008 14:49:02 23.1 C 7.86 g/m*3 23.1 C 0 km/h
675 19-08-2008 15:01:01 23.1 C 7.86 g/m*3 23.1 C 0 km/h
Sensor: Nr:Datum:Temp:Abs-Feuchte:Windchill:Wind:
Aussen-T/F 676 19-08-2008 15:13:01 23.9 C 8.22 g/m*3 23.9 C 0 km/h
677 19-08-2008 15:25:02 24.1 C 7.88 g/m*3 24.1 C 0 km/h
678 19-08-2008 15:37:01 24.5 C 8.06 g/m*3 24.5 C 0 km/h
679 19-08-2008 15:49:01 24.4 C 8.01 g/m*3 24.4 C 0 km/h
680 19-08-2008 16:01:01 23.6 C 8.08 g/m*3 23.6 C 0 km/h
681 19-08-2008 16:13:01 23.5 C 8.25 g/m*3 23.5 C 0 km/h
682 19-08-2008 16:25:02 23.6 C 8.08 g/m*3 23.6 C 0 km/h
683 19-08-2008 16:37:01 24 C 7.83 g/m*3 24 C 0 km/h
684 19-08-2008 16:49:01 24.1 C 7.88 g/m*3 24.1 C 0 km/h
685 19-08-2008 17:01:01 23.9 C 8 g/m*3 23.9 C 0 km/h
686 19-08-2008 17:13:01 23.6 C 8.08 g/m*3 23.6 C 0 km/h
687 19-08-2008 17:25:01 23.5 C 8.25 g/m*3 23.5 C 0 km/h
688 19-08-2008 17:37:01 23.2 C 8.32 g/m*3 23.2 C 0 km/h
689 19-08-2008 17:49:01 22.8 C 8.33 g/m*3 22.8 C 0 km/h
690 19-08-2008 18:01:02 22.9 C 8.79 g/m*3 22.9 C 0 km/h
691 19-08-2008 18:13:02 22.8 C 8.53 g/m*3 22.8 C 0 km/h
692 19-08-2008 18:25:01 22.6 C 8.44 g/m*3 22.6 C 0 km/h
693 19-08-2008 18:37:02 22.5 C 8.59 g/m*3 22.5 C 0 km/h
694 19-08-2008 18:49:02 22.3 C 8.49 g/m*3 22.3 C 0 km/h
695 19-08-2008 19:01:02 22.2 C 8.64 g/m*3 22.2 C 0 km/h
696 19-08-2008 19:13:02 21.8 C 8.83 g/m*3 21.8 C 0 km/h
697 19-08-2008 19:25:02 21.5 C 8.86 g/m*3 21.5 C 0 km/h
698 19-08-2008 19:37:02 21.4 C 9.19 g/m*3 21.4 C 0 km/h
699 19-08-2008 19:49:01 21.3 C 9.32 g/m*3 21.3 C 0 km/h
700 19-08-2008 20:01:01 21.3 C 9.32 g/m*3 21.3 C 0 km/h
Sensor: Nr:Datum:Temp:Abs-Feuchte:Windchill:Wind:
Aussen-T/F 701 19-08-2008 20:13:01 21.5 C 9.24 g/m*3 21.5 C 0 km/h
702 19-08-2008 20:25:01 21.2 C 9.27 g/m*3 21.2 C 0 km/h
703 19-08-2008 20:37:02 20.8 C 9.42 g/m*3 20.8 C 0 km/h
704 19-08-2008 20:49:02 20.4 C 9.38 g/m*3 20.4 C 0 km/h
705 19-08-2008 21:01:02 20 C 9.33 g/m*3 20 C 0 km/h
706 19-08-2008 21:13:02 19.8 C 9.39 g/m*3 19.8 C 0 km/h
707 19-08-2008 21:25:02 19.5 C 9.4 g/m*3 19.5 C 0 km/h
708 19-08-2008 21:37:02 19.4 C 9.51 g/m*3 19.4 C 0 km/h
709 19-08-2008 21:50:02 19.2 C 9.56 g/m*3 19.2 C 0 km/h
710 19-08-2008 22:02:02 19.1 C 9.51 g/m*3 19.1 C 0 km/h
711 19-08-2008 22:14:02 19 C 9.61 g/m*3 19 C 0 km/h
712 19-08-2008 22:26:02 18.9 C 9.72 g/m*3 18.9 C 0 km/h
713 19-08-2008 22:38:02 18.9 C 9.72 g/m*3 18.9 C 0 km/h
714 19-08-2008 22:50:02 18.9 C 9.72 g/m*3 18.9 C 0 km/h
715 19-08-2008 23:02:02 18.8 C 9.82 g/m*3 18.8 C 0 km/h
716 19-08-2008 23:14:02 18.5 C 9.81 g/m*3 18.5 C 0 km/h
717 19-08-2008 23:26:02 18.6 C 9.87 g/m*3 18.6 C 0 km/h
718 19-08-2008 23:38:03 18.3 C 10.01 g/m*3 18.3 C 0 km/h
719 19-08-2008 23:50:03 17.8 C 10.47 g/m*3 17.8 C 0 km/h
720 20-08-2008 00:02:03 17.7 C 10.41 g/m*3 17.7 C 0 km/h
721 20-08-2008 00:14:03 18.1 C 10.2 g/m*3 18.1 C 0 km/h
722 20-08-2008 00:26:03 18.2 C 10.1 g/m*3 18.2 C 0 km/h
723 20-08-2008 00:38:03 18.1 C 10.2 g/m*3 18.1 C 0 km/h
724 20-08-2008 00:50:03 17.9 C 10.69 g/m*3 17.9 C 0 km/h
725 20-08-2008 01:02:03 17.8 C 10.62 g/m*3 17.8 C 0 km/h
Sensor: Nr:Datum:Temp:Abs-Feuchte:Windchill:Wind:
Aussen-T/F 726 20-08-2008 01:14:03 18.1 C 10.35 g/m*3 18.1 C 0 km/h
727 20-08-2008 01:26:03 17 C 11.29 g/m*3 17 C 0 km/h
728 20-08-2008 01:38:03 16.7 C 11.65 g/m*3 16.7 C 0 km/h
729 20-08-2008 01:50:03 16.6 C 11.72 g/m*3 16.6 C 0 km/h
730 20-08-2008 02:02:03 16.8 C 11.72 g/m*3 16.8 C 0 km/h
731 20-08-2008 02:14:03 16.8 C 11.44 g/m*3 16.8 C 0 km/h
732 20-08-2008 02:26:03 16.9 C 11.36 g/m*3 16.9 C 0 km/h
733 20-08-2008 02:38:03 16.7 C 11.23 g/m*3 16.7 C 0 km/h
734 20-08-2008 02:50:03 16.7 C 11.08 g/m*3 16.7 C 0 km/h
735 20-08-2008 03:02:03 16.7 C 10.94 g/m*3 16.7 C 0 km/h
736 20-08-2008 03:14:03 16.6 C 10.74 g/m*3 16.6 C 0 km/h
737 20-08-2008 03:26:04 16.5 C 10.67 g/m*3 16.5 C 0 km/h
738 20-08-2008 03:38:04 16.4 C 10.75 g/m*3 16.4 C 0 km/h
739 20-08-2008 03:50:04 16.3 C 10.82 g/m*3 16.3 C 0 km/h
740 20-08-2008 04:02:04 16.5 C 10.81 g/m*3 16.5 C 0 km/h
741 20-08-2008 04:14:04 16.6 C 10.74 g/m*3 16.6 C 0 km/h
742 20-08-2008 04:26:04 16.5 C 10.67 g/m*3 16.5 C 0 km/h
743 20-08-2008 04:38:04 16.4 C 10.61 g/m*3 16.4 C 0 km/h
744 20-08-2008 04:50:04 16.3 C 10.54 g/m*3 16.3 C 0 km/h
745 20-08-2008 05:02:04 16.4 C 10.61 g/m*3 16.4 C 0 km/h
746 20-08-2008 05:14:04 16.4 C 10.61 g/m*3 16.4 C 0 km/h
747 20-08-2008 05:26:04 16.2 C 10.48 g/m*3 16.2 C 0 km/h
748 20-08-2008 05:38:04 16.2 C 10.48 g/m*3 16.2 C 0 km/h
749 20-08-2008 05:50:04 16.1 C 10.28 g/m*3 16.1 C 0 km/h
750 20-08-2008 06:02:04 16 C 10.22 g/m*3 16 C 0 km/h
Sensor: Nr:Datum:Temp:Abs-Feuchte:Windchill:Wind:
Aussen-T/F 751 20-08-2008 06:14:04 16.1 C 10.42 g/m*3 16.1 C 0 km/h
752 20-08-2008 06:26:04 16 C 10.35 g/m*3 16 C 0 km/h
753 20-08-2008 06:38:04 15.8 C 10.36 g/m*3 15.8 C 0 km/h
754 20-08-2008 06:50:04 15.8 C 10.36 g/m*3 15.8 C 0 km/h
755 20-08-2008 07:02:02 15.8 C 10.36 g/m*3 15.8 C 0 km/h
756 20-08-2008 07:14:02 16 C 10.22 g/m*3 16 C 0 km/h
757 20-08-2008 07:26:02 16.2 C 10.2 g/m*3 16.2 C 0 km/h
758 20-08-2008 07:38:02 16.2 C 10.07 g/m*3 16.2 C 0 km/h
759 20-08-2008 07:50:02 16.2 C 9.79 g/m*3 16.2 C 0 km/h
760 20-08-2008 08:02:03 16.2 C 9.93 g/m*3 16.2 C 0 km/h
761 20-08-2008 08:14:03 16.3 C 9.85 g/m*3 16.3 C 0 km/h
762 20-08-2008 08:26:02 16.5 C 9.69 g/m*3 16.5 C 0 km/h
763 20-08-2008 08:38:02 16.6 C 9.61 g/m*3 16.6 C 0 km/h
764 20-08-2008 08:50:02 16.7 C 9.52 g/m*3 16.7 C 0 km/h
765 20-08-2008 09:02:02 16.9 C 9.35 g/m*3 16.9 C 0 km/h
766 20-08-2008 09:14:02 17 C 8.97 g/m*3 17 C 0 km/h
767 20-08-2008 09:26:02 17.5 C 9.24 g/m*3 17.5 C 0 km/h
768 20-08-2008 09:38:02 18 C 9.22 g/m*3 18 C 0 km/h
769 20-08-2008 09:50:02 18.2 C 9.01 g/m*3 18.2 C 0 km/h
770 20-08-2008 10:02:03 18.9 C 9.23 g/m*3 18.9 C 0 km/h
771 20-08-2008 10:14:03 18.8 C 9.18 g/m*3 18.8 C 0 km/h
772 20-08-2008 10:26:02 18.7 C 9.13 g/m*3 18.7 C 0 km/h
773 20-08-2008 10:38:02 19.4 C 9.01 g/m*3 19.4 C 0 km/h
774 20-08-2008 10:50:02 19.4 C 9.01 g/m*3 19.4 C 0 km/h
775 20-08-2008 11:02:02 19.7 C 9 g/m*3 19.7 C 0 km/h
Sensor: Nr:Datum:Temp:Abs-Feuchte:Windchill:Wind:
Aussen-T/F 776 20-08-2008 11:14:02 19.5 C 8.73 g/m*3 19.5 C 0 km/h
777 20-08-2008 11:26:02 19.5 C 9.06 g/m*3 19.5 C 0 km/h
778 20-08-2008 11:38:02 20.4 C 8.67 g/m*3 20.4 C 0 km/h
779 20-08-2008 11:50:02 19.8 C 8.37 g/m*3 19.8 C 0 km/h
780 20-08-2008 12:02:02 20.2 C 8.57 g/m*3 20.2 C 0 km/h
781 20-08-2008 12:14:02 21.1 C 8.48 g/m*3 21.1 C 0 km/h
782 20-08-2008 12:26:02 21.1 C 8.11 g/m*3 21.1 C 0 km/h
783 20-08-2008 12:38:02 20.8 C 8.33 g/m*3 20.8 C 0 km/h
784 20-08-2008 12:50:02 20.9 C 8.2 g/m*3 20.9 C 0 km/h
785 20-08-2008 13:02:02 20.9 C 8.38 g/m*3 20.9 C 0 km/h
786 20-08-2008 13:14:03 20.3 C 8.44 g/m*3 20.3 C 0 km/h
787 20-08-2008 13:26:02 20.5 C 8.54 g/m*3 20.5 C 0 km/h
788 20-08-2008 13:38:02 21.1 C 8.29 g/m*3 21.1 C 0 km/h
789 20-08-2008 13:50:01 21.1 C 8.29 g/m*3 21.1 C 0 km/h
790 20-08-2008 14:02:02 21.2 C 8.34 g/m*3 21.2 C 0 km/h
791 20-08-2008 14:14:02 22 C 7.96 g/m*3 22 C 0 km/h
792 20-08-2008 14:26:01 22.1 C 7.61 g/m*3 22.1 C 0 km/h
793 20-08-2008 14:38:02 22.5 C 7.99 g/m*3 22.5 C 0 km/h
794 20-08-2008 14:50:02 22.5 C 7.99 g/m*3 22.5 C 0 km/h
795 20-08-2008 15:02:02 22.4 C 8.14 g/m*3 22.4 C 0 km/h
796 20-08-2008 15:14:02 21.7 C 7.82 g/m*3 21.7 C 0 km/h
797 20-08-2008 15:26:02 22.5 C 7.99 g/m*3 22.5 C 0 km/h
798 20-08-2008 15:38:01 23 C 7.4 g/m*3 23 C 0 km/h
799 20-08-2008 15:50:02 21.9 C 7.53 g/m*3 21.9 C 0 km/h
800 20-08-2008 16:02:01 22.2 C 7.66 g/m*3 22.2 C 0 km/h
Sensor: Nr:Datum:Temp:Abs-Feuchte:Windchill:Wind:
Aussen-T/F 801 20-08-2008 16:14:01 22.5 C 7.79 g/m*3 22.5 C 0 km/h
802 20-08-2008 16:26:02 20.3 C 8.09 g/m*3 20.3 C 0 km/h
803 20-08-2008 16:38:01 20.4 C 7.78 g/m*3 20.4 C 0 km/h
804 20-08-2008 16:50:02 20.9 C 7.83 g/m*3 20.9 C 0 km/h
805 20-08-2008 17:02:01 22.7 C 7.68 g/m*3 22.7 C 0 km/h
806 20-08-2008 17:14:01 22.9 C 7.56 g/m*3 22.9 C 0 km/h
807 20-08-2008 17:26:02 23.2 C 7.48 g/m*3 23.2 C 0 km/h
808 20-08-2008 17:38:01 23.4 C 7.57 g/m*3 23.4 C 0 km/h
809 20-08-2008 17:50:01 24.1 C 7.66 g/m*3 24.1 C 0 km/h
810 20-08-2008 18:02:02 22.7 C 7.27 g/m*3 22.7 C 0 km/h
811 20-08-2008 18:14:03 22.2 C 7.07 g/m*3 22.2 C 0 km/h
812 20-08-2008 18:26:01 21.6 C 7.21 g/m*3 21.6 C 0 km/h
813 20-08-2008 18:38:02 21.3 C 7.46 g/m*3 21.3 C 0 km/h
814 20-08-2008 18:50:02 20.6 C 7.16 g/m*3 20.6 C 0 km/h
815 20-08-2008 19:02:02 20.6 C 7.34 g/m*3 20.6 C 0 km/h
816 20-08-2008 19:14:02 20.5 C 7.47 g/m*3 20.5 C 0 km/h
817 20-08-2008 19:26:02 20.3 C 7.56 g/m*3 20.3 C 0 km/h
818 20-08-2008 19:38:02 20.1 C 7.65 g/m*3 20.1 C 0 km/h
819 20-08-2008 19:50:02 20 C 7.78 g/m*3 20 C 0 km/h
820 20-08-2008 20:02:03 19.8 C 7.69 g/m*3 19.8 C 0 km/h
821 20-08-2008 20:14:03 19.7 C 7.81 g/m*3 19.7 C 0 km/h
822 20-08-2008 20:26:02 19.4 C 7.84 g/m*3 19.4 C 0 km/h
823 20-08-2008 20:38:03 19.2 C 7.91 g/m*3 19.2 C 0 km/h
824 20-08-2008 20:50:02 18.9 C 8.42 g/m*3 18.9 C 0 km/h
825 20-08-2008 21:02:01 18.6 C 8.59 g/m*3 18.6 C 0 km/h
Sensor: Nr:Datum:Temp:Abs-Feuchte:Windchill:Wind:
Aussen-T/F 826 20-08-2008 21:14:01 18.6 C 8.59 g/m*3 18.6 C 0 km/h
827 20-08-2008 21:26:02 18.4 C 8.65 g/m*3 18.4 C 0 km/h
828 20-08-2008 21:38:02 18.2 C 8.86 g/m*3 18.2 C 0 km/h
829 20-08-2008 21:50:02 17.9 C 9.01 g/m*3 17.9 C 0 km/h
830 20-08-2008 22:02:01 17.7 C 9.05 g/m*3 17.7 C 0 km/h
831 20-08-2008 22:14:01 17.7 C 9.05 g/m*3 17.7 C 0 km/h
832 20-08-2008 22:26:02 17.8 C 9.11 g/m*3 17.8 C 0 km/h
833 20-08-2008 22:38:01 17.8 C 8.95 g/m*3 17.8 C 0 km/h
834 20-08-2008 22:51:01 17.8 C 8.95 g/m*3 17.8 C 0 km/h
835 20-08-2008 23:03:01 17.8 C 8.95 g/m*3 17.8 C 0 km/h
836 20-08-2008 23:15:01 17.7 C 9.05 g/m*3 17.7 C 0 km/h
837 20-08-2008 23:27:01 17.7 C 9.05 g/m*3 17.7 C 0 km/h
838 20-08-2008 23:39:01 17.6 C 9 g/m*3 17.6 C 0 km/h
839 20-08-2008 23:51:01 17.5 C 9.09 g/m*3 17.5 C 0 km/h
840 21-08-2008 00:03:01 17.4 C 9.04 g/m*3 17.4 C 0 km/h
841 21-08-2008 00:15:01 17.5 C 9.24 g/m*3 17.5 C 0 km/h
842 21-08-2008 00:27:02 17.3 C 9.13 g/m*3 17.3 C 0 km/h
843 21-08-2008 00:39:02 17.2 C 8.93 g/m*3 17.2 C 0 km/h
844 21-08-2008 00:51:02 17.1 C 8.88 g/m*3 17.1 C 0 km/h
845 21-08-2008 01:03:02 17 C 8.97 g/m*3 17 C 0 km/h
846 21-08-2008 01:15:02 16.8 C 9.01 g/m*3 16.8 C 0 km/h
847 21-08-2008 01:27:02 16.7 C 8.95 g/m*3 16.7 C 0 km/h
848 21-08-2008 01:39:02 16.4 C 8.93 g/m*3 16.4 C 0 km/h
849 21-08-2008 01:51:02 16.2 C 8.96 g/m*3 16.2 C 0 km/h
850 21-08-2008 02:03:02 16 C 8.99 g/m*3 16 C 0 km/h
Sensor: Nr:Datum:Temp:Abs-Feuchte:Windchill:Wind:
Aussen-T/F 851 21-08-2008 02:15:02 15.9 C 9.07 g/m*3 15.9 C 0 km/h
852 21-08-2008 02:27:02 15.6 C 9.04 g/m*3 15.6 C 0 km/h
853 21-08-2008 02:39:02 15.3 C 9.01 g/m*3 15.3 C 0 km/h
854 21-08-2008 02:51:02 14.9 C 9.05 g/m*3 14.9 C 0 km/h
855 21-08-2008 03:03:02 14.8 C 9.12 g/m*3 14.8 C 0 km/h
856 21-08-2008 03:15:02 14.4 C 9.02 g/m*3 14.4 C 0 km/h
857 21-08-2008 03:27:02 14.4 C 9.15 g/m*3 14.4 C 0 km/h
858 21-08-2008 03:39:02 14.3 C 9.09 g/m*3 14.3 C 0 km/h
859 21-08-2008 03:51:02 14.1 C 9.1 g/m*3 14.1 C 0 km/h
860 21-08-2008 04:03:02 13.9 C 9.11 g/m*3 13.9 C 0 km/h
861 21-08-2008 04:15:03 13.7 C 9 g/m*3 13.7 C 0 km/h
862 21-08-2008 04:27:03 13.5 C 9.01 g/m*3 13.5 C 0 km/h
863 21-08-2008 04:39:03 13.5 C 9.01 g/m*3 13.5 C 0 km/h
864 21-08-2008 04:51:03 13.3 C 9.01 g/m*3 13.3 C 0 km/h
865 21-08-2008 05:03:03 13.2 C 9.07 g/m*3 13.2 C 0 km/h
866 21-08-2008 05:15:03 13.1 C 9.01 g/m*3 13.1 C 0 km/h
867 21-08-2008 05:27:03 13.1 C 9.13 g/m*3 13.1 C 0 km/h
868 21-08-2008 05:39:03 13.1 C 9.01 g/m*3 13.1 C 0 km/h
869 21-08-2008 05:51:03 13.1 C 9.01 g/m*3 13.1 C 0 km/h
870 21-08-2008 06:03:03 13 C 8.96 g/m*3 13 C 0 km/h
871 21-08-2008 06:15:03 12.9 C 9.02 g/m*3 12.9 C 0 km/h
872 21-08-2008 06:27:03 12.9 C 9.13 g/m*3 12.9 C 0 km/h
873 21-08-2008 06:39:02 13.2 C 9.19 g/m*3 13.2 C 0 km/h
874 21-08-2008 06:51:02 13.4 C 9.3 g/m*3 13.4 C 0 km/h
875 21-08-2008 07:03:02 13.6 C 9.3 g/m*3 13.6 C 0 km/h
Sensor: Nr:Datum:Temp:Abs-Feuchte:Windchill:Wind:
Aussen-T/F 876 21-08-2008 07:15:02 13.7 C 9.35 g/m*3 13.7 C 0 km/h
877 21-08-2008 07:27:02 14 C 9.41 g/m*3 14 C 0 km/h
878 21-08-2008 07:39:02 14.2 C 9.4 g/m*3 14.2 C 0 km/h
879 21-08-2008 07:51:02 14.6 C 9.51 g/m*3 14.6 C 0 km/h
880 21-08-2008 08:03:02 14.6 C 9.26 g/m*3 14.6 C 0 km/h
881 21-08-2008 08:15:02 14.5 C 9.33 g/m*3 14.5 C 0 km/h
882 21-08-2008 08:27:02 14.8 C 9.5 g/m*3 14.8 C 0 km/h
883 21-08-2008 08:39:02 15.4 C 9.2 g/m*3 15.4 C 0 km/h
884 21-08-2008 08:51:02 16 C 9.13 g/m*3 16 C 0 km/h
885 21-08-2008 09:03:02 15.9 C 9.07 g/m*3 15.9 C 0 km/h
886 21-08-2008 09:15:02 15.8 C 9.15 g/m*3 15.8 C 0 km/h
887 21-08-2008 09:27:02 15.9 C 9.21 g/m*3 15.9 C 0 km/h
888 21-08-2008 09:39:02 16.3 C 9.43 g/m*3 16.3 C 0 km/h
889 21-08-2008 09:51:02 16.8 C 9.58 g/m*3 16.8 C 0 km/h
890 21-08-2008 10:03:01 17.3 C 9.43 g/m*3 17.3 C 0 km/h
891 21-08-2008 10:15:02 17.8 C 9.26 g/m*3 17.8 C 0 km/h
892 21-08-2008 10:27:02 18.4 C 9.28 g/m*3 18.4 C 0 km/h
893 21-08-2008 10:39:01 19.1 C 9.02 g/m*3 19.1 C 0 km/h
894 21-08-2008 10:51:02 20.6 C 8.59 g/m*3 20.6 C 0 km/h
895 21-08-2008 11:03:01 20.3 C 8.27 g/m*3 20.3 C 0 km/h
896 21-08-2008 11:15:02 20.8 C 8.15 g/m*3 20.8 C 0 km/h
897 21-08-2008 11:27:02 20.7 C 8.28 g/m*3 20.7 C 0 km/h
898 21-08-2008 11:39:01 21.3 C 7.83 g/m*3 21.3 C 0 km/h
899 21-08-2008 11:51:01 21.5 C 8.11 g/m*3 21.5 C 0 km/h
900 21-08-2008 12:03:01 21.5 C 8.3 g/m*3 21.5 C 0 km/h
Sensor: Nr:Datum:Temp:Abs-Feuchte:Windchill:Wind:
Aussen-T/F 901 21-08-2008 12:15:02 22.7 C 7.88 g/m*3 22.7 C 0 km/h
902 21-08-2008 12:27:02 22.5 C 7.99 g/m*3 22.5 C 0 km/h
903 21-08-2008 12:39:01 23.5 C 7.82 g/m*3 23.5 C 0 km/h
904 21-08-2008 12:51:01 23.3 C 7.32 g/m*3 23.3 C 0 km/h
905 21-08-2008 13:03:02 23.4 C 7.36 g/m*3 23.4 C 0 km/h
906 21-08-2008 13:15:01 24.2 C 7.26 g/m*3 24.2 C 0 km/h
907 21-08-2008 13:27:01 24.6 C 6.98 g/m*3 24.6 C 0 km/h
908 21-08-2008 13:39:02 24.7 C 7.24 g/m*3 24.7 C 0 km/h
909 21-08-2008 13:51:02 24.5 C 7.16 g/m*3 24.5 C 0 km/h
910 21-08-2008 14:03:02 25.1 C 6.94 g/m*3 25.1 C 0 km/h
911 21-08-2008 14:15:02 25.1 C 6.94 g/m*3 25.1 C 0 km/h
912 21-08-2008 14:27:02 25.1 C 6.94 g/m*3 25.1 C 0 km/h
913 21-08-2008 14:39:02 25.6 C 6.67 g/m*3 25.6 C 0 km/h
914 21-08-2008 14:51:02 25.6 C 6.9 g/m*3 25.6 C 0 km/h
915 21-08-2008 15:03:03 25.5 C 6.87 g/m*3 25.5 C 0 km/h
916 21-08-2008 15:15:02 25.8 C 6.98 g/m*3 25.8 C 0 km/h
917 21-08-2008 15:27:02 25.8 C 6.74 g/m*3 25.8 C 0 km/h
918 21-08-2008 15:39:02 25.9 C 7.02 g/m*3 25.9 C 0 km/h
919 21-08-2008 15:51:02 25.7 C 7.18 g/m*3 25.7 C 0 km/h
920 21-08-2008 16:03:01 25.4 C 7.06 g/m*3 25.4 C 0 km/h
921 21-08-2008 16:15:02 25.5 C 7.34 g/m*3 25.5 C 0 km/h
922 21-08-2008 16:27:02 25.3 C 7.26 g/m*3 25.3 C 0 km/h
923 21-08-2008 16:39:02 25.9 C 7.26 g/m*3 25.9 C 0 km/h
924 21-08-2008 16:51:02 25.7 C 7.42 g/m*3 25.7 C 0 km/h
925 21-08-2008 17:03:01 25.4 C 7.53 g/m*3 25.4 C 0 km/h
Sensor: Nr:Datum:Temp:Abs-Feuchte:Windchill:Wind:
Aussen-T/F 926 21-08-2008 17:15:01 25 C 7.37 g/m*3 25 C 0 km/h
927 21-08-2008 17:27:01 25.4 C 7.3 g/m*3 25.4 C 0 km/h
928 21-08-2008 17:39:01 25.3 C 7.26 g/m*3 25.3 C 0 km/h
929 21-08-2008 17:51:03 26.1 C 7.34 g/m*3 26.1 C 0 km/h
930 21-08-2008 18:03:02 25.8 C 7.46 g/m*3 25.8 C 0 km/h
931 21-08-2008 18:15:02 25.4 C 7.53 g/m*3 25.4 C 0 km/h
932 21-08-2008 18:27:02 25.4 C 7.53 g/m*3 25.4 C 0 km/h
933 21-08-2008 18:39:02 24.5 C 7.83 g/m*3 24.5 C 0 km/h
934 21-08-2008 18:51:02 24.1 C 7.88 g/m*3 24.1 C 0 km/h
935 21-08-2008 19:03:02 23.7 C 7.91 g/m*3 23.7 C 0 km/h
936 21-08-2008 19:15:03 23.3 C 8.15 g/m*3 23.3 C 0 km/h
937 21-08-2008 19:27:03 22.9 C 8.17 g/m*3 22.9 C 0 km/h
938 21-08-2008 19:39:02 22.8 C 8.33 g/m*3 22.8 C 0 km/h
939 21-08-2008 19:51:01 22.9 C 8.38 g/m*3 22.9 C 0 km/h
940 21-08-2008 20:03:01 22.8 C 8.53 g/m*3 22.8 C 0 km/h
941 21-08-2008 20:15:01 22.6 C 8.44 g/m*3 22.6 C 0 km/h
942 21-08-2008 20:27:01 22.5 C 8.59 g/m*3 22.5 C 0 km/h
943 21-08-2008 20:39:01 22.3 C 8.49 g/m*3 22.3 C 0 km/h
944 21-08-2008 20:51:01 22.2 C 8.44 g/m*3 22.2 C 0 km/h
945 21-08-2008 21:03:02 22 C 8.54 g/m*3 22 C 0 km/h
946 21-08-2008 21:15:01 21.9 C 8.68 g/m*3 21.9 C 0 km/h
947 21-08-2008 21:27:01 21.9 C 8.68 g/m*3 21.9 C 0 km/h
948 21-08-2008 21:39:02 21.7 C 8.77 g/m*3 21.7 C 0 km/h
949 21-08-2008 21:51:02 21.6 C 8.72 g/m*3 21.6 C 0 km/h
950 21-08-2008 22:04:03 21.3 C 8.76 g/m*3 21.3 C 0 km/h
Sensor: Nr:Datum:Temp:Abs-Feuchte:Windchill:Wind:
Aussen-T/F 951 21-08-2008 22:16:03 21.1 C 8.66 g/m*3 21.1 C 0 km/h
952 21-08-2008 22:28:03 21 C 8.79 g/m*3 21 C 0 km/h
953 21-08-2008 22:40:03 20.7 C 9 g/m*3 20.7 C 0 km/h
954 21-08-2008 22:52:03 20.7 C 9 g/m*3 20.7 C 0 km/h
955 21-08-2008 23:04:03 20.6 C 9.13 g/m*3 20.6 C 0 km/h
956 21-08-2008 23:16:04 20.6 C 9.13 g/m*3 20.6 C 0 km/h
957 21-08-2008 23:28:04 20.4 C 9.2 g/m*3 20.4 C 0 km/h
958 21-08-2008 23:40:04 20.4 C 9.2 g/m*3 20.4 C 0 km/h
959 21-08-2008 23:52:04 20.2 C 9.27 g/m*3 20.2 C 0 km/h
960 22-08-2008 00:04:04 20.1 C 9.21 g/m*3 20.1 C 0 km/h
961 22-08-2008 00:16:04 20 C 9.33 g/m*3 20 C 0 km/h
962 22-08-2008 00:28:04 20.1 C 9.21 g/m*3 20.1 C 0 km/h
963 22-08-2008 00:40:04 20 C 9.33 g/m*3 20 C 0 km/h
964 22-08-2008 00:52:04 19.9 C 9.28 g/m*3 19.9 C 0 km/h
965 22-08-2008 01:04:04 20 C 9.33 g/m*3 20 C 0 km/h
966 22-08-2008 01:16:04 20.3 C 9.67 g/m*3 20.3 C 0 km/h
967 22-08-2008 01:28:04 19.6 C 9.62 g/m*3 19.6 C 0 km/h
968 22-08-2008 01:40:04 19.5 C 9.57 g/m*3 19.5 C 0 km/h
969 22-08-2008 01:52:04 19.3 C 9.45 g/m*3 19.3 C 0 km/h
970 22-08-2008 02:04:04 19.1 C 9.51 g/m*3 19.1 C 0 km/h
971 22-08-2008 02:16:04 18.9 C 9.56 g/m*3 18.9 C 0 km/h
972 22-08-2008 02:28:04 18.7 C 9.45 g/m*3 18.7 C 0 km/h
973 22-08-2008 02:40:04 18.5 C 9.33 g/m*3 18.5 C 0 km/h
974 22-08-2008 02:52:04 18.4 C 9.44 g/m*3 18.4 C 0 km/h
975 22-08-2008 03:04:05 18.5 C 9.33 g/m*3 18.5 C 0 km/h
Sensor: Nr:Datum:Temp:Abs-Feuchte:Windchill:Wind:
Aussen-T/F 976 22-08-2008 03:16:05 18.5 C 9.49 g/m*3 18.5 C 0 km/h
977 22-08-2008 03:28:05 18.4 C 9.44 g/m*3 18.4 C 0 km/h
978 22-08-2008 03:40:05 18.5 C 9.49 g/m*3 18.5 C 0 km/h
979 22-08-2008 03:52:05 18.5 C 9.49 g/m*3 18.5 C 0 km/h
980 22-08-2008 04:04:05 18.5 C 9.49 g/m*3 18.5 C 0 km/h
981 22-08-2008 04:16:05 18.4 C 9.44 g/m*3 18.4 C 0 km/h
982 22-08-2008 04:28:05 18.4 C 9.59 g/m*3 18.4 C 0 km/h
983 22-08-2008 04:40:05 18.3 C 9.54 g/m*3 18.3 C 0 km/h
984 22-08-2008 04:52:05 18.2 C 9.64 g/m*3 18.2 C 0 km/h
985 22-08-2008 05:04:05 18.2 C 9.64 g/m*3 18.2 C 0 km/h
986 22-08-2008 05:16:05 18.1 C 9.58 g/m*3 18.1 C 0 km/h
987 22-08-2008 05:28:05 18.2 C 9.64 g/m*3 18.2 C 0 km/h
988 22-08-2008 05:40:05 18.1 C 9.73 g/m*3 18.1 C 0 km/h
989 22-08-2008 05:52:05 18 C 9.68 g/m*3 18 C 0 km/h
990 22-08-2008 06:04:05 17.9 C 9.77 g/m*3 17.9 C 0 km/h
991 22-08-2008 06:16:05 17.5 C 9.69 g/m*3 17.5 C 0 km/h
992 22-08-2008 06:28:05 17.3 C 9.72 g/m*3 17.3 C 0 km/h
993 22-08-2008 06:40:05 17 C 9.69 g/m*3 17 C 0 km/h
994 22-08-2008 06:52:06 16.8 C 9.87 g/m*3 16.8 C 0 km/h
995 22-08-2008 07:04:06 16.9 C 9.92 g/m*3 16.9 C 0 km/h
996 22-08-2008 07:16:02 16.8 C 10.01 g/m*3 16.8 C 0 km/h
997 22-08-2008 07:28:02 17 C 10.13 g/m*3 17 C 0 km/h
998 22-08-2008 07:40:03 17.2 C 10.1 g/m*3 17.2 C 0 km/h
999 22-08-2008 07:52:01 17.6 C 10.35 g/m*3 17.6 C 0 km/h
1000 22-08-2008 08:04:01 17.7 C 10.26 g/m*3 17.7 C 0 km/h
Sensor: Nr:Datum:Temp:Abs-Feuchte:Windchill:Wind:
Aussen-T/F 1001 22-08-2008 08:16:01 17.8 C 10.32 g/m*3 17.8 C 0 km/h
1002 22-08-2008 08:28:01 18 C 9.98 g/m*3 18 C 0 km/h
1003 22-08-2008 08:40:01 17.9 C 9.92 g/m*3 17.9 C 0 km/h
1004 22-08-2008 08:52:02 17.7 C 9.96 g/m*3 17.7 C 0 km/h
1005 22-08-2008 09:04:02 17.8 C 10.02 g/m*3 17.8 C 0 km/h
1006 22-08-2008 09:16:02 18.1 C 9.89 g/m*3 18.1 C 0 km/h
1007 22-08-2008 09:28:02 18.7 C 10.09 g/m*3 18.7 C 0 km/h
1008 22-08-2008 09:40:02 19.3 C 10.12 g/m*3 19.3 C 0 km/h
1009 22-08-2008 09:52:02 20 C 10.02 g/m*3 20 C 0 km/h
1010 22-08-2008 10:04:02 20.6 C 10.02 g/m*3 20.6 C 0 km/h
1011 22-08-2008 10:16:02 21.2 C 9.82 g/m*3 21.2 C 0 km/h
1012 22-08-2008 10:28:02 22.2 C 9.82 g/m*3 22.2 C 0 km/h
1013 22-08-2008 10:40:02 22.9 C 9.61 g/m*3 22.9 C 0 km/h
1014 22-08-2008 10:52:02 23.3 C 9.41 g/m*3 23.3 C 0 km/h
1015 22-08-2008 11:04:02 23.6 C 9.36 g/m*3 23.6 C 0 km/h
1016 22-08-2008 11:16:02 24.4 C 9.12 g/m*3 24.4 C 0 km/h
1017 22-08-2008 11:28:02 24.9 C 8.93 g/m*3 24.9 C 0 km/h
1018 22-08-2008 11:40:02 24.5 C 9.4 g/m*3 24.5 C 0 km/h
1019 22-08-2008 11:52:02 24.9 C 9.16 g/m*3 24.9 C 0 km/h
1020 22-08-2008 12:04:02 24.8 C 8.88 g/m*3 24.8 C 0 km/h
1021 22-08-2008 12:16:02 24.8 C 9.1 g/m*3 24.8 C 0 km/h
1022 22-08-2008 12:28:02 24.8 C 8.88 g/m*3 24.8 C 0 km/h
1023 22-08-2008 12:40:02 24.5 C 8.95 g/m*3 24.5 C 0 km/h
1024 22-08-2008 12:52:02 24.5 C 9.18 g/m*3 24.5 C 0 km/h
1025 22-08-2008 13:04:02 24.3 C 9.07 g/m*3 24.3 C 0 km/h
Sensor: Nr:Datum:Temp:Abs-Feuchte:Windchill:Wind:
Aussen-T/F 1026 22-08-2008 13:16:02 24.2 C 9.24 g/m*3 24.2 C 0 km/h
1027 22-08-2008 13:28:02 23.4 C 9.88 g/m*3 23.4 C 0 km/h
1028 22-08-2008 13:40:02 22.9 C 10.22 g/m*3 22.9 C 0 km/h
1029 22-08-2008 13:52:02 21.5 C 10.94 g/m*3 21.5 C 0 km/h
1030 22-08-2008 14:04:01 19.1 C 11.31 g/m*3 19.1 C 0 km/h
1031 22-08-2008 14:16:02 18.1 C 12.05 g/m*3 18.1 C 0 km/h
1032 22-08-2008 14:28:02 17.9 C 12.67 g/m*3 17.9 C 0 km/h
1033 22-08-2008 14:40:01 18.2 C 12.9 g/m*3 18.2 C 0 km/h
1034 22-08-2008 14:52:02 18.1 C 12.82 g/m*3 18.1 C 0 km/h
1035 22-08-2008 15:04:01 18.4 C 13.21 g/m*3 18.4 C 0 km/h
1036 22-08-2008 15:16:02 18.5 C 13.29 g/m*3 18.5 C 0 km/h
1037 22-08-2008 15:28:02 18 C 13.21 g/m*3 18 C 0 km/h
1038 22-08-2008 15:40:01 17.9 C 13.44 g/m*3 17.9 C 0 km/h
1039 22-08-2008 15:52:03 18.3 C 13.76 g/m*3 18.3 C 0 km/h
1040 22-08-2008 16:04:02 18.5 C 13.92 g/m*3 18.5 C 0 km/h
1041 22-08-2008 16:16:03 18.3 C 13.76 g/m*3 18.3 C 0 km/h
1042 22-08-2008 16:28:03 18.5 C 13.92 g/m*3 18.5 C 0 km/h
1043 22-08-2008 16:40:03 18.2 C 13.68 g/m*3 18.2 C 0 km/h
1044 22-08-2008 16:52:02 17.9 C 13.59 g/m*3 17.9 C 0 km/h
1045 22-08-2008 17:04:02 17.8 C 13.36 g/m*3 17.8 C 0 km/h
1046 22-08-2008 17:16:01 17.8 C 13.36 g/m*3 17.8 C 0 km/h
1047 22-08-2008 17:28:01 17.7 C 13.28 g/m*3 17.7 C 0 km/h
1048 22-08-2008 17:40:02 17.5 C 13.12 g/m*3 17.5 C 0 km/h
1049 22-08-2008 17:52:02 17.5 C 13.12 g/m*3 17.5 C 0 km/h
1050 22-08-2008 18:04:02 17.5 C 13.12 g/m*3 17.5 C 0 km/h
Sensor: Nr:Datum:Temp:Abs-Feuchte:Windchill:Wind:
Aussen-T/F 1051 22-08-2008 18:16:02 16.1 C 11.79 g/m*3 16.1 C 0 km/h
1052 22-08-2008 18:28:02 15.7 C 11.51 g/m*3 15.7 C 0 km/h
1053 22-08-2008 18:40:02 15.5 C 11.5 g/m*3 15.5 C 0 km/h
1054 22-08-2008 18:52:02 15.6 C 11.84 g/m*3 15.6 C 0 km/h
1055 22-08-2008 19:04:02 15.4 C 11.69 g/m*3 15.4 C 0 km/h
1056 22-08-2008 19:16:02 15.2 C 11.68 g/m*3 15.2 C 0 km/h
1057 22-08-2008 19:28:02 15.2 C 11.81 g/m*3 15.2 C 0 km/h
1058 22-08-2008 19:40:02 15.4 C 11.96 g/m*3 15.4 C 0 km/h
1059 22-08-2008 19:52:02 15.4 C 12.09 g/m*3 15.4 C 0 km/h
1060 22-08-2008 20:04:01 15.4 C 12.09 g/m*3 15.4 C 0 km/h
1061 22-08-2008 20:16:02 15.3 C 12.01 g/m*3 15.3 C 0 km/h
1062 22-08-2008 20:28:02 15.3 C 12.01 g/m*3 15.3 C 0 km/h
1063 22-08-2008 20:40:01 15.4 C 12.22 g/m*3 15.4 C 0 km/h
1064 22-08-2008 20:52:02 15.4 C 12.22 g/m*3 15.4 C 0 km/h
1065 22-08-2008 21:04:01 15.4 C 12.22 g/m*3 15.4 C 0 km/h
1066 22-08-2008 21:16:02 15.5 C 12.29 g/m*3 15.5 C 0 km/h
1067 22-08-2008 21:28:02 15.3 C 12.14 g/m*3 15.3 C 0 km/h
1068 22-08-2008 21:40:01 15.1 C 12 g/m*3 15.1 C 0 km/h
1069 22-08-2008 21:52:03 14.9 C 11.98 g/m*3 14.9 C 0 km/h
1070 22-08-2008 22:04:02 14.8 C 11.91 g/m*3 14.8 C 0 km/h
1071 22-08-2008 22:16:03 14.8 C 11.91 g/m*3 14.8 C 0 km/h
1072 22-08-2008 22:28:03 14.8 C 11.91 g/m*3 14.8 C 0 km/h
1073 22-08-2008 22:40:02 15 C 12.05 g/m*3 15 C 0 km/h
1074 22-08-2008 22:52:01 15 C 12.05 g/m*3 15 C 0 km/h
1075 22-08-2008 23:05:02 14.7 C 11.83 g/m*3 14.7 C 0 km/h
Sensor: Nr:Datum:Temp:Abs-Feuchte:Windchill:Wind:
Aussen-T/F 1076 22-08-2008 23:17:02 14.6 C 11.76 g/m*3 14.6 C 0 km/h
1077 22-08-2008 23:29:02 14.7 C 11.83 g/m*3 14.7 C 0 km/h
1078 22-08-2008 23:41:02 14.8 C 12.03 g/m*3 14.8 C 0 km/h
1079 22-08-2008 23:53:02 14.6 C 11.76 g/m*3 14.6 C 0 km/h
1080 23-08-2008 00:05:02 14.5 C 11.69 g/m*3 14.5 C 0 km/h
1081 23-08-2008 00:17:02 14.3 C 11.55 g/m*3 14.3 C 0 km/h
1082 23-08-2008 00:29:02 14.1 C 11.53 g/m*3 14.1 C 0 km/h
1083 23-08-2008 00:41:02 14 C 11.34 g/m*3 14 C 0 km/h
1084 23-08-2008 00:53:02 14 C 11.34 g/m*3 14 C 0 km/h
1085 23-08-2008 01:05:02 14 C 11.34 g/m*3 14 C 0 km/h
1086 23-08-2008 01:17:02 13.8 C 11.32 g/m*3 13.8 C 0 km/h
1087 23-08-2008 01:29:02 13.8 C 11.32 g/m*3 13.8 C 0 km/h
1088 23-08-2008 01:41:03 13.7 C 11.13 g/m*3 13.7 C 0 km/h
1089 23-08-2008 01:53:03 13.8 C 11.2 g/m*3 13.8 C 0 km/h
1090 23-08-2008 02:05:03 13.8 C 11.2 g/m*3 13.8 C 0 km/h
1091 23-08-2008 02:17:03 13.7 C 11.13 g/m*3 13.7 C 0 km/h
1092 23-08-2008 02:29:03 13.7 C 11.01 g/m*3 13.7 C 0 km/h
1093 23-08-2008 02:41:03 13.7 C 11.01 g/m*3 13.7 C 0 km/h
1094 23-08-2008 02:53:03 13.6 C 10.95 g/m*3 13.6 C 0 km/h
1095 23-08-2008 03:05:03 13.6 C 10.95 g/m*3 13.6 C 0 km/h
1096 23-08-2008 03:17:03 13.3 C 10.4 g/m*3 13.3 C 0 km/h
1097 23-08-2008 03:29:03 13 C 9.75 g/m*3 13 C 0 km/h
1098 23-08-2008 03:41:03 12.6 C 9.4 g/m*3 12.6 C 0 km/h
1099 23-08-2008 03:53:03 12.2 C 9.28 g/m*3 12.2 C 0 km/h
1100 23-08-2008 04:05:03 11.9 C 9.32 g/m*3 11.9 C 0 km/h
Sensor: Nr:Datum:Temp:Abs-Feuchte:Windchill:Wind:
Aussen-T/F 1101 23-08-2008 04:17:03 11.7 C 9.31 g/m*3 11.7 C 0 km/h
1102 23-08-2008 04:29:03 11.5 C 9.3 g/m*3 11.5 C 0 km/h
1103 23-08-2008 04:41:03 11.4 C 9.34 g/m*3 11.4 C 0 km/h
1104 23-08-2008 04:53:03 11.2 C 9.22 g/m*3 11.2 C 0 km/h
1105 23-08-2008 05:05:03 11.1 C 9.17 g/m*3 11.1 C 0 km/h
1106 23-08-2008 05:17:03 10.9 C 9.15 g/m*3 10.9 C 0 km/h
1107 23-08-2008 05:29:04 10.8 C 9.09 g/m*3 10.8 C 0 km/h
1108 23-08-2008 05:41:04 10.8 C 9.09 g/m*3 10.8 C 0 km/h
1109 23-08-2008 05:53:04 11 C 9.21 g/m*3 11 C 0 km/h
1110 23-08-2008 06:05:04 11.2 C 9.43 g/m*3 11.2 C 0 km/h
1111 23-08-2008 06:17:04 11 C 9.21 g/m*3 11 C 0 km/h
1112 23-08-2008 06:29:04 10.9 C 9.25 g/m*3 10.9 C 0 km/h
1113 23-08-2008 06:41:04 10.8 C 9.19 g/m*3 10.8 C 0 km/h
1114 23-08-2008 06:53:04 10.7 C 9.13 g/m*3 10.7 C 0 km/h
1115 23-08-2008 07:05:04 10.7 C 9.13 g/m*3 10.7 C 0 km/h
1116 23-08-2008 07:17:04 10.7 C 9.13 g/m*3 10.7 C 0 km/h
1117 23-08-2008 07:29:04 10.8 C 9.19 g/m*3 10.8 C 0 km/h
1118 23-08-2008 07:41:04 11.1 C 9.27 g/m*3 11.1 C 0 km/h
1119 23-08-2008 07:53:01 11.6 C 9.56 g/m*3 11.6 C 0 km/h
1120 23-08-2008 08:05:02 12 C 9.7 g/m*3 12 C 0 km/h
1121 23-08-2008 08:17:02 12.1 C 9.65 g/m*3 12.1 C 0 km/h
1122 23-08-2008 08:29:02 12.7 C 9.8 g/m*3 12.7 C 0 km/h
1123 23-08-2008 08:41:01 12.5 C 9.24 g/m*3 12.5 C 0 km/h
1124 23-08-2008 08:53:01 12.6 C 9.07 g/m*3 12.6 C 0 km/h
1125 23-08-2008 09:05:02 12.8 C 8.96 g/m*3 12.8 C 0 km/h
Sensor: Nr:Datum:Temp:Abs-Feuchte:Windchill:Wind:
Aussen-T/F 1126 23-08-2008 09:17:01 13.2 C 8.96 g/m*3 13.2 C 0 km/h
1127 23-08-2008 09:29:01 13.3 C 8.78 g/m*3 13.3 C 0 km/h
1128 23-08-2008 09:41:01 13.4 C 9.07 g/m*3 13.4 C 0 km/h
1129 23-08-2008 09:53:02 14.5 C 9.58 g/m*3 14.5 C 0 km/h
1130 23-08-2008 10:05:01 14.4 C 8.78 g/m*3 14.4 C 0 km/h
1131 23-08-2008 10:17:02 14.8 C 8.99 g/m*3 14.8 C 0 km/h
1132 23-08-2008 10:29:02 15.1 C 8.9 g/m*3 15.1 C 0 km/h
1133 23-08-2008 10:41:01 15.7 C 8.7 g/m*3 15.7 C 0 km/h
1134 23-08-2008 10:53:02 16 C 8.72 g/m*3 16 C 0 km/h
1135 23-08-2008 11:05:02 16.3 C 8.6 g/m*3 16.3 C 0 km/h
1136 23-08-2008 11:17:03 16.6 C 8.62 g/m*3 16.6 C 0 km/h
1137 23-08-2008 11:29:03 17.1 C 8.44 g/m*3 17.1 C 0 km/h
1138 23-08-2008 11:41:02 17.4 C 8.3 g/m*3 17.4 C 0 km/h
1139 23-08-2008 11:53:01 17.7 C 8.3 g/m*3 17.7 C 0 km/h
1140 23-08-2008 12:05:02 17.9 C 8.4 g/m*3 17.9 C 0 km/h
1141 23-08-2008 12:17:01 18.5 C 7.59 g/m*3 18.5 C 0 km/h
1142 23-08-2008 12:29:01 17.5 C 7.6 g/m*3 17.5 C 0 km/h
1143 23-08-2008 12:41:02 17.5 C 7.6 g/m*3 17.5 C 0 km/h
1144 23-08-2008 12:53:02 17.7 C 7.85 g/m*3 17.7 C 0 km/h
1145 23-08-2008 13:05:02 18.2 C 7.62 g/m*3 18.2 C 0 km/h
1146 23-08-2008 13:17:02 18 C 7.68 g/m*3 18 C 0 km/h
1147 23-08-2008 13:29:02 17.5 C 7.6 g/m*3 17.5 C 0 km/h
1148 23-08-2008 13:41:02 17.5 C 7.6 g/m*3 17.5 C 0 km/h
1149 23-08-2008 13:53:02 18.4 C 7.24 g/m*3 18.4 C 0 km/h
1150 23-08-2008 14:05:03 17.9 C 7.79 g/m*3 17.9 C 0 km/h
Sensor: Nr:Datum:Temp:Abs-Feuchte:Windchill:Wind:
Aussen-T/F 1151 23-08-2008 14:17:02 17.7 C 6.49 g/m*3 17.7 C 0 km/h
1152 23-08-2008 14:29:02 17.9 C 6.11 g/m*3 17.9 C 0 km/h
1153 23-08-2008 14:41:03 17.7 C 5.88 g/m*3 17.7 C 0 km/h
1154 23-08-2008 14:53:02 17.5 C 6.11 g/m*3 17.5 C 0 km/h
1155 23-08-2008 15:05:02 17.2 C 6.15 g/m*3 17.2 C 0 km/h
1156 23-08-2008 15:17:02 17.1 C 6.26 g/m*3 17.1 C 0 km/h
1157 23-08-2008 15:29:02 17.1 C 6.4 g/m*3 17.1 C 0 km/h
1158 23-08-2008 15:41:02 17 C 6.8 g/m*3 17 C 0 km/h
1159 23-08-2008 15:53:01 17.3 C 6.78 g/m*3 17.3 C 0 km/h
1160 23-08-2008 16:05:02 16.6 C 7.2 g/m*3 16.6 C 0 km/h
1161 23-08-2008 16:17:02 17.4 C 7.41 g/m*3 17.4 C 0 km/h
1162 23-08-2008 16:29:02 18.6 C 7.16 g/m*3 18.6 C 0 km/h
1163 23-08-2008 16:41:02 18.1 C 7.26 g/m*3 18.1 C 0 km/h
1164 23-08-2008 16:53:02 18.5 C 7.91 g/m*3 18.5 C 0 km/h
1165 23-08-2008 17:05:02 19.7 C 7.64 g/m*3 19.7 C 0 km/h
1166 23-08-2008 17:17:02 19.6 C 7.6 g/m*3 19.6 C 0 km/h
1167 23-08-2008 17:29:02 19.7 C 7.64 g/m*3 19.7 C 0 km/h
1168 23-08-2008 17:41:02 19.1 C 7.21 g/m*3 19.1 C 0 km/h
1169 23-08-2008 17:53:02 19.5 C 7.55 g/m*3 19.5 C 0 km/h
1170 23-08-2008 18:05:03 18.9 C 6.97 g/m*3 18.9 C 0 km/h
1171 23-08-2008 18:17:02 18.8 C 7.09 g/m*3 18.8 C 0 km/h
1172 23-08-2008 18:29:02 18.7 C 6.88 g/m*3 18.7 C 0 km/h
1173 23-08-2008 18:41:03 18.6 C 6.84 g/m*3 18.6 C 0 km/h
1174 23-08-2008 18:53:02 18.4 C 6.92 g/m*3 18.4 C 0 km/h
1175 23-08-2008 19:05:02 18.2 C 7.15 g/m*3 18.2 C 0 km/h
Sensor: Nr:Datum:Temp:Abs-Feuchte:Windchill:Wind:
Aussen-T/F 1176 23-08-2008 19:17:02 17 C 8.39 g/m*3 17 C 0 km/h
1177 23-08-2008 19:29:03 16.8 C 9.29 g/m*3 16.8 C 0 km/h
1178 23-08-2008 19:41:02 16 C 9.4 g/m*3 16 C 0 km/h
1179 23-08-2008 19:53:02 15.9 C 9.89 g/m*3 15.9 C 0 km/h
1180 23-08-2008 20:05:02 15.8 C 9.69 g/m*3 15.8 C 0 km/h
1181 23-08-2008 20:17:02 16 C 8.58 g/m*3 16 C 0 km/h
1182 23-08-2008 20:29:02 16.3 C 8.19 g/m*3 16.3 C 0 km/h
1183 23-08-2008 20:41:02 15.8 C 8.48 g/m*3 15.8 C 0 km/h
1184 23-08-2008 20:53:01 14.9 C 9.18 g/m*3 14.9 C 0 km/h
1185 23-08-2008 21:05:02 14.5 C 9.58 g/m*3 14.5 C 0 km/h
1186 23-08-2008 21:17:02 14.2 C 9.89 g/m*3 14.2 C 0 km/h
1187 23-08-2008 21:29:02 14 C 10.01 g/m*3 14 C 0 km/h
1188 23-08-2008 21:41:02 14.2 C 10.14 g/m*3 14.2 C 0 km/h
1189 23-08-2008 21:53:02 14.1 C 9.95 g/m*3 14.1 C 0 km/h
1190 23-08-2008 22:06:01 14.3 C 9.95 g/m*3 14.3 C 0 km/h
1191 23-08-2008 22:18:01 14.4 C 9.77 g/m*3 14.4 C 0 km/h
1192 23-08-2008 22:30:01 14.6 C 9.76 g/m*3 14.6 C 0 km/h
1193 23-08-2008 22:42:01 14.4 C 9.52 g/m*3 14.4 C 0 km/h
1194 23-08-2008 22:54:01 14.1 C 9.47 g/m*3 14.1 C 0 km/h
1195 23-08-2008 23:06:01 14 C 9.41 g/m*3 14 C 0 km/h
1196 23-08-2008 23:18:01 13.9 C 9.47 g/m*3 13.9 C 0 km/h
1197 23-08-2008 23:30:01 13.9 C 9.35 g/m*3 13.9 C 0 km/h
1198 23-08-2008 23:42:01 14.1 C 9.1 g/m*3 14.1 C 0 km/h
1199 23-08-2008 23:54:02 14.2 C 9.16 g/m*3 14.2 C 0 km/h
1200 24-08-2008 00:06:02 13.9 C 9.11 g/m*3 13.9 C 0 km/h
Sensor: Nr:Datum:Temp:Abs-Feuchte:Windchill:Wind:
Aussen-T/F 1201 24-08-2008 00:18:02 13.8 C 9.17 g/m*3 13.8 C 0 km/h
1202 24-08-2008 00:30:02 13.6 C 9.06 g/m*3 13.6 C 0 km/h
1203 24-08-2008 00:42:02 13.6 C 9.06 g/m*3 13.6 C 0 km/h
1204 24-08-2008 00:54:02 13.5 C 9.01 g/m*3 13.5 C 0 km/h
1205 24-08-2008 01:06:02 13.5 C 9.01 g/m*3 13.5 C 0 km/h
1206 24-08-2008 01:18:02 13.4 C 8.95 g/m*3 13.4 C 0 km/h
1207 24-08-2008 01:30:02 13.5 C 8.89 g/m*3 13.5 C 0 km/h
1208 24-08-2008 01:42:02 13.2 C 8.84 g/m*3 13.2 C 0 km/h
1209 24-08-2008 01:54:02 12.9 C 8.9 g/m*3 12.9 C 0 km/h
1210 24-08-2008 02:06:02 13 C 8.96 g/m*3 13 C 0 km/h
1211 24-08-2008 02:18:02 13.1 C 8.9 g/m*3 13.1 C 0 km/h
1212 24-08-2008 02:30:02 12.8 C 8.85 g/m*3 12.8 C 0 km/h
1213 24-08-2008 02:42:02 12.6 C 8.96 g/m*3 12.6 C 0 km/h
1214 24-08-2008 02:54:02 12.5 C 8.91 g/m*3 12.5 C 0 km/h
1215 24-08-2008 03:06:02 12.3 C 8.9 g/m*3 12.3 C 0 km/h
1216 24-08-2008 03:18:02 12.4 C 8.96 g/m*3 12.4 C 0 km/h
1217 24-08-2008 03:30:02 12.5 C 8.91 g/m*3 12.5 C 0 km/h
1218 24-08-2008 03:42:03 12.4 C 8.85 g/m*3 12.4 C 0 km/h
1219 24-08-2008 03:54:03 12.1 C 8.9 g/m*3 12.1 C 0 km/h
1220 24-08-2008 04:06:03 12.1 C 8.79 g/m*3 12.1 C 0 km/h
1221 24-08-2008 04:18:03 12 C 8.85 g/m*3 12 C 0 km/h
1222 24-08-2008 04:30:03 12 C 8.85 g/m*3 12 C 0 km/h
1223 24-08-2008 04:42:03 11.8 C 8.84 g/m*3 11.8 C 0 km/h
1224 24-08-2008 04:54:03 11.7 C 8.79 g/m*3 11.7 C 0 km/h
1225 24-08-2008 05:06:03 11.4 C 8.72 g/m*3 11.4 C 0 km/h
Sensor: Nr:Datum:Temp:Abs-Feuchte:Windchill:Wind:
Aussen-T/F 1226 24-08-2008 05:18:03 11.2 C 8.72 g/m*3 11.2 C 0 km/h
1227 24-08-2008 05:30:03 11.2 C 8.82 g/m*3 11.2 C 0 km/h
1228 24-08-2008 05:42:03 11.1 C 8.76 g/m*3 11.1 C 0 km/h
1229 24-08-2008 05:54:03 11.2 C 8.82 g/m*3 11.2 C 0 km/h
1230 24-08-2008 06:06:03 11.2 C 8.82 g/m*3 11.2 C 0 km/h
1231 24-08-2008 06:18:03 11.5 C 8.99 g/m*3 11.5 C 0 km/h
1232 24-08-2008 06:30:03 11.7 C 8.99 g/m*3 11.7 C 0 km/h
1233 24-08-2008 06:42:03 11.8 C 8.95 g/m*3 11.8 C 0 km/h
1234 24-08-2008 06:54:03 11.7 C 8.89 g/m*3 11.7 C 0 km/h
1235 24-08-2008 07:06:03 11.8 C 8.95 g/m*3 11.8 C 0 km/h
1236 24-08-2008 07:18:03 11.8 C 8.95 g/m*3 11.8 C 0 km/h
1237 24-08-2008 07:30:03 11.6 C 8.83 g/m*3 11.6 C 0 km/h
1238 24-08-2008 07:42:04 11.6 C 8.83 g/m*3 11.6 C 0 km/h
1239 24-08-2008 07:54:04 11.7 C 8.89 g/m*3 11.7 C 0 km/h
1240 24-08-2008 08:06:04 11.6 C 8.94 g/m*3 11.6 C 0 km/h
1241 24-08-2008 08:18:04 11.8 C 9.05 g/m*3 11.8 C 0 km/h
1242 24-08-2008 08:30:04 11.9 C 9 g/m*3 11.9 C 0 km/h
1243 24-08-2008 08:42:04 12.1 C 9.01 g/m*3 12.1 C 0 km/h
1244 24-08-2008 08:54:04 12.3 C 9.12 g/m*3 12.3 C 0 km/h
1245 24-08-2008 09:06:02 12.5 C 9.24 g/m*3 12.5 C 0 km/h
1246 24-08-2008 09:18:02 12.8 C 9.3 g/m*3 12.8 C 0 km/h
1247 24-08-2008 09:30:02 13.5 C 9.36 g/m*3 13.5 C 0 km/h
1248 24-08-2008 09:42:02 14 C 9.17 g/m*3 14 C 0 km/h
1249 24-08-2008 09:54:02 14.2 C 9.28 g/m*3 14.2 C 0 km/h
1250 24-08-2008 10:06:02 15.2 C 9.48 g/m*3 15.2 C 0 km/h
Sensor: Nr:Datum:Temp:Abs-Feuchte:Windchill:Wind:
Aussen-T/F 1251 24-08-2008 10:18:02 15.5 C 9.25 g/m*3 15.5 C 0 km/h
1252 24-08-2008 10:30:03 15.8 C 9.29 g/m*3 15.8 C 0 km/h
1253 24-08-2008 10:42:02 16.2 C 8.96 g/m*3 16.2 C 0 km/h
1254 24-08-2008 10:54:02 16.4 C 8.93 g/m*3 16.4 C 0 km/h
1255 24-08-2008 11:06:02 16.6 C 8.9 g/m*3 16.6 C 0 km/h
1256 24-08-2008 11:18:02 17 C 8.68 g/m*3 17 C 0 km/h
1257 24-08-2008 11:30:02 17.4 C 8.6 g/m*3 17.4 C 0 km/h
1258 24-08-2008 11:42:02 18.4 C 8.34 g/m*3 18.4 C 0 km/h
1259 24-08-2008 11:54:02 19.1 C 7.7 g/m*3 19.1 C 0 km/h
1260 24-08-2008 12:06:02 19.1 C 7.38 g/m*3 19.1 C 0 km/h
1261 24-08-2008 12:18:02 19.2 C 7.59 g/m*3 19.2 C 0 km/h
1262 24-08-2008 12:30:02 19.7 C 7.47 g/m*3 19.7 C 0 km/h
1263 24-08-2008 12:42:02 19.5 C 6.88 g/m*3 19.5 C 0 km/h
1264 24-08-2008 12:54:02 19.6 C 6.92 g/m*3 19.6 C 0 km/h
1265 24-08-2008 13:06:02 19.6 C 6.75 g/m*3 19.6 C 0 km/h
1266 24-08-2008 13:18:01 20.5 C 6.94 g/m*3 20.5 C 0 km/h
1267 24-08-2008 13:30:01 21.1 C 6.82 g/m*3 21.1 C 0 km/h
1268 24-08-2008 13:42:02 21.6 C 6.45 g/m*3 21.6 C 0 km/h
1269 24-08-2008 13:54:02 21.9 C 6.56 g/m*3 21.9 C 0 km/h
1270 24-08-2008 14:06:03 21.3 C 6.34 g/m*3 21.3 C 0 km/h
1271 24-08-2008 14:18:02 21.5 C 6.22 g/m*3 21.5 C 0 km/h
1272 24-08-2008 14:30:02 21.6 C 6.07 g/m*3 21.6 C 0 km/h
1273 24-08-2008 14:42:03 22.5 C 5.99 g/m*3 22.5 C 0 km/h
1274 24-08-2008 14:54:02 22 C 6.02 g/m*3 22 C 0 km/h
1275 24-08-2008 15:06:01 22.1 C 6.05 g/m*3 22.1 C 0 km/h
Sensor: Nr:Datum:Temp:Abs-Feuchte:Windchill:Wind:
Aussen-T/F 1276 24-08-2008 15:18:02 22.9 C 6.34 g/m*3 22.9 C 0 km/h
1277 24-08-2008 15:30:03 22.9 C 6.13 g/m*3 22.9 C 0 km/h
1278 24-08-2008 15:42:01 22.7 C 6.26 g/m*3 22.7 C 0 km/h
1279 24-08-2008 15:54:02 22.4 C 5.96 g/m*3 22.4 C 0 km/h
1280 24-08-2008 16:06:02 22.7 C 6.06 g/m*3 22.7 C 0 km/h
1281 24-08-2008 16:18:02 22.7 C 6.26 g/m*3 22.7 C 0 km/h
1282 24-08-2008 16:30:02 22.6 C 6.23 g/m*3 22.6 C 0 km/h
1283 24-08-2008 16:42:02 22.4 C 6.16 g/m*3 22.4 C 0 km/h
1284 24-08-2008 16:54:01 22.7 C 6.06 g/m*3 22.7 C 0 km/h
1285 24-08-2008 17:06:02 22.5 C 5.99 g/m*3 22.5 C 0 km/h
1286 24-08-2008 17:18:02 22.4 C 6.36 g/m*3 22.4 C 0 km/h
1287 24-08-2008 17:30:02 23.5 C 5.71 g/m*3 23.5 C 0 km/h
1288 24-08-2008 17:42:02 23.4 C 5.89 g/m*3 23.4 C 0 km/h
1289 24-08-2008 17:54:01 22.1 C 6.25 g/m*3 22.1 C 0 km/h
1290 24-08-2008 18:06:01 21.8 C 6.91 g/m*3 21.8 C 0 km/h
1291 24-08-2008 18:18:02 21.9 C 6.95 g/m*3 21.9 C 0 km/h
1292 24-08-2008 18:30:03 21.6 C 7.59 g/m*3 21.6 C 0 km/h
1293 24-08-2008 18:42:01 21.2 C 7.41 g/m*3 21.2 C 0 km/h
1294 24-08-2008 18:54:03 21.1 C 7 g/m*3 21.1 C 0 km/h
1295 24-08-2008 19:06:02 21 C 7.33 g/m*3 21 C 0 km/h
1296 24-08-2008 19:18:03 20.7 C 7.56 g/m*3 20.7 C 0 km/h
1297 24-08-2008 19:30:03 20.3 C 7.74 g/m*3 20.3 C 0 km/h
1298 24-08-2008 19:42:02 19.9 C 7.73 g/m*3 19.9 C 0 km/h
1299 24-08-2008 19:54:01 19.5 C 7.89 g/m*3 19.5 C 0 km/h
1300 24-08-2008 20:06:01 19 C 7.66 g/m*3 19 C 0 km/h
Sensor: Nr:Datum:Temp:Abs-Feuchte:Windchill:Wind:
Aussen-T/F 1301 24-08-2008 20:18:01 18.8 C 7.89 g/m*3 18.8 C 0 km/h
1302 24-08-2008 20:30:01 18.6 C 8.12 g/m*3 18.6 C 0 km/h
1303 24-08-2008 20:42:01 18.3 C 8.13 g/m*3 18.3 C 0 km/h
1304 24-08-2008 20:54:01 18.2 C 8.24 g/m*3 18.2 C 0 km/h
1305 24-08-2008 21:06:02 17.9 C 8.24 g/m*3 17.9 C 0 km/h
1306 24-08-2008 21:18:01 17.9 C 8.24 g/m*3 17.9 C 0 km/h
1307 24-08-2008 21:30:01 17.9 C 8.4 g/m*3 17.9 C 0 km/h
1308 24-08-2008 21:42:02 17.9 C 8.09 g/m*3 17.9 C 0 km/h
1309 24-08-2008 21:55:03 17.9 C 8.24 g/m*3 17.9 C 0 km/h
1310 24-08-2008 22:07:03 17.9 C 8.09 g/m*3 17.9 C 0 km/h
1311 24-08-2008 22:19:03 17.8 C 8.2 g/m*3 17.8 C 0 km/h
1312 24-08-2008 22:31:03 17.3 C 8.54 g/m*3 17.3 C 0 km/h
1313 24-08-2008 22:43:03 16.4 C 9.07 g/m*3 16.4 C 0 km/h
1314 24-08-2008 22:55:03 16.2 C 9.38 g/m*3 16.2 C 0 km/h
1315 24-08-2008 23:07:03 15.9 C 9.89 g/m*3 15.9 C 0 km/h
1316 24-08-2008 23:19:03 15.6 C 10.24 g/m*3 15.6 C 0 km/h
1317 24-08-2008 23:31:03 15.4 C 10.38 g/m*3 15.4 C 0 km/h
1318 24-08-2008 23:43:03 15 C 10.51 g/m*3 15 C 0 km/h
1319 24-08-2008 23:55:03 14.6 C 10.64 g/m*3 14.6 C 0 km/h
1320 25-08-2008 00:07:03 14.5 C 10.7 g/m*3 14.5 C 0 km/h
1321 25-08-2008 00:19:03 14.4 C 10.88 g/m*3 14.4 C 0 km/h
1322 25-08-2008 00:31:03 14.5 C 11.07 g/m*3 14.5 C 0 km/h
1323 25-08-2008 00:43:03 14.5 C 11.07 g/m*3 14.5 C 0 km/h
1324 25-08-2008 00:55:03 14.4 C 11.13 g/m*3 14.4 C 0 km/h
1325 25-08-2008 01:07:03 14.5 C 11.19 g/m*3 14.5 C 0 km/h
Sensor: Nr:Datum:Temp:Abs-Feuchte:Windchill:Wind:
Aussen-T/F 1326 25-08-2008 01:19:03 14.4 C 11.13 g/m*3 14.4 C 0 km/h
1327 25-08-2008 01:31:04 14.4 C 11.13 g/m*3 14.4 C 0 km/h
1328 25-08-2008 01:43:04 14.4 C 11.13 g/m*3 14.4 C 0 km/h
1329 25-08-2008 01:55:04 14.5 C 11.19 g/m*3 14.5 C 0 km/h
1330 25-08-2008 02:07:04 14.7 C 11.46 g/m*3 14.7 C 0 km/h
1331 25-08-2008 02:19:04 14.7 C 11.33 g/m*3 14.7 C 0 km/h
1332 25-08-2008 02:31:04 14.6 C 11.26 g/m*3 14.6 C 0 km/h
1333 25-08-2008 02:43:04 14.7 C 11.33 g/m*3 14.7 C 0 km/h
1334 25-08-2008 02:55:04 14.6 C 11.26 g/m*3 14.6 C 0 km/h
1335 25-08-2008 03:07:04 14.5 C 11.19 g/m*3 14.5 C 0 km/h
1336 25-08-2008 03:19:04 14.5 C 11.07 g/m*3 14.5 C 0 km/h
1337 25-08-2008 03:31:04 14.4 C 11 g/m*3 14.4 C 0 km/h
1338 25-08-2008 03:43:04 14.4 C 11 g/m*3 14.4 C 0 km/h
1339 25-08-2008 03:55:04 14.4 C 11.13 g/m*3 14.4 C 0 km/h
1340 25-08-2008 04:07:04 14.4 C 11.13 g/m*3 14.4 C 0 km/h
1341 25-08-2008 04:19:04 14.3 C 10.93 g/m*3 14.3 C 0 km/h
1342 25-08-2008 04:31:04 14.3 C 11.06 g/m*3 14.3 C 0 km/h
1343 25-08-2008 04:43:04 14.3 C 11.06 g/m*3 14.3 C 0 km/h
1344 25-08-2008 04:55:04 14.2 C 10.99 g/m*3 14.2 C 0 km/h
1345 25-08-2008 05:07:04 14.2 C 10.99 g/m*3 14.2 C 0 km/h
1346 25-08-2008 05:19:04 14.2 C 11.11 g/m*3 14.2 C 0 km/h
1347 25-08-2008 05:31:05 14.2 C 11.11 g/m*3 14.2 C 0 km/h
1348 25-08-2008 05:43:05 14.3 C 11.18 g/m*3 14.3 C 0 km/h
1349 25-08-2008 05:55:05 14.2 C 11.11 g/m*3 14.2 C 0 km/h
1350 25-08-2008 06:07:05 14.3 C 11.06 g/m*3 14.3 C 0 km/h
Sensor: Nr:Datum:Temp:Abs-Feuchte:Windchill:Wind:
Aussen-T/F 1351 25-08-2008 06:19:05 14.4 C 11 g/m*3 14.4 C 0 km/h
1352 25-08-2008 06:31:05 14.5 C 10.94 g/m*3 14.5 C 0 km/h
1353 25-08-2008 06:43:05 14.6 C 10.89 g/m*3 14.6 C 0 km/h
1354 25-08-2008 06:55:05 14.6 C 10.89 g/m*3 14.6 C 0 km/h
1355 25-08-2008 07:07:05 14.7 C 10.95 g/m*3 14.7 C 0 km/h
1356 25-08-2008 07:19:05 14.8 C 11.02 g/m*3 14.8 C 0 km/h
1357 25-08-2008 07:31:03 14.7 C 11.08 g/m*3 14.7 C 0 km/h
1358 25-08-2008 07:43:03 14.7 C 11.08 g/m*3 14.7 C 0 km/h
1359 25-08-2008 07:55:02 14.7 C 11.08 g/m*3 14.7 C 0 km/h
1360 25-08-2008 08:07:01 14.8 C 11.15 g/m*3 14.8 C 0 km/h
1361 25-08-2008 08:19:01 14.8 C 11.15 g/m*3 14.8 C 0 km/h
1362 25-08-2008 08:31:02 14.9 C 11.09 g/m*3 14.9 C 0 km/h
1363 25-08-2008 08:43:02 15.1 C 11.22 g/m*3 15.1 C 0 km/h
1364 25-08-2008 08:55:02 15.2 C 11.29 g/m*3 15.2 C 0 km/h
1365 25-08-2008 09:07:02 15.5 C 11.5 g/m*3 15.5 C 0 km/h
1366 25-08-2008 09:19:03 15.6 C 11.44 g/m*3 15.6 C 0 km/h
1367 25-08-2008 09:31:02 15.6 C 11.57 g/m*3 15.6 C 0 km/h
1368 25-08-2008 09:43:02 15.9 C 11.78 g/m*3 15.9 C 0 km/h
1369 25-08-2008 09:55:02 16 C 11.58 g/m*3 16 C 0 km/h
1370 25-08-2008 10:07:01 16.5 C 11.8 g/m*3 16.5 C 0 km/h
1371 25-08-2008 10:19:02 16.8 C 11.87 g/m*3 16.8 C 0 km/h
1372 25-08-2008 10:31:01 17 C 11.87 g/m*3 17 C 0 km/h
1373 25-08-2008 10:43:01 17 C 11.58 g/m*3 17 C 0 km/h
1374 25-08-2008 10:55:02 17.1 C 11.35 g/m*3 17.1 C 0 km/h
1375 25-08-2008 11:07:01 17.2 C 11.42 g/m*3 17.2 C 0 km/h
Sensor: Nr:Datum:Temp:Abs-Feuchte:Windchill:Wind:
Aussen-T/F 1376 25-08-2008 11:19:02 17.5 C 11.48 g/m*3 17.5 C 0 km/h
1377 25-08-2008 11:31:01 17.7 C 11.47 g/m*3 17.7 C 0 km/h
1378 25-08-2008 11:43:01 17.9 C 11.45 g/m*3 17.9 C 0 km/h
1379 25-08-2008 11:55:02 18.7 C 11.37 g/m*3 18.7 C 0 km/h
1380 25-08-2008 12:07:02 18.9 C 11.18 g/m*3 18.9 C 0 km/h
1381 25-08-2008 12:19:02 19.5 C 10.74 g/m*3 19.5 C 0 km/h
1382 25-08-2008 12:31:02 19.6 C 10.8 g/m*3 19.6 C 0 km/h
1383 25-08-2008 12:43:02 20 C 10.71 g/m*3 20 C 0 km/h
1384 25-08-2008 12:55:02 20.5 C 10.5 g/m*3 20.5 C 0 km/h
1385 25-08-2008 13:07:03 20 C 10.37 g/m*3 20 C 0 km/h
1386 25-08-2008 13:19:02 19.4 C 10.34 g/m*3 19.4 C 0 km/h
1387 25-08-2008 13:31:03 20 C 10.54 g/m*3 20 C 0 km/h
1388 25-08-2008 13:43:03 20.5 C 10.32 g/m*3 20.5 C 0 km/h
1389 25-08-2008 13:55:02 19.7 C 10.36 g/m*3 19.7 C 0 km/h
1390 25-08-2008 14:07:01 20 C 10.37 g/m*3 20 C 0 km/h
1391 25-08-2008 14:19:02 20.5 C 10.32 g/m*3 20.5 C 0 km/h
1392 25-08-2008 14:31:01 20.8 C 10.32 g/m*3 20.8 C 0 km/h
1393 25-08-2008 14:43:01 20.9 C 10.2 g/m*3 20.9 C 0 km/h
1394 25-08-2008 14:55:02 21.2 C 10.01 g/m*3 21.2 C 0 km/h
1395 25-08-2008 15:07:01 20.4 C 10.26 g/m*3 20.4 C 0 km/h
1396 25-08-2008 15:19:02 20.7 C 10.62 g/m*3 20.7 C 0 km/h
1397 25-08-2008 15:31:01 21.4 C 10.31 g/m*3 21.4 C 0 km/h
1398 25-08-2008 15:43:01 21.4 C 10.31 g/m*3 21.4 C 0 km/h
1399 25-08-2008 15:55:02 22.2 C 9.82 g/m*3 22.2 C 0 km/h
1400 25-08-2008 16:07:01 22.4 C 9.93 g/m*3 22.4 C 0 km/h
Sensor: Nr:Datum:Temp:Abs-Feuchte:Windchill:Wind:
Aussen-T/F 1401 25-08-2008 16:19:02 22.4 C 10.13 g/m*3 22.4 C 0 km/h
1402 25-08-2008 16:31:01 22.5 C 9.79 g/m*3 22.5 C 0 km/h
1403 25-08-2008 16:43:01 22.4 C 10.13 g/m*3 22.4 C 0 km/h
1404 25-08-2008 16:55:01 23.5 C 9.73 g/m*3 23.5 C 0 km/h
1405 25-08-2008 17:07:02 23.8 C 9.9 g/m*3 23.8 C 0 km/h
1406 25-08-2008 17:19:01 23.9 C 9.74 g/m*3 23.9 C 0 km/h
1407 25-08-2008 17:31:02 23.8 C 9.68 g/m*3 23.8 C 0 km/h
1408 25-08-2008 17:43:02 22.6 C 9.84 g/m*3 22.6 C 0 km/h
1409 25-08-2008 17:55:02 21.9 C 10.03 g/m*3 21.9 C 0 km/h
1410 25-08-2008 18:07:02 21.9 C 10.23 g/m*3 21.9 C 0 km/h
1411 25-08-2008 18:19:02 21.4 C 10.12 g/m*3 21.4 C 0 km/h
1412 25-08-2008 18:31:02 21 C 10.08 g/m*3 21 C 0 km/h
1413 25-08-2008 18:43:02 21 C 10.62 g/m*3 21 C 0 km/h
1414 25-08-2008 18:55:02 20.9 C 10.75 g/m*3 20.9 C 0 km/h
1415 25-08-2008 19:07:03 20.9 C 10.75 g/m*3 20.9 C 0 km/h
1416 25-08-2008 19:19:02 20.5 C 10.85 g/m*3 20.5 C 0 km/h
1417 25-08-2008 19:31:03 20.3 C 10.9 g/m*3 20.3 C 0 km/h
1418 25-08-2008 19:43:03 21 C 10.62 g/m*3 21 C 0 km/h
1419 25-08-2008 19:55:02 20.9 C 9.29 g/m*3 20.9 C 0 km/h
1420 25-08-2008 20:07:02 20 C 9.33 g/m*3 20 C 0 km/h
1421 25-08-2008 20:19:02 19.3 C 9.79 g/m*3 19.3 C 0 km/h
1422 25-08-2008 20:31:01 18.8 C 9.82 g/m*3 18.8 C 0 km/h
1423 25-08-2008 20:43:01 18.3 C 9.85 g/m*3 18.3 C 0 km/h
1424 25-08-2008 20:55:02 17.9 C 9.92 g/m*3 17.9 C 0 km/h
1425 25-08-2008 21:07:02 17.6 C 10.05 g/m*3 17.6 C 0 km/h
Sensor: Nr:Datum:Temp:Abs-Feuchte:Windchill:Wind:
Aussen-T/F 1426 25-08-2008 21:19:02 17.4 C 9.93 g/m*3 17.4 C 0 km/h
1427 25-08-2008 21:31:01 17.2 C 9.96 g/m*3 17.2 C 0 km/h
1428 25-08-2008 21:43:01 17 C 9.98 g/m*3 17 C 0 km/h
1429 25-08-2008 21:56:02 17 C 9.98 g/m*3 17 C 0 km/h
1430 25-08-2008 22:08:02 16.8 C 10.01 g/m*3 16.8 C 0 km/h
1431 25-08-2008 22:20:02 16.6 C 9.89 g/m*3 16.6 C 0 km/h
1432 25-08-2008 22:32:02 16.6 C 9.75 g/m*3 16.6 C 0 km/h
1433 25-08-2008 22:44:02 16.3 C 9.71 g/m*3 16.3 C 0 km/h
1434 25-08-2008 22:56:02 16.1 C 9.73 g/m*3 16.1 C 0 km/h
1435 25-08-2008 23:08:02 15.8 C 9.83 g/m*3 15.8 C 0 km/h
1436 25-08-2008 23:20:02 15.7 C 9.9 g/m*3 15.7 C 0 km/h
1437 25-08-2008 23:32:02 15.5 C 9.91 g/m*3 15.5 C 0 km/h
1438 25-08-2008 23:44:02 15.3 C 9.92 g/m*3 15.3 C 0 km/h
1439 25-08-2008 23:56:02 15.1 C 10.06 g/m*3 15.1 C 0 km/h
1440 26-08-2008 00:08:02 14.9 C 10.2 g/m*3 14.9 C 0 km/h
1441 26-08-2008 00:20:02 14.7 C 10.2 g/m*3 14.7 C 0 km/h
1442 26-08-2008 00:32:03 14.5 C 10.07 g/m*3 14.5 C 0 km/h
1443 26-08-2008 00:44:03 14.4 C 10.14 g/m*3 14.4 C 0 km/h
1444 26-08-2008 00:56:03 14.3 C 10.07 g/m*3 14.3 C 0 km/h
1445 26-08-2008 01:08:03 14.2 C 10.01 g/m*3 14.2 C 0 km/h
1446 26-08-2008 01:20:03 14.1 C 9.95 g/m*3 14.1 C 0 km/h
1447 26-08-2008 01:32:03 13.9 C 9.95 g/m*3 13.9 C 0 km/h
1448 26-08-2008 01:44:03 13.8 C 9.89 g/m*3 13.8 C 0 km/h
1449 26-08-2008 01:56:03 13.7 C 9.83 g/m*3 13.7 C 0 km/h
1450 26-08-2008 02:08:03 13.6 C 9.77 g/m*3 13.6 C 0 km/h
Sensor: Nr:Datum:Temp:Abs-Feuchte:Windchill:Wind:
Aussen-T/F 1451 26-08-2008 02:20:03 13.8 C 10.01 g/m*3 13.8 C 0 km/h
1452 26-08-2008 02:32:03 13.9 C 10.07 g/m*3 13.9 C 0 km/h
1453 26-08-2008 02:44:03 14.1 C 10.07 g/m*3 14.1 C 0 km/h
1454 26-08-2008 02:56:03 14.2 C 10.01 g/m*3 14.2 C 0 km/h
1455 26-08-2008 03:08:03 14.2 C 10.01 g/m*3 14.2 C 0 km/h
1456 26-08-2008 03:20:03 14.2 C 10.01 g/m*3 14.2 C 0 km/h
1457 26-08-2008 03:32:03 14 C 9.77 g/m*3 14 C 0 km/h
1458 26-08-2008 03:44:03 14 C 9.77 g/m*3 14 C 0 km/h
1459 26-08-2008 03:56:03 14 C 9.77 g/m*3 14 C 0 km/h
1460 26-08-2008 04:08:03 14.1 C 9.95 g/m*3 14.1 C 0 km/h
1461 26-08-2008 04:20:03 14.1 C 9.83 g/m*3 14.1 C 0 km/h
1462 26-08-2008 04:32:04 14.1 C 9.95 g/m*3 14.1 C 0 km/h
1463 26-08-2008 04:44:04 14.3 C 10.07 g/m*3 14.3 C 0 km/h
1464 26-08-2008 04:56:04 14.4 C 10.01 g/m*3 14.4 C 0 km/h
1465 26-08-2008 05:08:04 14.5 C 10.07 g/m*3 14.5 C 0 km/h
1466 26-08-2008 05:20:04 14.6 C 10.14 g/m*3 14.6 C 0 km/h
1467 26-08-2008 05:32:04 14.6 C 10.01 g/m*3 14.6 C 0 km/h
1468 26-08-2008 05:44:04 14.6 C 10.14 g/m*3 14.6 C 0 km/h
1469 26-08-2008 05:56:04 14.7 C 9.95 g/m*3 14.7 C 0 km/h
1470 26-08-2008 06:08:04 14.7 C 9.95 g/m*3 14.7 C 0 km/h
1471 26-08-2008 06:20:04 14.7 C 9.82 g/m*3 14.7 C 0 km/h
1472 26-08-2008 06:32:04 15 C 9.87 g/m*3 15 C 0 km/h
1473 26-08-2008 06:44:04 14.7 C 9.82 g/m*3 14.7 C 0 km/h
1474 26-08-2008 06:56:02 14.8 C 9.75 g/m*3 14.8 C 0 km/h
1475 26-08-2008 07:08:02 14.9 C 9.81 g/m*3 14.9 C 0 km/h
Sensor: Nr:Datum:Temp:Abs-Feuchte:Windchill:Wind:
Aussen-T/F 1476 26-08-2008 07:20:02 15 C 9.62 g/m*3 15 C 0 km/h
1477 26-08-2008 07:32:02 15.2 C 9.73 g/m*3 15.2 C 0 km/h
1478 26-08-2008 07:44:02 15.3 C 9.79 g/m*3 15.3 C 0 km/h
1479 26-08-2008 07:56:01 15.4 C 9.72 g/m*3 15.4 C 0 km/h
1480 26-08-2008 08:08:02 15.6 C 9.84 g/m*3 15.6 C 0 km/h
1481 26-08-2008 08:20:01 15.6 C 9.71 g/m*3 15.6 C 0 km/h
1482 26-08-2008 08:32:02 15.8 C 9.83 g/m*3 15.8 C 0 km/h
1483 26-08-2008 08:44:02 15.9 C 9.75 g/m*3 15.9 C 0 km/h
1484 26-08-2008 08:56:02 16.2 C 9.79 g/m*3 16.2 C 0 km/h
1485 26-08-2008 09:08:02 16.4 C 9.77 g/m*3 16.4 C 0 km/h
1486 26-08-2008 09:20:02 16.7 C 9.66 g/m*3 16.7 C 0 km/h
1487 26-08-2008 09:32:01 16.8 C 9.72 g/m*3 16.8 C 0 km/h
1488 26-08-2008 09:44:01 17 C 9.55 g/m*3 17 C 0 km/h
1489 26-08-2008 09:56:01 17.2 C 9.52 g/m*3 17.2 C 0 km/h
1490 26-08-2008 10:08:02 17.5 C 9.54 g/m*3 17.5 C 0 km/h
1491 26-08-2008 10:20:02 17.7 C 9.66 g/m*3 17.7 C 0 km/h
1492 26-08-2008 10:32:02 18.2 C 9.48 g/m*3 18.2 C 0 km/h
1493 26-08-2008 10:44:02 18.6 C 9.39 g/m*3 18.6 C 0 km/h
1494 26-08-2008 10:56:01 19.1 C 9.51 g/m*3 19.1 C 0 km/h
1495 26-08-2008 11:08:02 19.7 C 9.51 g/m*3 19.7 C 0 km/h
1496 26-08-2008 11:20:01 20.1 C 9.21 g/m*3 20.1 C 0 km/h
1497 26-08-2008 11:32:02 20.6 C 9.31 g/m*3 20.6 C 0 km/h
1498 26-08-2008 11:44:02 21 C 8.98 g/m*3 21 C 0 km/h
1499 26-08-2008 11:56:02 21.4 C 9.19 g/m*3 21.4 C 0 km/h
1500 26-08-2008 12:08:02 22.2 C 9.03 g/m*3 22.2 C 0 km/h
Sensor: Nr:Datum:Temp:Abs-Feuchte:Windchill:Wind:
Aussen-T/F 1501 26-08-2008 12:20:02 22.5 C 8.79 g/m*3 22.5 C 0 km/h
1502 26-08-2008 12:32:02 22.9 C 8.79 g/m*3 22.9 C 0 km/h
1503 26-08-2008 12:44:02 22.9 C 8.79 g/m*3 22.9 C 0 km/h
1504 26-08-2008 12:56:02 22.9 C 8.99 g/m*3 22.9 C 0 km/h
1505 26-08-2008 13:08:02 22.7 C 9.09 g/m*3 22.7 C 0 km/h
1506 26-08-2008 13:20:01 23.1 C 9.3 g/m*3 23.1 C 0 km/h
1507 26-08-2008 13:32:02 23.6 C 9.15 g/m*3 23.6 C 0 km/h
1508 26-08-2008 13:44:02 24.3 C 8.85 g/m*3 24.3 C 0 km/h
1509 26-08-2008 13:56:02 23.9 C 9.09 g/m*3 23.9 C 0 km/h
1510 26-08-2008 14:08:02 23.4 C 8.83 g/m*3 23.4 C 0 km/h
1511 26-08-2008 14:20:02 23.8 C 8.82 g/m*3 23.8 C 0 km/h
1512 26-08-2008 14:32:02 23.6 C 8.93 g/m*3 23.6 C 0 km/h
1513 26-08-2008 14:44:02 23.6 C 9.15 g/m*3 23.6 C 0 km/h
1514 26-08-2008 14:56:02 24.5 C 8.95 g/m*3 24.5 C 0 km/h
1515 26-08-2008 15:08:02 24.8 C 8.88 g/m*3 24.8 C 0 km/h
1516 26-08-2008 15:20:02 24.6 C 8.78 g/m*3 24.6 C 0 km/h
1517 26-08-2008 15:32:02 24.9 C 8.93 g/m*3 24.9 C 0 km/h
1518 26-08-2008 15:44:02 24.6 C 8.78 g/m*3 24.6 C 0 km/h
1519 26-08-2008 15:56:02 25.2 C 8.61 g/m*3 25.2 C 0 km/h
1520 26-08-2008 16:08:02 25.4 C 8.71 g/m*3 25.4 C 0 km/h
1521 26-08-2008 16:20:02 25.9 C 8.72 g/m*3 25.9 C 0 km/h
1522 26-08-2008 16:32:02 25.7 C 8.62 g/m*3 25.7 C 0 km/h
1523 26-08-2008 16:44:02 26 C 8.76 g/m*3 26 C 0 km/h
1524 26-08-2008 16:56:02 25.9 C 8.72 g/m*3 25.9 C 0 km/h
1525 26-08-2008 17:08:02 26 C 8.28 g/m*3 26 C 0 km/h
Sensor: Nr:Datum:Temp:Abs-Feuchte:Windchill:Wind:
Aussen-T/F 1526 26-08-2008 17:20:01 26.3 C 8.42 g/m*3 26.3 C 0 km/h
1527 26-08-2008 17:32:02 25.8 C 8.67 g/m*3 25.8 C 0 km/h
1528 26-08-2008 17:44:02 27.3 C 8.63 g/m*3 27.3 C 0 km/h
1529 26-08-2008 17:56:02 26.4 C 8.46 g/m*3 26.4 C 0 km/h
1530 26-08-2008 18:08:02 26.8 C 8.91 g/m*3 26.8 C 0 km/h
1531 26-08-2008 18:20:02 25.8 C 8.91 g/m*3 25.8 C 0 km/h
1532 26-08-2008 18:32:02 26 C 8.76 g/m*3 26 C 0 km/h
1533 26-08-2008 18:44:02 25.7 C 8.86 g/m*3 25.7 C 0 km/h
1534 26-08-2008 18:56:02 24.9 C 9.16 g/m*3 24.9 C 0 km/h
1535 26-08-2008 19:08:02 24.6 C 9.23 g/m*3 24.6 C 0 km/h
1536 26-08-2008 19:20:02 24.3 C 9.52 g/m*3 24.3 C 0 km/h
1537 26-08-2008 19:32:02 23.8 C 9.68 g/m*3 23.8 C 0 km/h
1538 26-08-2008 19:44:02 23.8 C 9.68 g/m*3 23.8 C 0 km/h
1539 26-08-2008 19:56:03 23.7 C 9.63 g/m*3 23.7 C 0 km/h
1540 26-08-2008 20:08:02 23.2 C 9.56 g/m*3 23.2 C 0 km/h
1541 26-08-2008 20:20:02 22.6 C 9.84 g/m*3 22.6 C 0 km/h
1542 26-08-2008 20:32:02 22 C 9.9 g/m*3 22 C 0 km/h
1543 26-08-2008 20:44:02 21.4 C 10.31 g/m*3 21.4 C 0 km/h
1544 26-08-2008 20:56:02 21 C 10.26 g/m*3 21 C 0 km/h
1545 26-08-2008 21:08:02 20.8 C 10.32 g/m*3 20.8 C 0 km/h
1546 26-08-2008 21:20:02 20.7 C 10.44 g/m*3 20.7 C 0 km/h
1547 26-08-2008 21:32:02 20.6 C 10.56 g/m*3 20.6 C 0 km/h
1548 26-08-2008 21:44:02 20.3 C 10.55 g/m*3 20.3 C 0 km/h
1549 26-08-2008 21:57:03 19.9 C 10.65 g/m*3 19.9 C 0 km/h
1550 26-08-2008 22:09:03 19.4 C 10.68 g/m*3 19.4 C 0 km/h
Sensor: Nr:Datum:Temp:Abs-Feuchte:Windchill:Wind:
Aussen-T/F 1551 26-08-2008 22:21:03 18.9 C 11.02 g/m*3 18.9 C 0 km/h
1552 26-08-2008 22:33:03 18.8 C 11.11 g/m*3 18.8 C 0 km/h
1553 26-08-2008 22:45:03 18.6 C 11.14 g/m*3 18.6 C 0 km/h
1554 26-08-2008 22:57:03 18.4 C 11.01 g/m*3 18.4 C 0 km/h
1555 26-08-2008 23:09:03 18.2 C 11.04 g/m*3 18.2 C 0 km/h
1556 26-08-2008 23:21:03 17.8 C 11.08 g/m*3 17.8 C 0 km/h
1557 26-08-2008 23:33:03 17.7 C 11.16 g/m*3 17.7 C 0 km/h
1558 26-08-2008 23:45:03 17.6 C 11.4 g/m*3 17.6 C 0 km/h
1559 26-08-2008 23:57:03 17.4 C 11.26 g/m*3 17.4 C 0 km/h
1560 27-08-2008 00:09:03 17.2 C 11.28 g/m*3 17.2 C 0 km/h
1561 27-08-2008 00:21:03 17 C 11.29 g/m*3 17 C 0 km/h
1562 27-08-2008 00:33:03 16.8 C 11.29 g/m*3 16.8 C 0 km/h
1563 27-08-2008 00:45:03 16.5 C 11.23 g/m*3 16.5 C 0 km/h
1564 27-08-2008 00:57:04 16.5 C 11.23 g/m*3 16.5 C 0 km/h
1565 27-08-2008 01:09:04 16.2 C 11.17 g/m*3 16.2 C 0 km/h
1566 27-08-2008 01:21:04 16.1 C 11.1 g/m*3 16.1 C 0 km/h
1567 27-08-2008 01:33:04 16 C 11.17 g/m*3 16 C 0 km/h
1568 27-08-2008 01:45:04 16.1 C 11.24 g/m*3 16.1 C 0 km/h
1569 27-08-2008 01:57:04 15.9 C 11.24 g/m*3 15.9 C 0 km/h
1570 27-08-2008 02:09:04 15.8 C 11.17 g/m*3 15.8 C 0 km/h
1571 27-08-2008 02:21:04 15.6 C 11.04 g/m*3 15.6 C 0 km/h
1572 27-08-2008 02:33:04 15.6 C 11.17 g/m*3 15.6 C 0 km/h
1573 27-08-2008 02:45:04 15.7 C 11.24 g/m*3 15.7 C 0 km/h
1574 27-08-2008 02:57:04 15.7 C 11.24 g/m*3 15.7 C 0 km/h
1575 27-08-2008 03:09:04 15.8 C 11.17 g/m*3 15.8 C 0 km/h
Sensor: Nr:Datum:Temp:Abs-Feuchte:Windchill:Wind:
Aussen-T/F 1576 27-08-2008 03:21:04 15.8 C 11.17 g/m*3 15.8 C 0 km/h
1577 27-08-2008 03:33:04 15.8 C 11.17 g/m*3 15.8 C 0 km/h
1578 27-08-2008 03:45:04 15.7 C 11.11 g/m*3 15.7 C 0 km/h
1579 27-08-2008 03:57:04 15.6 C 11.04 g/m*3 15.6 C 0 km/h
1580 27-08-2008 04:09:04 15.6 C 11.04 g/m*3 15.6 C 0 km/h
1581 27-08-2008 04:21:04 15.5 C 10.97 g/m*3 15.5 C 0 km/h
1582 27-08-2008 04:33:04 15.4 C 10.9 g/m*3 15.4 C 0 km/h
1583 27-08-2008 04:45:04 15.3 C 10.84 g/m*3 15.3 C 0 km/h
1584 27-08-2008 04:57:04 15 C 10.64 g/m*3 15 C 0 km/h
1585 27-08-2008 05:09:05 14.7 C 10.7 g/m*3 14.7 C 0 km/h
1586 27-08-2008 05:21:05 14.5 C 10.7 g/m*3 14.5 C 0 km/h
1587 27-08-2008 05:33:05 14.3 C 10.57 g/m*3 14.3 C 0 km/h
1588 27-08-2008 05:45:05 14.2 C 10.62 g/m*3 14.2 C 0 km/h
1589 27-08-2008 05:57:05 14 C 10.49 g/m*3 14 C 0 km/h
1590 27-08-2008 06:09:05 14 C 10.61 g/m*3 14 C 0 km/h
1591 27-08-2008 06:21:05 14.2 C 10.87 g/m*3 14.2 C 0 km/h
1592 27-08-2008 06:33:05 14.2 C 10.75 g/m*3 14.2 C 0 km/h
1593 27-08-2008 06:45:05 14.2 C 10.75 g/m*3 14.2 C 0 km/h
1594 27-08-2008 06:57:05 14.2 C 10.75 g/m*3 14.2 C 0 km/h
1595 27-08-2008 07:09:02 14.2 C 10.75 g/m*3 14.2 C 0 km/h
1596 27-08-2008 07:21:02 14.3 C 10.81 g/m*3 14.3 C 0 km/h
1597 27-08-2008 07:33:02 14.4 C 10.88 g/m*3 14.4 C 0 km/h
1598 27-08-2008 07:45:03 14.5 C 10.82 g/m*3 14.5 C 0 km/h
1599 27-08-2008 07:57:03 14.7 C 10.83 g/m*3 14.7 C 0 km/h
1600 27-08-2008 08:09:02 14.8 C 10.77 g/m*3 14.8 C 0 km/h
Sensor: Nr:Datum:Temp:Abs-Feuchte:Windchill:Wind:
Aussen-T/F 1601 27-08-2008 08:21:03 14.8 C 10.64 g/m*3 14.8 C 0 km/h
1602 27-08-2008 08:33:02 14.7 C 10.45 g/m*3 14.7 C 0 km/h
1603 27-08-2008 08:45:02 15 C 10.64 g/m*3 15 C 0 km/h
1604 27-08-2008 08:57:02 15.1 C 10.45 g/m*3 15.1 C 0 km/h
1605 27-08-2008 09:09:02 15.5 C 10.71 g/m*3 15.5 C 0 km/h
1606 27-08-2008 09:21:03 15.8 C 10.63 g/m*3 15.8 C 0 km/h
1607 27-08-2008 09:33:03 16.3 C 10.82 g/m*3 16.3 C 0 km/h
1608 27-08-2008 09:45:02 16.8 C 10.87 g/m*3 16.8 C 0 km/h
1609 27-08-2008 09:57:02 17.1 C 10.63 g/m*3 17.1 C 0 km/h
1610 27-08-2008 10:09:01 17.3 C 10.75 g/m*3 17.3 C 0 km/h
1611 27-08-2008 10:21:02 17.7 C 10.86 g/m*3 17.7 C 0 km/h
1612 27-08-2008 10:33:02 18 C 10.75 g/m*3 18 C 0 km/h
1613 27-08-2008 10:45:02 18.3 C 10.94 g/m*3 18.3 C 0 km/h
1614 27-08-2008 10:57:02 19.3 C 10.62 g/m*3 19.3 C 0 km/h
1615 27-08-2008 11:09:01 19.9 C 9.97 g/m*3 19.9 C 0 km/h
1616 27-08-2008 11:21:02 20.3 C 9.85 g/m*3 20.3 C 0 km/h
1617 27-08-2008 11:33:01 20.7 C 9.54 g/m*3 20.7 C 0 km/h
1618 27-08-2008 11:45:02 21 C 9.34 g/m*3 21 C 0 km/h
1619 27-08-2008 11:57:02 21 C 9.53 g/m*3 21 C 0 km/h
1620 27-08-2008 12:09:01 21.5 C 9.43 g/m*3 21.5 C 0 km/h
1621 27-08-2008 12:21:02 21.5 C 9.43 g/m*3 21.5 C 0 km/h
1622 27-08-2008 12:33:01 21.9 C 9.46 g/m*3 21.9 C 0 km/h
1623 27-08-2008 12:45:01 22 C 9.32 g/m*3 22 C 0 km/h
1624 27-08-2008 12:57:01 22.3 C 9.28 g/m*3 22.3 C 0 km/h
1625 27-08-2008 13:09:01 22.7 C 9.5 g/m*3 22.7 C 0 km/h
Sensor: Nr:Datum:Temp:Abs-Feuchte:Windchill:Wind:
Aussen-T/F 1626 27-08-2008 13:21:01 23.1 C 9.1 g/m*3 23.1 C 0 km/h
1627 27-08-2008 13:33:01 23.7 C 9.41 g/m*3 23.7 C 0 km/h
1628 27-08-2008 13:45:01 23.6 C 9.36 g/m*3 23.6 C 0 km/h
1629 27-08-2008 13:57:01 24 C 8.92 g/m*3 24 C 0 km/h
1630 27-08-2008 14:09:02 24.6 C 9 g/m*3 24.6 C 0 km/h
1631 27-08-2008 14:21:01 24.6 C 8.78 g/m*3 24.6 C 0 km/h
1632 27-08-2008 14:33:02 25.6 C 9.28 g/m*3 25.6 C 0 km/h
1633 27-08-2008 14:45:02 25.8 C 8.91 g/m*3 25.8 C 0 km/h
1634 27-08-2008 14:57:02 26.3 C 8.66 g/m*3 26.3 C 0 km/h
1635 27-08-2008 15:09:02 26.5 C 8.76 g/m*3 26.5 C 0 km/h
1636 27-08-2008 15:21:02 26.6 C 8.81 g/m*3 26.6 C 0 km/h
1637 27-08-2008 15:33:02 27 C 8.49 g/m*3 27 C 0 km/h
1638 27-08-2008 15:45:02 27.4 C 8.95 g/m*3 27.4 C 0 km/h
1639 27-08-2008 15:57:02 28.1 C 8.75 g/m*3 28.1 C 0 km/h
1640 27-08-2008 16:09:03 28.5 C 8.66 g/m*3 28.5 C 0 km/h
1641 27-08-2008 16:21:02 28.9 C 8.86 g/m*3 28.9 C 0 km/h
1642 27-08-2008 16:33:03 29 C 8.62 g/m*3 29 C 0 km/h
1643 27-08-2008 16:45:02 29 C 8.33 g/m*3 29 C 0 km/h
1644 27-08-2008 16:57:02 28.8 C 8.52 g/m*3 28.8 C 0 km/h
1645 27-08-2008 17:09:01 28.5 C 8.66 g/m*3 28.5 C 0 km/h
1646 27-08-2008 17:21:02 27.8 C 8.34 g/m*3 27.8 C 0 km/h
1647 27-08-2008 17:33:02 27.3 C 8.63 g/m*3 27.3 C 0 km/h
1648 27-08-2008 17:45:02 26.8 C 9.16 g/m*3 26.8 C 0 km/h
1649 27-08-2008 17:57:02 26.6 C 9.31 g/m*3 26.6 C 0 km/h
1650 27-08-2008 18:09:01 26.7 C 8.86 g/m*3 26.7 C 0 km/h
Sensor: Nr:Datum:Temp:Abs-Feuchte:Windchill:Wind:
Aussen-T/F 1651 27-08-2008 18:21:02 26.4 C 9.21 g/m*3 26.4 C 0 km/h
1652 27-08-2008 18:33:01 26.5 C 9.26 g/m*3 26.5 C 0 km/h
1653 27-08-2008 18:45:03 25.9 C 9.44 g/m*3 25.9 C 0 km/h
1654 27-08-2008 18:57:03 25 C 9.44 g/m*3 25 C 0 km/h
1655 27-08-2008 19:09:02 24.3 C 9.52 g/m*3 24.3 C 0 km/h
1656 27-08-2008 19:21:03 23.5 C 9.73 g/m*3 23.5 C 0 km/h
1657 27-08-2008 19:33:02 23.3 C 9.62 g/m*3 23.3 C 0 km/h
1658 27-08-2008 19:45:02 23 C 9.66 g/m*3 23 C 0 km/h
1659 27-08-2008 19:57:02 22.7 C 9.9 g/m*3 22.7 C 0 km/h
1660 27-08-2008 20:09:02 22 C 9.7 g/m*3 22 C 0 km/h
1661 27-08-2008 20:21:02 21.8 C 9.78 g/m*3 21.8 C 0 km/h
1662 27-08-2008 20:33:02 21.6 C 9.67 g/m*3 21.6 C 0 km/h
1663 27-08-2008 20:45:01 21.3 C 9.69 g/m*3 21.3 C 0 km/h
1664 27-08-2008 20:57:01 21.1 C 9.58 g/m*3 21.1 C 0 km/h
1665 27-08-2008 21:09:01 20.9 C 9.65 g/m*3 20.9 C 0 km/h
1666 27-08-2008 21:21:01 20.8 C 9.6 g/m*3 20.8 C 0 km/h
1667 27-08-2008 21:33:01 20.8 C 9.6 g/m*3 20.8 C 0 km/h
1668 27-08-2008 21:45:01 20.2 C 9.27 g/m*3 20.2 C 0 km/h
1669 27-08-2008 21:57:01 20.1 C 9.21 g/m*3 20.1 C 0 km/h
1670 27-08-2008 22:09:02 20.1 C 9.21 g/m*3 20.1 C 0 km/h
1671 27-08-2008 22:21:01 20.2 C 9.27 g/m*3 20.2 C 0 km/h
1672 27-08-2008 22:33:02 20 C 9.16 g/m*3 20 C 0 km/h
1673 27-08-2008 22:46:02 19.7 C 9.34 g/m*3 19.7 C 0 km/h
1674 27-08-2008 22:58:02 19.7 C 9.51 g/m*3 19.7 C 0 km/h
1675 27-08-2008 23:10:02 19.8 C 9.74 g/m*3 19.8 C 0 km/h
Sensor: Nr:Datum:Temp:Abs-Feuchte:Windchill:Wind:
Aussen-T/F 1676 27-08-2008 23:22:02 19.6 C 9.45 g/m*3 19.6 C 0 km/h
1677 27-08-2008 23:34:02 19.7 C 9.68 g/m*3 19.7 C 0 km/h
1678 27-08-2008 23:46:02 19.5 C 9.57 g/m*3 19.5 C 0 km/h
1679 27-08-2008 23:58:02 19.4 C 9.51 g/m*3 19.4 C 0 km/h
1680 28-08-2008 00:10:02 19.4 C 9.68 g/m*3 19.4 C 0 km/h
1681 28-08-2008 00:22:02 19.4 C 9.68 g/m*3 19.4 C 0 km/h
1682 28-08-2008 00:34:02 19.2 C 9.56 g/m*3 19.2 C 0 km/h
1683 28-08-2008 00:46:02 19.1 C 9.67 g/m*3 19.1 C 0 km/h
1684 28-08-2008 00:58:02 19.1 C 9.67 g/m*3 19.1 C 0 km/h
1685 28-08-2008 01:10:02 19 C 9.61 g/m*3 19 C 0 km/h
1686 28-08-2008 01:22:02 19.1 C 9.84 g/m*3 19.1 C 0 km/h
1687 28-08-2008 01:34:02 19 C 9.61 g/m*3 19 C 0 km/h
1688 28-08-2008 01:46:02 19 C 9.78 g/m*3 19 C 0 km/h
1689 28-08-2008 01:58:02 18.9 C 9.88 g/m*3 18.9 C 0 km/h
1690 28-08-2008 02:10:02 18.8 C 9.82 g/m*3 18.8 C 0 km/h
1691 28-08-2008 02:22:02 18.9 C 10.04 g/m*3 18.9 C 0 km/h
1692 28-08-2008 02:34:03 18.9 C 10.04 g/m*3 18.9 C 0 km/h
1693 28-08-2008 02:46:03 18.7 C 10.09 g/m*3 18.7 C 0 km/h
1694 28-08-2008 02:58:03 18.6 C 10.03 g/m*3 18.6 C 0 km/h
1695 28-08-2008 03:10:03 18.6 C 10.03 g/m*3 18.6 C 0 km/h
1696 28-08-2008 03:22:03 18.6 C 10.03 g/m*3 18.6 C 0 km/h
1697 28-08-2008 03:34:03 18.5 C 10.13 g/m*3 18.5 C 0 km/h
1698 28-08-2008 03:46:03 18.5 C 10.13 g/m*3 18.5 C 0 km/h
1699 28-08-2008 03:58:03 18.5 C 10.13 g/m*3 18.5 C 0 km/h
1700 28-08-2008 04:10:03 18.4 C 10.22 g/m*3 18.4 C 0 km/h
Sensor: Nr:Datum:Temp:Abs-Feuchte:Windchill:Wind:
Aussen-T/F 1701 28-08-2008 04:22:03 18.4 C 10.22 g/m*3 18.4 C 0 km/h
1702 28-08-2008 04:34:03 18.4 C 10.22 g/m*3 18.4 C 0 km/h
1703 28-08-2008 04:46:03 18.3 C 10.16 g/m*3 18.3 C 0 km/h
1704 28-08-2008 04:58:03 18.3 C 10.32 g/m*3 18.3 C 0 km/h
1705 28-08-2008 05:10:03 18.2 C 10.1 g/m*3 18.2 C 0 km/h
1706 28-08-2008 05:22:03 18.2 C 10.26 g/m*3 18.2 C 0 km/h
1707 28-08-2008 05:34:03 18.2 C 10.26 g/m*3 18.2 C 0 km/h
1708 28-08-2008 05:46:03 18.1 C 10.04 g/m*3 18.1 C 0 km/h
1709 28-08-2008 05:58:03 18 C 10.14 g/m*3 18 C 0 km/h
1710 28-08-2008 06:10:03 18 C 10.14 g/m*3 18 C 0 km/h
1711 28-08-2008 06:22:04 17.9 C 10.23 g/m*3 17.9 C 0 km/h
1712 28-08-2008 06:34:04 17.9 C 10.23 g/m*3 17.9 C 0 km/h
1713 28-08-2008 06:46:04 17.9 C 10.38 g/m*3 17.9 C 0 km/h
1714 28-08-2008 06:58:04 17.8 C 10.32 g/m*3 17.8 C 0 km/h
1715 28-08-2008 07:10:02 17.8 C 10.32 g/m*3 17.8 C 0 km/h
1716 28-08-2008 07:22:02 17.8 C 10.32 g/m*3 17.8 C 0 km/h
1717 28-08-2008 07:34:03 17.8 C 10.32 g/m*3 17.8 C 0 km/h
1718 28-08-2008 07:46:02 17.9 C 10.54 g/m*3 17.9 C 0 km/h
1719 28-08-2008 07:58:02 18.1 C 10.51 g/m*3 18.1 C 0 km/h
1720 28-08-2008 08:10:02 18.1 C 10.51 g/m*3 18.1 C 0 km/h
1721 28-08-2008 08:22:02 18.1 C 10.66 g/m*3 18.1 C 0 km/h
1722 28-08-2008 08:34:02 18.5 C 10.92 g/m*3 18.5 C 0 km/h
1723 28-08-2008 08:46:02 18.6 C 10.66 g/m*3 18.6 C 0 km/h
1724 28-08-2008 08:58:02 18.7 C 10.73 g/m*3 18.7 C 0 km/h
1725 28-08-2008 09:10:03 18.9 C 10.69 g/m*3 18.9 C 0 km/h
Sensor: Nr:Datum:Temp:Abs-Feuchte:Windchill:Wind:
Aussen-T/F 1726 28-08-2008 09:22:02 19.1 C 10.16 g/m*3 19.1 C 0 km/h
1727 28-08-2008 09:34:02 19.2 C 10.06 g/m*3 19.2 C 0 km/h
1728 28-08-2008 09:46:02 19.3 C 9.79 g/m*3 19.3 C 0 km/h
1729 28-08-2008 09:58:02 19.3 C 9.95 g/m*3 19.3 C 0 km/h
1730 28-08-2008 10:10:02 19.4 C 9.84 g/m*3 19.4 C 0 km/h
1731 28-08-2008 10:22:02 19.6 C 9.79 g/m*3 19.6 C 0 km/h
1732 28-08-2008 10:34:02 19.9 C 9.45 g/m*3 19.9 C 0 km/h
1733 28-08-2008 10:46:02 20.2 C 8.92 g/m*3 20.2 C 0 km/h
1734 28-08-2008 10:58:02 20.5 C 9.07 g/m*3 20.5 C 0 km/h
1735 28-08-2008 11:10:02 21 C 8.43 g/m*3 21 C 0 km/h
1736 28-08-2008 11:22:02 21.5 C 8.3 g/m*3 21.5 C 0 km/h
1737 28-08-2008 11:34:02 21.7 C 8.2 g/m*3 21.7 C 0 km/h
1738 28-08-2008 11:46:02 22.1 C 7.81 g/m*3 22.1 C 0 km/h
1739 28-08-2008 11:58:02 22.7 C 7.88 g/m*3 22.7 C 0 km/h
1740 28-08-2008 12:10:02 23 C 7.6 g/m*3 23 C 0 km/h
1741 28-08-2008 12:22:02 22.9 C 7.56 g/m*3 22.9 C 0 km/h
1742 28-08-2008 12:34:02 23.1 C 7.44 g/m*3 23.1 C 0 km/h
1743 28-08-2008 12:46:02 23.3 C 7.32 g/m*3 23.3 C 0 km/h
1744 28-08-2008 12:58:02 23.5 C 7.4 g/m*3 23.5 C 0 km/h
1745 28-08-2008 13:10:02 23.6 C 7.44 g/m*3 23.6 C 0 km/h
1746 28-08-2008 13:22:02 23.9 C 7.57 g/m*3 23.9 C 0 km/h
1747 28-08-2008 13:34:02 23.2 C 7.28 g/m*3 23.2 C 0 km/h
1748 28-08-2008 13:46:02 23.1 C 7.65 g/m*3 23.1 C 0 km/h
1749 28-08-2008 13:58:02 23.3 C 7.53 g/m*3 23.3 C 0 km/h
1750 28-08-2008 14:10:02 23 C 7.6 g/m*3 23 C 0 km/h
Sensor: Nr:Datum:Temp:Abs-Feuchte:Windchill:Wind:
Aussen-T/F 1751 28-08-2008 14:22:02 23.3 C 7.74 g/m*3 23.3 C 0 km/h
1752 28-08-2008 14:34:02 23.7 C 7.7 g/m*3 23.7 C 0 km/h
1753 28-08-2008 14:46:02 23.1 C 7.86 g/m*3 23.1 C 0 km/h
1754 28-08-2008 14:58:02 23.6 C 7.87 g/m*3 23.6 C 0 km/h
1755 28-08-2008 15:10:02 23.7 C 7.7 g/m*3 23.7 C 0 km/h
1756 28-08-2008 15:22:02 24.4 C 7.79 g/m*3 24.4 C 0 km/h
1757 28-08-2008 15:34:02 24.2 C 7.48 g/m*3 24.2 C 0 km/h
1758 28-08-2008 15:46:01 23.6 C 7.87 g/m*3 23.6 C 0 km/h
1759 28-08-2008 15:58:01 23.2 C 7.69 g/m*3 23.2 C 0 km/h
1760 28-08-2008 16:10:02 22.6 C 8.04 g/m*3 22.6 C 0 km/h
1761 28-08-2008 16:22:02 23 C 8.22 g/m*3 23 C 0 km/h
1762 28-08-2008 16:34:02 23.1 C 7.86 g/m*3 23.1 C 0 km/h
1763 28-08-2008 16:46:02 23.3 C 8.15 g/m*3 23.3 C 0 km/h
1764 28-08-2008 16:58:02 23.4 C 7.78 g/m*3 23.4 C 0 km/h
1765 28-08-2008 17:10:02 22.8 C 8.13 g/m*3 22.8 C 0 km/h
1766 28-08-2008 17:22:02 22.9 C 8.17 g/m*3 22.9 C 0 km/h
1767 28-08-2008 17:34:02 22.6 C 8.04 g/m*3 22.6 C 0 km/h
1768 28-08-2008 17:46:02 22 C 7.96 g/m*3 22 C 0 km/h
1769 28-08-2008 17:58:02 22 C 7.96 g/m*3 22 C 0 km/h
1770 28-08-2008 18:10:03 21.8 C 8.25 g/m*3 21.8 C 0 km/h
1771 28-08-2008 18:22:02 22 C 8.15 g/m*3 22 C 0 km/h
1772 28-08-2008 18:34:02 22 C 8.15 g/m*3 22 C 0 km/h
1773 28-08-2008 18:46:02 21.7 C 8.2 g/m*3 21.7 C 0 km/h
1774 28-08-2008 18:58:02 21.7 C 8.2 g/m*3 21.7 C 0 km/h
1775 28-08-2008 19:10:02 21.6 C 8.35 g/m*3 21.6 C 0 km/h
Sensor: Nr:Datum:Temp:Abs-Feuchte:Windchill:Wind:
Aussen-T/F 1776 28-08-2008 19:22:02 21.6 C 8.72 g/m*3 21.6 C 0 km/h
1777 28-08-2008 19:34:02 21.5 C 8.49 g/m*3 21.5 C 0 km/h
1778 28-08-2008 19:46:03 21.3 C 8.57 g/m*3 21.3 C 0 km/h
1779 28-08-2008 19:58:03 21.1 C 8.84 g/m*3 21.1 C 0 km/h
1780 28-08-2008 20:10:02 20.8 C 9.23 g/m*3 20.8 C 0 km/h
1781 28-08-2008 20:22:03 20.6 C 9.13 g/m*3 20.6 C 0 km/h
1782 28-08-2008 20:34:02 20.4 C 9.38 g/m*3 20.4 C 0 km/h
1783 28-08-2008 20:46:03 20.3 C 9.15 g/m*3 20.3 C 0 km/h
1784 28-08-2008 20:58:03 20.2 C 9.09 g/m*3 20.2 C 0 km/h
1785 28-08-2008 21:10:02 20.1 C 9.04 g/m*3 20.1 C 0 km/h
1786 28-08-2008 21:22:02 20 C 9.16 g/m*3 20 C 0 km/h
1787 28-08-2008 21:34:02 20 C 9.33 g/m*3 20 C 0 km/h
1788 28-08-2008 21:46:02 19.8 C 9.57 g/m*3 19.8 C 0 km/h
1789 28-08-2008 21:58:02 19.6 C 9.79 g/m*3 19.6 C 0 km/h
1790 28-08-2008 22:10:03 19.5 C 9.9 g/m*3 19.5 C 0 km/h
1791 28-08-2008 22:22:02 19.4 C 9.68 g/m*3 19.4 C 0 km/h
1792 28-08-2008 22:35:02 19.4 C 9.68 g/m*3 19.4 C 0 km/h
1793 28-08-2008 22:47:02 19.3 C 9.79 g/m*3 19.3 C 0 km/h
1794 28-08-2008 22:59:02 19.1 C 9.67 g/m*3 19.1 C 0 km/h
1795 28-08-2008 23:11:02 19.1 C 9.84 g/m*3 19.1 C 0 km/h
1796 28-08-2008 23:23:02 19.2 C 9.89 g/m*3 19.2 C 0 km/h
1797 28-08-2008 23:35:02 19.2 C 9.89 g/m*3 19.2 C 0 km/h
1798 28-08-2008 23:47:02 19.1 C 9.84 g/m*3 19.1 C 0 km/h
1799 28-08-2008 23:59:02 19.1 C 10 g/m*3 19.1 C 0 km/h
1800 29-08-2008 00:11:02 19 C 9.94 g/m*3 19 C 0 km/h
Sensor: Nr:Datum:Temp:Abs-Feuchte:Windchill:Wind:
Aussen-T/F 1801 29-08-2008 00:23:02 18.9 C 10.04 g/m*3 18.9 C 0 km/h
1802 29-08-2008 00:35:02 18.9 C 10.04 g/m*3 18.9 C 0 km/h
1803 29-08-2008 00:47:02 18.9 C 10.04 g/m*3 18.9 C 0 km/h
1804 29-08-2008 00:59:02 18.8 C 9.99 g/m*3 18.8 C 0 km/h
1805 29-08-2008 01:11:02 18.8 C 9.99 g/m*3 18.8 C 0 km/h
1806 29-08-2008 01:23:02 18.8 C 9.99 g/m*3 18.8 C 0 km/h
1807 29-08-2008 01:35:02 18.7 C 9.93 g/m*3 18.7 C 0 km/h
1808 29-08-2008 01:47:02 18.7 C 9.77 g/m*3 18.7 C 0 km/h
1809 29-08-2008 01:59:02 18.6 C 9.71 g/m*3 18.6 C 0 km/h
1810 29-08-2008 02:11:03 18.6 C 9.71 g/m*3 18.6 C 0 km/h
1811 29-08-2008 02:23:03 18.5 C 9.65 g/m*3 18.5 C 0 km/h
1812 29-08-2008 02:35:03 18.5 C 9.81 g/m*3 18.5 C 0 km/h
1813 29-08-2008 02:47:03 18.5 C 9.49 g/m*3 18.5 C 0 km/h
1814 29-08-2008 02:59:03 18.4 C 9.59 g/m*3 18.4 C 0 km/h
1815 29-08-2008 03:11:03 18.4 C 9.91 g/m*3 18.4 C 0 km/h
1816 29-08-2008 03:23:03 18.3 C 9.69 g/m*3 18.3 C 0 km/h
1817 29-08-2008 03:35:03 18.2 C 9.64 g/m*3 18.2 C 0 km/h
1818 29-08-2008 03:47:03 18.2 C 9.64 g/m*3 18.2 C 0 km/h
1819 29-08-2008 03:59:03 18.1 C 9.58 g/m*3 18.1 C 0 km/h
1820 29-08-2008 04:11:03 18.1 C 9.43 g/m*3 18.1 C 0 km/h
1821 29-08-2008 04:23:03 18.1 C 9.58 g/m*3 18.1 C 0 km/h
1822 29-08-2008 04:35:03 18.1 C 9.43 g/m*3 18.1 C 0 km/h
1823 29-08-2008 04:47:03 18.1 C 9.43 g/m*3 18.1 C 0 km/h
1824 29-08-2008 04:59:03 18.1 C 9.43 g/m*3 18.1 C 0 km/h
1825 29-08-2008 05:11:03 18 C 9.22 g/m*3 18 C 0 km/h
Sensor: Nr:Datum:Temp:Abs-Feuchte:Windchill:Wind:
Aussen-T/F 1826 29-08-2008 05:23:03 18 C 9.22 g/m*3 18 C 0 km/h
1827 29-08-2008 05:35:03 17.9 C 9.31 g/m*3 17.9 C 0 km/h
1828 29-08-2008 05:47:03 17.9 C 9.47 g/m*3 17.9 C 0 km/h
1829 29-08-2008 05:59:04 17.9 C 9.31 g/m*3 17.9 C 0 km/h
1830 29-08-2008 06:11:04 17.8 C 9.41 g/m*3 17.8 C 0 km/h
1831 29-08-2008 06:23:04 17.8 C 9.41 g/m*3 17.8 C 0 km/h
1832 29-08-2008 06:35:04 17.8 C 9.41 g/m*3 17.8 C 0 km/h
1833 29-08-2008 06:47:04 17.8 C 9.41 g/m*3 17.8 C 0 km/h
1834 29-08-2008 06:59:04 17.8 C 9.41 g/m*3 17.8 C 0 km/h
1835 29-08-2008 07:11:04 17.8 C 9.56 g/m*3 17.8 C 0 km/h
1836 29-08-2008 07:23:04 17.8 C 9.56 g/m*3 17.8 C 0 km/h
1837 29-08-2008 07:35:04 17.8 C 9.56 g/m*3 17.8 C 0 km/h
1838 29-08-2008 07:47:04 17.9 C 9.62 g/m*3 17.9 C 0 km/h
1839 29-08-2008 07:59:04 17.9 C 9.47 g/m*3 17.9 C 0 km/h
1840 29-08-2008 08:11:04 17.9 C 9.47 g/m*3 17.9 C 0 km/h
1841 29-08-2008 08:23:02 18.1 C 9.43 g/m*3 18.1 C 0 km/h
1842 29-08-2008 08:35:02 18.1 C 9.43 g/m*3 18.1 C 0 km/h
1843 29-08-2008 08:47:01 18.1 C 9.58 g/m*3 18.1 C 0 km/h
1844 29-08-2008 08:59:01 18.2 C 9.79 g/m*3 18.2 C 0 km/h
1845 29-08-2008 09:11:02 18.3 C 9.85 g/m*3 18.3 C 0 km/h
1846 29-08-2008 09:23:02 18.4 C 9.91 g/m*3 18.4 C 0 km/h
1847 29-08-2008 09:35:02 18.5 C 9.97 g/m*3 18.5 C 0 km/h
1848 29-08-2008 09:47:02 18.6 C 9.55 g/m*3 18.6 C 0 km/h
1849 29-08-2008 09:59:02 18.9 C 9.72 g/m*3 18.9 C 0 km/h
1850 29-08-2008 10:11:03 19.3 C 9.45 g/m*3 19.3 C 0 km/h
Sensor: Nr:Datum:Temp:Abs-Feuchte:Windchill:Wind:
Aussen-T/F 1851 29-08-2008 10:23:02 19.6 C 9.45 g/m*3 19.6 C 0 km/h
1852 29-08-2008 10:35:03 19.8 C 9.39 g/m*3 19.8 C 0 km/h
1853 29-08-2008 10:47:02 20.4 C 9.38 g/m*3 20.4 C 0 km/h
1854 29-08-2008 10:59:02 20.5 C 9.25 g/m*3 20.5 C 0 km/h
1855 29-08-2008 11:11:01 20.7 C 9.36 g/m*3 20.7 C 0 km/h
1856 29-08-2008 11:23:02 20.4 C 9.38 g/m*3 20.4 C 0 km/h
1857 29-08-2008 11:35:02 20.5 C 9.25 g/m*3 20.5 C 0 km/h
1858 29-08-2008 11:47:02 20.8 C 9.42 g/m*3 20.8 C 0 km/h
1859 29-08-2008 11:59:02 21.3 C 9.51 g/m*3 21.3 C 0 km/h
1860 29-08-2008 12:11:01 21 C 9.34 g/m*3 21 C 0 km/h
1861 29-08-2008 12:23:02 21.1 C 9.4 g/m*3 21.1 C 0 km/h
1862 29-08-2008 12:35:01 21.5 C 9.62 g/m*3 21.5 C 0 km/h
1863 29-08-2008 12:47:02 21.8 C 9.59 g/m*3 21.8 C 0 km/h
1864 29-08-2008 12:59:02 22.3 C 9.08 g/m*3 22.3 C 0 km/h
1865 29-08-2008 13:11:01 23.1 C 9.1 g/m*3 23.1 C 0 km/h
1866 29-08-2008 13:23:02 23.2 C 8.94 g/m*3 23.2 C 0 km/h
1867 29-08-2008 13:35:01 23.3 C 8.78 g/m*3 23.3 C 0 km/h
1868 29-08-2008 13:47:01 23.8 C 8.6 g/m*3 23.8 C 0 km/h
1869 29-08-2008 13:59:01 23.4 C 8.83 g/m*3 23.4 C 0 km/h
1870 29-08-2008 14:11:01 23.7 C 8.98 g/m*3 23.7 C 0 km/h
1871 29-08-2008 14:23:01 24.5 C 8.95 g/m*3 24.5 C 0 km/h
1872 29-08-2008 14:35:01 23.9 C 8.87 g/m*3 23.9 C 0 km/h
1873 29-08-2008 14:47:01 24.1 C 8.97 g/m*3 24.1 C 0 km/h
1874 29-08-2008 14:59:01 24.5 C 8.95 g/m*3 24.5 C 0 km/h
1875 29-08-2008 15:11:02 24.1 C 8.53 g/m*3 24.1 C 0 km/h
Sensor: Nr:Datum:Temp:Abs-Feuchte:Windchill:Wind:
Aussen-T/F 1876 29-08-2008 15:23:01 24.1 C 8.75 g/m*3 24.1 C 0 km/h
1877 29-08-2008 15:35:02 24.6 C 8.78 g/m*3 24.6 C 0 km/h
1878 29-08-2008 15:47:02 25.3 C 8.43 g/m*3 25.3 C 0 km/h
1879 29-08-2008 15:59:02 25.7 C 8.62 g/m*3 25.7 C 0 km/h
1880 29-08-2008 16:11:02 25.7 C 8.38 g/m*3 25.7 C 0 km/h
1881 29-08-2008 16:23:02 25.7 C 8.62 g/m*3 25.7 C 0 km/h
1882 29-08-2008 16:35:02 25 C 8.52 g/m*3 25 C 0 km/h
1883 29-08-2008 16:47:01 24.7 C 9.05 g/m*3 24.7 C 0 km/h
1884 29-08-2008 16:59:01 25.4 C 8.95 g/m*3 25.4 C 0 km/h
1885 29-08-2008 17:11:01 26.1 C 8.32 g/m*3 26.1 C 0 km/h
1886 29-08-2008 17:23:01 26 C 8.52 g/m*3 26 C 0 km/h
1887 29-08-2008 17:35:01 27.4 C 8.42 g/m*3 27.4 C 0 km/h
1888 29-08-2008 17:47:03 28.5 C 8.94 g/m*3 28.5 C 0 km/h
1889 29-08-2008 17:59:03 28.1 C 8.75 g/m*3 28.1 C 0 km/h
1890 29-08-2008 18:11:02 27.9 C 8.65 g/m*3 27.9 C 0 km/h
1891 29-08-2008 18:23:03 27.3 C 8.63 g/m*3 27.3 C 0 km/h
1892 29-08-2008 18:35:02 27.6 C 8.78 g/m*3 27.6 C 0 km/h
1893 29-08-2008 18:47:02 28 C 8.7 g/m*3 28 C 0 km/h
1894 29-08-2008 18:59:02 27.9 C 8.38 g/m*3 27.9 C 0 km/h
1895 29-08-2008 19:11:03 26.7 C 8.1 g/m*3 26.7 C 0 km/h
1896 29-08-2008 19:23:02 25.1 C 8.57 g/m*3 25.1 C 0 km/h
1897 29-08-2008 19:35:03 24.9 C 9.16 g/m*3 24.9 C 0 km/h
1898 29-08-2008 19:47:02 24.5 C 9.62 g/m*3 24.5 C 0 km/h
1899 29-08-2008 19:59:03 23.7 C 9.63 g/m*3 23.7 C 0 km/h
1900 29-08-2008 20:11:01 23.1 C 9.72 g/m*3 23.1 C 0 km/h
Sensor: Nr:Datum:Temp:Abs-Feuchte:Windchill:Wind:
Aussen-T/F 1901 29-08-2008 20:23:02 22.3 C 10.07 g/m*3 22.3 C 0 km/h
1902 29-08-2008 20:35:01 21.4 C 9.94 g/m*3 21.4 C 0 km/h
1903 29-08-2008 20:47:02 20.7 C 10.08 g/m*3 20.7 C 0 km/h
1904 29-08-2008 20:59:02 20.1 C 10.08 g/m*3 20.1 C 0 km/h
1905 29-08-2008 21:11:01 19.8 C 10.42 g/m*3 19.8 C 0 km/h
1906 29-08-2008 21:23:02 19.5 C 10.41 g/m*3 19.5 C 0 km/h
1907 29-08-2008 21:35:01 19.3 C 10.45 g/m*3 19.3 C 0 km/h
1908 29-08-2008 21:47:02 19.3 C 10.45 g/m*3 19.3 C 0 km/h
1909 29-08-2008 21:59:02 19 C 10.43 g/m*3 19 C 0 km/h
1910 29-08-2008 22:11:01 18.9 C 10.69 g/m*3 18.9 C 0 km/h
1911 29-08-2008 22:24:01 18.8 C 10.79 g/m*3 18.8 C 0 km/h
1912 29-08-2008 22:36:01 18.6 C 10.82 g/m*3 18.6 C 0 km/h
1913 29-08-2008 22:48:01 18.5 C 10.76 g/m*3 18.5 C 0 km/h
1914 29-08-2008 23:00:01 18.3 C 10.79 g/m*3 18.3 C 0 km/h
1915 29-08-2008 23:12:01 18.1 C 10.82 g/m*3 18.1 C 0 km/h
1916 29-08-2008 23:24:01 17.9 C 10.99 g/m*3 17.9 C 0 km/h
1917 29-08-2008 23:36:02 17.7 C 11.01 g/m*3 17.7 C 0 km/h
1918 29-08-2008 23:48:02 17.4 C 10.97 g/m*3 17.4 C 0 km/h
1919 30-08-2008 00:00:02 17.2 C 10.84 g/m*3 17.2 C 0 km/h
1920 30-08-2008 00:12:02 17.1 C 10.92 g/m*3 17.1 C 0 km/h
1921 30-08-2008 00:24:02 16.9 C 10.93 g/m*3 16.9 C 0 km/h
1922 30-08-2008 00:36:02 16.8 C 11.01 g/m*3 16.8 C 0 km/h
1923 30-08-2008 00:48:02 16.6 C 10.88 g/m*3 16.6 C 0 km/h
1924 30-08-2008 01:00:02 16.4 C 10.89 g/m*3 16.4 C 0 km/h
1925 30-08-2008 01:12:02 16.3 C 10.82 g/m*3 16.3 C 0 km/h
Sensor: Nr:Datum:Temp:Abs-Feuchte:Windchill:Wind:
Aussen-T/F 1926 30-08-2008 01:24:02 16.2 C 10.89 g/m*3 16.2 C 0 km/h
1927 30-08-2008 01:36:02 16.1 C 10.83 g/m*3 16.1 C 0 km/h
1928 30-08-2008 01:48:02 15.9 C 10.83 g/m*3 15.9 C 0 km/h
1929 30-08-2008 02:00:02 15.8 C 10.77 g/m*3 15.8 C 0 km/h
1930 30-08-2008 02:12:02 15.6 C 10.64 g/m*3 15.6 C 0 km/h
1931 30-08-2008 02:24:02 15.5 C 10.71 g/m*3 15.5 C 0 km/h
1932 30-08-2008 02:36:02 15.4 C 10.64 g/m*3 15.4 C 0 km/h
1933 30-08-2008 02:48:02 15.4 C 10.64 g/m*3 15.4 C 0 km/h
1934 30-08-2008 03:00:02 15.2 C 10.51 g/m*3 15.2 C 0 km/h
1935 30-08-2008 03:12:02 15 C 10.39 g/m*3 15 C 0 km/h
1936 30-08-2008 03:24:03 14.9 C 10.45 g/m*3 14.9 C 0 km/h
1937 30-08-2008 03:36:03 14.7 C 10.45 g/m*3 14.7 C 0 km/h
1938 30-08-2008 03:48:03 14.7 C 10.45 g/m*3 14.7 C 0 km/h
1939 30-08-2008 04:00:03 14.7 C 10.45 g/m*3 14.7 C 0 km/h
1940 30-08-2008 04:12:03 14.4 C 10.26 g/m*3 14.4 C 0 km/h
1941 30-08-2008 04:24:03 14.4 C 10.26 g/m*3 14.4 C 0 km/h
1942 30-08-2008 04:36:03 14.3 C 10.2 g/m*3 14.3 C 0 km/h
1943 30-08-2008 04:48:03 14.4 C 10.26 g/m*3 14.4 C 0 km/h
1944 30-08-2008 05:00:03 14.5 C 10.45 g/m*3 14.5 C 0 km/h
1945 30-08-2008 05:12:03 14.5 C 10.45 g/m*3 14.5 C 0 km/h
1946 30-08-2008 05:24:03 14.5 C 10.45 g/m*3 14.5 C 0 km/h
1947 30-08-2008 05:36:03 14.5 C 10.45 g/m*3 14.5 C 0 km/h
1948 30-08-2008 05:48:03 14 C 10.25 g/m*3 14 C 0 km/h
1949 30-08-2008 06:00:03 14.5 C 10.57 g/m*3 14.5 C 0 km/h
1950 30-08-2008 06:12:03 14.4 C 10.51 g/m*3 14.4 C 0 km/h
Sensor: Nr:Datum:Temp:Abs-Feuchte:Windchill:Wind:
Aussen-T/F 1951 30-08-2008 06:24:03 14.3 C 10.57 g/m*3 14.3 C 0 km/h
1952 30-08-2008 06:36:03 14.3 C 10.69 g/m*3 14.3 C 0 km/h
1953 30-08-2008 06:48:03 14.4 C 10.88 g/m*3 14.4 C 0 km/h
1954 30-08-2008 07:00:03 14.6 C 11.01 g/m*3 14.6 C 0 km/h
1955 30-08-2008 07:12:04 14.6 C 10.89 g/m*3 14.6 C 0 km/h
1956 30-08-2008 07:24:04 14.8 C 11.15 g/m*3 14.8 C 0 km/h
1957 30-08-2008 07:36:04 14.9 C 11.09 g/m*3 14.9 C 0 km/h
1958 30-08-2008 07:48:04 15.1 C 11.09 g/m*3 15.1 C 0 km/h
1959 30-08-2008 08:00:04 15.2 C 11.03 g/m*3 15.2 C 0 km/h
1960 30-08-2008 08:12:02 15.4 C 11.04 g/m*3 15.4 C 0 km/h
1961 30-08-2008 08:24:01 15.5 C 10.97 g/m*3 15.5 C 0 km/h
1962 30-08-2008 08:36:02 15.7 C 11.11 g/m*3 15.7 C 0 km/h
1963 30-08-2008 08:48:02 15.8 C 11.04 g/m*3 15.8 C 0 km/h
1964 30-08-2008 09:00:02 15.8 C 11.04 g/m*3 15.8 C 0 km/h
1965 30-08-2008 09:12:02 16.1 C 11.1 g/m*3 16.1 C 0 km/h
1966 30-08-2008 09:24:02 16.4 C 11.17 g/m*3 16.4 C 0 km/h
1967 30-08-2008 09:36:02 16.8 C 11.29 g/m*3 16.8 C 0 km/h
1968 30-08-2008 09:48:02 17.1 C 11.21 g/m*3 17.1 C 0 km/h
1969 30-08-2008 10:00:02 17 C 11.29 g/m*3 17 C 0 km/h
1970 30-08-2008 10:12:02 17.4 C 11.71 g/m*3 17.4 C 0 km/h
1971 30-08-2008 10:24:02 17.9 C 11.76 g/m*3 17.9 C 0 km/h
1972 30-08-2008 10:36:02 18.5 C 11.71 g/m*3 18.5 C 0 km/h
1973 30-08-2008 10:48:02 19.1 C 11.8 g/m*3 19.1 C 0 km/h
1974 30-08-2008 11:00:02 19.6 C 11.82 g/m*3 19.6 C 0 km/h
1975 30-08-2008 11:12:01 20.2 C 11.19 g/m*3 20.2 C 0 km/h
Sensor: Nr:Datum:Temp:Abs-Feuchte:Windchill:Wind:
Aussen-T/F 1976 30-08-2008 11:24:02 20.7 C 11.16 g/m*3 20.7 C 0 km/h
1977 30-08-2008 11:36:02 21.2 C 10.93 g/m*3 21.2 C 0 km/h
1978 30-08-2008 11:48:02 21.8 C 10.94 g/m*3 21.8 C 0 km/h
1979 30-08-2008 12:00:02 22.4 C 10.92 g/m*3 22.4 C 0 km/h
1980 30-08-2008 12:12:01 22.9 C 10.63 g/m*3 22.9 C 0 km/h
1981 30-08-2008 12:24:02 23.5 C 10.79 g/m*3 23.5 C 0 km/h
1982 30-08-2008 12:36:01 23.8 C 10.54 g/m*3 23.8 C 0 km/h
1983 30-08-2008 12:48:02 24.1 C 10.06 g/m*3 24.1 C 0 km/h
1984 30-08-2008 13:00:02 24.5 C 9.85 g/m*3 24.5 C 0 km/h
1985 30-08-2008 13:12:02 25.1 C 9.95 g/m*3 25.1 C 0 km/h
1986 30-08-2008 13:24:02 25.6 C 10 g/m*3 25.6 C 0 km/h
1987 30-08-2008 13:36:03 26.1 C 9.55 g/m*3 26.1 C 0 km/h
1988 30-08-2008 13:48:02 26.3 C 9.65 g/m*3 26.3 C 0 km/h
1989 30-08-2008 14:00:02 26.9 C 9.47 g/m*3 26.9 C 0 km/h
1990 30-08-2008 14:12:02 27.7 C 9.63 g/m*3 27.7 C 0 km/h
1991 30-08-2008 14:24:02 28.4 C 9.45 g/m*3 28.4 C 0 km/h
1992 30-08-2008 14:36:02 28.9 C 9.14 g/m*3 28.9 C 0 km/h
1993 30-08-2008 14:48:02 29.3 C 8.76 g/m*3 29.3 C 0 km/h
1994 30-08-2008 15:00:02 29.6 C 8.9 g/m*3 29.6 C 0 km/h
1995 30-08-2008 15:12:02 30.3 C 8.94 g/m*3 30.3 C 0 km/h
1996 30-08-2008 15:24:01 30.4 C 8.68 g/m*3 30.4 C 0 km/h
1997 30-08-2008 15:36:02 30.4 C 8.37 g/m*3 30.4 C 0 km/h
1998 30-08-2008 15:48:02 30.7 C 8.19 g/m*3 30.7 C 0 km/h
1999 30-08-2008 16:00:02 31 C 8.32 g/m*3 31 C 0 km/h
2000 30-08-2008 16:12:02 31.2 C 8.09 g/m*3 31.2 C 0 km/h
Sensor: Nr:Datum:Temp:Abs-Feuchte:Windchill:Wind:
Aussen-T/F 2001 30-08-2008 16:24:02 31.2 C 7.76 g/m*3 31.2 C 0 km/h
2002 30-08-2008 16:36:02 31.6 C 7.6 g/m*3 31.6 C 0 km/h
2003 30-08-2008 16:48:02 31.9 C 7.39 g/m*3 31.9 C 0 km/h
2004 30-08-2008 17:00:02 31.4 C 7.19 g/m*3 31.4 C 0 km/h
2005 30-08-2008 17:12:02 31.7 C 7.31 g/m*3 31.7 C 0 km/h
2006 30-08-2008 17:24:01 32.1 C 7.13 g/m*3 32.1 C 0 km/h
2007 30-08-2008 17:36:02 32.1 C 6.79 g/m*3 32.1 C 0 km/h
2008 30-08-2008 17:48:02 32.1 C 6.79 g/m*3 32.1 C 0 km/h
2009 30-08-2008 18:00:02 32.2 C 6.82 g/m*3 32.2 C 0 km/h
2010 30-08-2008 18:12:02 32.3 C 6.86 g/m*3 32.3 C 0 km/h
2011 30-08-2008 18:24:02 32 C 6.75 g/m*3 32 C 0 km/h
2012 30-08-2008 18:36:02 31.8 C 6.68 g/m*3 31.8 C 0 km/h
2013 30-08-2008 18:48:02 31.7 C 7.31 g/m*3 31.7 C 0 km/h
2014 30-08-2008 19:00:02 31.3 C 7.48 g/m*3 31.3 C 0 km/h
2015 30-08-2008 19:12:02 31 C 8 g/m*3 31 C 0 km/h
2016 30-08-2008 19:24:02 30.4 C 8.06 g/m*3 30.4 C 0 km/h
2017 30-08-2008 19:36:02 29.4 C 8.51 g/m*3 29.4 C 0 km/h
2018 30-08-2008 19:48:02 28.1 C 8.48 g/m*3 28.1 C 0 km/h
2019 30-08-2008 20:00:02 26.5 C 8.76 g/m*3 26.5 C 0 km/h
2020 30-08-2008 20:12:02 25.2 C 8.85 g/m*3 25.2 C 0 km/h
2021 30-08-2008 20:24:02 24.3 C 9.07 g/m*3 24.3 C 0 km/h
2022 30-08-2008 20:36:02 23.5 C 9.31 g/m*3 23.5 C 0 km/h
2023 30-08-2008 20:48:02 23 C 9.25 g/m*3 23 C 0 km/h
2024 30-08-2008 21:00:02 22.7 C 9.7 g/m*3 22.7 C 0 km/h
2025 30-08-2008 21:12:03 22.6 C 9.64 g/m*3 22.6 C 0 km/h
Sensor: Nr:Datum:Temp:Abs-Feuchte:Windchill:Wind:
Aussen-T/F 2026 30-08-2008 21:24:02 22.2 C 9.62 g/m*3 22.2 C 0 km/h
2027 30-08-2008 21:36:03 22 C 9.51 g/m*3 22 C 0 km/h
2028 30-08-2008 21:48:02 21.6 C 9.67 g/m*3 21.6 C 0 km/h
2029 30-08-2008 22:00:02 21.4 C 9.75 g/m*3 21.4 C 0 km/h
2030 30-08-2008 22:12:02 21.2 C 9.82 g/m*3 21.2 C 0 km/h
2031 30-08-2008 22:24:02 21 C 9.71 g/m*3 21 C 0 km/h
2032 30-08-2008 22:36:02 20.7 C 9.72 g/m*3 20.7 C 0 km/h
2033 30-08-2008 22:48:02 20.4 C 9.73 g/m*3 20.4 C 0 km/h
2034 30-08-2008 23:00:02 20.4 C 9.73 g/m*3 20.4 C 0 km/h
2035 30-08-2008 23:12:01 20.1 C 9.73 g/m*3 20.1 C 0 km/h
2036 30-08-2008 23:24:02 20 C 9.68 g/m*3 20 C 0 km/h
2037 30-08-2008 23:36:01 19.6 C 9.62 g/m*3 19.6 C 0 km/h
2038 30-08-2008 23:49:02 19.4 C 9.68 g/m*3 19.4 C 0 km/h
2039 31-08-2008 00:01:02 19.2 C 9.73 g/m*3 19.2 C 0 km/h
2040 31-08-2008 00:13:02 19.1 C 9.67 g/m*3 19.1 C 0 km/h
2041 31-08-2008 00:25:02 18.8 C 9.82 g/m*3 18.8 C 0 km/h
2042 31-08-2008 00:37:02 18.6 C 10.03 g/m*3 18.6 C 0 km/h
2043 31-08-2008 00:49:02 18.4 C 9.75 g/m*3 18.4 C 0 km/h
2044 31-08-2008 01:01:02 18.2 C 9.79 g/m*3 18.2 C 0 km/h
2045 31-08-2008 01:13:02 18.1 C 9.73 g/m*3 18.1 C 0 km/h
2046 31-08-2008 01:25:02 17.9 C 9.92 g/m*3 17.9 C 0 km/h
2047 31-08-2008 01:37:02 17.7 C 9.81 g/m*3 17.7 C 0 km/h
2048 31-08-2008 01:49:02 17.5 C 9.69 g/m*3 17.5 C 0 km/h
2049 31-08-2008 02:01:02 17.4 C 10.08 g/m*3 17.4 C 0 km/h
2050 31-08-2008 02:13:02 17.1 C 10.19 g/m*3 17.1 C 0 km/h
Sensor: Nr:Datum:Temp:Abs-Feuchte:Windchill:Wind:
Aussen-T/F 2051 31-08-2008 02:25:02 16.9 C 10.07 g/m*3 16.9 C 0 km/h
2052 31-08-2008 02:37:03 16.8 C 10.29 g/m*3 16.8 C 0 km/h
2053 31-08-2008 02:49:03 16.6 C 10.03 g/m*3 16.6 C 0 km/h
2054 31-08-2008 03:01:03 16.4 C 9.91 g/m*3 16.4 C 0 km/h
2055 31-08-2008 03:13:03 16.1 C 9.6 g/m*3 16.1 C 0 km/h
2056 31-08-2008 03:25:03 16 C 9.67 g/m*3 16 C 0 km/h
2057 31-08-2008 03:37:03 15.9 C 9.89 g/m*3 15.9 C 0 km/h
2058 31-08-2008 03:49:03 15.8 C 10.1 g/m*3 15.8 C 0 km/h
2059 31-08-2008 04:01:03 15.6 C 9.97 g/m*3 15.6 C 0 km/h
2060 31-08-2008 04:13:03 15.6 C 10.11 g/m*3 15.6 C 0 km/h
2061 31-08-2008 04:25:03 15.4 C 10.12 g/m*3 15.4 C 0 km/h
2062 31-08-2008 04:37:03 15.2 C 9.99 g/m*3 15.2 C 0 km/h
2063 31-08-2008 04:49:03 15.1 C 9.93 g/m*3 15.1 C 0 km/h
2064 31-08-2008 05:01:03 14.9 C 9.81 g/m*3 14.9 C 0 km/h
2065 31-08-2008 05:13:03 14.8 C 9.88 g/m*3 14.8 C 0 km/h
2066 31-08-2008 05:25:03 14.7 C 9.69 g/m*3 14.7 C 0 km/h
2067 31-08-2008 05:37:03 14.5 C 9.58 g/m*3 14.5 C 0 km/h
2068 31-08-2008 05:49:03 14.5 C 9.58 g/m*3 14.5 C 0 km/h
2069 31-08-2008 06:01:03 14.3 C 9.46 g/m*3 14.3 C 0 km/h
2070 31-08-2008 06:13:03 14.2 C 9.4 g/m*3 14.2 C 0 km/h
2071 31-08-2008 06:25:04 14.1 C 9.47 g/m*3 14.1 C 0 km/h
2072 31-08-2008 06:37:04 14 C 9.41 g/m*3 14 C 0 km/h
2073 31-08-2008 06:49:04 13.9 C 9.59 g/m*3 13.9 C 0 km/h
2074 31-08-2008 07:01:04 14 C 9.65 g/m*3 14 C 0 km/h
2075 31-08-2008 07:13:04 14 C 9.53 g/m*3 14 C 0 km/h
Sensor: Nr:Datum:Temp:Abs-Feuchte:Windchill:Wind:
Aussen-T/F 2076 31-08-2008 07:25:04 14 C 9.53 g/m*3 14 C 0 km/h
2077 31-08-2008 07:37:04 14 C 9.65 g/m*3 14 C 0 km/h
2078 31-08-2008 07:49:04 14.1 C 9.71 g/m*3 14.1 C 0 km/h
2079 31-08-2008 08:01:04 14.2 C 9.77 g/m*3 14.2 C 0 km/h
2080 31-08-2008 08:13:04 14.4 C 9.77 g/m*3 14.4 C 0 km/h
2081 31-08-2008 08:25:04 14.5 C 9.83 g/m*3 14.5 C 0 km/h
2082 31-08-2008 08:37:04 14.6 C 9.89 g/m*3 14.6 C 0 km/h
2083 31-08-2008 08:49:01 14.7 C 9.95 g/m*3 14.7 C 0 km/h
2084 31-08-2008 09:01:02 15 C 10 g/m*3 15 C 0 km/h
2085 31-08-2008 09:13:02 15.4 C 10.12 g/m*3 15.4 C 0 km/h
2086 31-08-2008 09:25:02 15.8 C 10.36 g/m*3 15.8 C 0 km/h
2087 31-08-2008 09:37:02 16.5 C 10.39 g/m*3 16.5 C 0 km/h
2088 31-08-2008 09:49:03 17.1 C 10.19 g/m*3 17.1 C 0 km/h
2089 31-08-2008 10:01:02 17.7 C 10.11 g/m*3 17.7 C 0 km/h
2090 31-08-2008 10:13:02 18.4 C 9.91 g/m*3 18.4 C 0 km/h
2091 31-08-2008 10:25:02 19 C 9.94 g/m*3 19 C 0 km/h
2092 31-08-2008 10:37:02 19.3 C 10.12 g/m*3 19.3 C 0 km/h
2093 31-08-2008 10:49:03 20 C 10.02 g/m*3 20 C 0 km/h
2094 31-08-2008 11:01:02 20.7 C 10.44 g/m*3 20.7 C 0 km/h
2095 31-08-2008 11:13:02 21.4 C 10.12 g/m*3 21.4 C 0 km/h
2096 31-08-2008 11:25:03 22.1 C 9.76 g/m*3 22.1 C 0 km/h
2097 31-08-2008 11:37:02 22.8 C 9.55 g/m*3 22.8 C 0 km/h
2098 31-08-2008 11:49:02 23.5 C 9.31 g/m*3 23.5 C 0 km/h
2099 31-08-2008 12:01:02 24.1 C 9.63 g/m*3 24.1 C 0 km/h
2100 31-08-2008 12:13:02 24.9 C 8.93 g/m*3 24.9 C 0 km/h
Sensor: Nr:Datum:Temp:Abs-Feuchte:Windchill:Wind:
Aussen-T/F 2101 31-08-2008 12:25:02 25.3 C 8.43 g/m*3 25.3 C 0 km/h
2102 31-08-2008 12:37:02 25.6 C 8.33 g/m*3 25.6 C 0 km/h
2103 31-08-2008 12:49:01 26 C 7.79 g/m*3 26 C 0 km/h
2104 31-08-2008 13:01:02 26.1 C 7.83 g/m*3 26.1 C 0 km/h
2105 31-08-2008 13:13:02 26.6 C 8.31 g/m*3 26.6 C 0 km/h
2106 31-08-2008 13:25:01 26.8 C 8.4 g/m*3 26.8 C 0 km/h
2107 31-08-2008 13:37:02 27.9 C 8.65 g/m*3 27.9 C 0 km/h
2108 31-08-2008 13:49:02 28.3 C 8.29 g/m*3 28.3 C 0 km/h
2109 31-08-2008 14:01:02 28.7 C 8.48 g/m*3 28.7 C 0 km/h
2110 31-08-2008 14:13:02 28.7 C 8.48 g/m*3 28.7 C 0 km/h
2111 31-08-2008 14:25:02 29.7 C 8.65 g/m*3 29.7 C 0 km/h
2112 31-08-2008 14:37:02 30.1 C 8.54 g/m*3 30.1 C 0 km/h
2113 31-08-2008 14:49:02 30.3 C 8.32 g/m*3 30.3 C 0 km/h
2114 31-08-2008 15:01:01 30.4 C 8.06 g/m*3 30.4 C 0 km/h
2115 31-08-2008 15:13:01 30.5 C 8.1 g/m*3 30.5 C 0 km/h
2116 31-08-2008 15:25:02 31 C 8 g/m*3 31 C 0 km/h
2117 31-08-2008 15:37:01 31.2 C 7.76 g/m*3 31.2 C 0 km/h
2118 31-08-2008 15:49:02 31.8 C 7.35 g/m*3 31.8 C 0 km/h
2119 31-08-2008 16:01:01 31.8 C 7.68 g/m*3 31.8 C 0 km/h
2120 31-08-2008 16:13:01 32 C 7.09 g/m*3 32 C 0 km/h
2121 31-08-2008 16:25:02 32 C 7.43 g/m*3 32 C 0 km/h
2122 31-08-2008 16:37:01 32.3 C 7.2 g/m*3 32.3 C 0 km/h
2123 31-08-2008 16:49:01 31.5 C 7.89 g/m*3 31.5 C 0 km/h
2124 31-08-2008 17:01:02 31.8 C 7.68 g/m*3 31.8 C 0 km/h
2125 31-08-2008 17:13:02 31.4 C 8.17 g/m*3 31.4 C 0 km/h
Sensor: Nr:Datum:Temp:Abs-Feuchte:Windchill:Wind:
Aussen-T/F 2126 31-08-2008 17:25:01 31.4 C 8.17 g/m*3 31.4 C 0 km/h
2127 31-08-2008 17:37:02 31.6 C 8.26 g/m*3 31.6 C 0 km/h
2128 31-08-2008 17:49:02 31.9 C 8.06 g/m*3 31.9 C 0 km/h
2129 31-08-2008 18:01:02 32.4 C 7.59 g/m*3 32.4 C 0 km/h
2130 31-08-2008 18:13:02 32.3 C 7.55 g/m*3 32.3 C 0 km/h
2131 31-08-2008 18:25:02 32.4 C 7.59 g/m*3 32.4 C 0 km/h
2132 31-08-2008 18:37:02 32.1 C 7.81 g/m*3 32.1 C 0 km/h
2133 31-08-2008 18:49:02 31.9 C 8.39 g/m*3 31.9 C 0 km/h
2134 31-08-2008 19:01:02 31.2 C 8.73 g/m*3 31.2 C 0 km/h
2135 31-08-2008 19:13:02 30.9 C 9.23 g/m*3 30.9 C 0 km/h
2136 31-08-2008 19:25:02 30.6 C 9.4 g/m*3 30.6 C 0 km/h
2137 31-08-2008 19:37:02 29.5 C 10.03 g/m*3 29.5 C 0 km/h
2138 31-08-2008 19:49:02 28.2 C 10.17 g/m*3 28.2 C 0 km/h
2139 31-08-2008 20:01:02 27.1 C 10.35 g/m*3 27.1 C 0 km/h
2140 31-08-2008 20:13:03 26.2 C 10.34 g/m*3 26.2 C 0 km/h
2141 31-08-2008 20:25:01 25.5 C 10.65 g/m*3 25.5 C 0 km/h
2142 31-08-2008 20:37:02 25 C 10.59 g/m*3 25 C 0 km/h
2143 31-08-2008 20:49:02 24.9 C 10.99 g/m*3 24.9 C 0 km/h
2144 31-08-2008 21:01:02 24.8 C 11.15 g/m*3 24.8 C 0 km/h
2145 31-08-2008 21:13:02 24.5 C 11.19 g/m*3 24.5 C 0 km/h
2146 31-08-2008 21:25:02 24.5 C 11.41 g/m*3 24.5 C 0 km/h
2147 31-08-2008 21:37:02 24.4 C 11.35 g/m*3 24.4 C 0 km/h
2148 31-08-2008 21:49:02 24.3 C 11.29 g/m*3 24.3 C 0 km/h
2149 31-08-2008 22:01:01 24.1 C 11.38 g/m*3 24.1 C 0 km/h
2150 31-08-2008 22:13:01 23.7 C 11.55 g/m*3 23.7 C 0 km/h
Sensor: Nr:Datum:Temp:Abs-Feuchte:Windchill:Wind:
Aussen-T/F 2151 31-08-2008 22:25:02 23.3 C 11.71 g/m*3 23.3 C 0 km/h
2152 31-08-2008 22:37:02 23 C 11.92 g/m*3 23 C 0 km/h
2153 31-08-2008 22:49:03 23 C 11.92 g/m*3 23 C 0 km/h
2154 31-08-2008 23:01:02 22.9 C 11.85 g/m*3 22.9 C 0 km/h
2155 31-08-2008 23:13:02 22.6 C 11.85 g/m*3 22.6 C 0 km/h
2156 31-08-2008 23:25:03 22.8 C 11.99 g/m*3 22.8 C 0 km/h
2157 31-08-2008 23:37:02 22.5 C 11.78 g/m*3 22.5 C 0 km/h
2158 31-08-2008 23:49:03 22.3 C 11.85 g/m*3 22.3 C 0 km/h
2159 01-09-2008 00:02:02 22.1 C 11.71 g/m*3 22.1 C 0 km/h
2160 01-09-2008 00:14:02 22.1 C 11.91 g/m*3 22.1 C 0 km/h
2161 01-09-2008 00:26:02 22 C 12.03 g/m*3 22 C 0 km/h
2162 01-09-2008 00:38:02 22.2 C 12.17 g/m*3 22.2 C 0 km/h
2163 01-09-2008 00:50:02 22 C 12.03 g/m*3 22 C 0 km/h
2164 01-09-2008 01:02:03 22 C 12.03 g/m*3 22 C 0 km/h
2165 01-09-2008 01:14:03 21.9 C 12.16 g/m*3 21.9 C 0 km/h
2166 01-09-2008 01:26:03 21.8 C 12.09 g/m*3 21.8 C 0 km/h
2167 01-09-2008 01:38:03 21.7 C 12.02 g/m*3 21.7 C 0 km/h
2168 01-09-2008 01:50:03 21.8 C 11.9 g/m*3 21.8 C 0 km/h
2169 01-09-2008 02:02:03 21.6 C 11.76 g/m*3 21.6 C 0 km/h
2170 01-09-2008 02:14:03 21.7 C 11.83 g/m*3 21.7 C 0 km/h
2171 01-09-2008 02:26:03 21.7 C 11.83 g/m*3 21.7 C 0 km/h
2172 01-09-2008 02:38:03 21.3 C 12.49 g/m*3 21.3 C 0 km/h
2173 01-09-2008 02:50:03 20.8 C 12.86 g/m*3 20.8 C 0 km/h
2174 01-09-2008 03:02:03 20.6 C 12.35 g/m*3 20.6 C 0 km/h
2175 01-09-2008 03:14:03 20.7 C 11.88 g/m*3 20.7 C 0 km/h
Sensor: Nr:Datum:Temp:Abs-Feuchte:Windchill:Wind:
Aussen-T/F 2176 01-09-2008 03:26:03 20.9 C 11.47 g/m*3 20.9 C 0 km/h
2177 01-09-2008 03:38:03 20.9 C 11.66 g/m*3 20.9 C 0 km/h
2178 01-09-2008 03:50:03 20.9 C 11.84 g/m*3 20.9 C 0 km/h
2179 01-09-2008 04:02:03 20.8 C 11.77 g/m*3 20.8 C 0 km/h
2180 01-09-2008 04:14:03 20.8 C 11.59 g/m*3 20.8 C 0 km/h
2181 01-09-2008 04:26:03 20.8 C 11.77 g/m*3 20.8 C 0 km/h
2182 01-09-2008 04:38:03 20.8 C 11.59 g/m*3 20.8 C 0 km/h
2183 01-09-2008 04:50:04 20.2 C 11.89 g/m*3 20.2 C 0 km/h
2184 01-09-2008 05:02:04 20 C 12.1 g/m*3 20 C 0 km/h
2185 01-09-2008 05:14:04 19.4 C 12.68 g/m*3 19.4 C 0 km/h
2186 01-09-2008 05:26:04 19.1 C 12.95 g/m*3 19.1 C 0 km/h
2187 01-09-2008 05:38:04 18.8 C 13.21 g/m*3 18.8 C 0 km/h
2188 01-09-2008 05:50:04 18.9 C 13.45 g/m*3 18.9 C 0 km/h
2189 01-09-2008 06:02:04 19.1 C 13.44 g/m*3 19.1 C 0 km/h
2190 01-09-2008 06:14:04 19.3 C 13.44 g/m*3 19.3 C 0 km/h
2191 01-09-2008 06:26:04 19.3 C 13.1 g/m*3 19.3 C 0 km/h
2192 01-09-2008 06:38:04 19.1 C 13.11 g/m*3 19.1 C 0 km/h
2193 01-09-2008 06:50:04 18.9 C 13.28 g/m*3 18.9 C 0 km/h
2194 01-09-2008 07:02:04 18.7 C 13.45 g/m*3 18.7 C 0 km/h
2195 01-09-2008 07:14:04 18.6 C 13.53 g/m*3 18.6 C 0 km/h
2196 01-09-2008 07:26:04 18.7 C 13.61 g/m*3 18.7 C 0 km/h
2197 01-09-2008 07:38:04 18.8 C 13.69 g/m*3 18.8 C 0 km/h
2198 01-09-2008 07:50:04 18.9 C 13.77 g/m*3 18.9 C 0 km/h
2199 01-09-2008 08:02:04 18.9 C 13.45 g/m*3 18.9 C 0 km/h
2200 01-09-2008 08:14:04 19.1 C 13.44 g/m*3 19.1 C 0 km/h
Sensor: Nr:Datum:Temp:Abs-Feuchte:Windchill:Wind:
Aussen-T/F 2201 01-09-2008 08:26:04 19.3 C 13.44 g/m*3 19.3 C 0 km/h
2202 01-09-2008 08:38:05 19.1 C 13.11 g/m*3 19.1 C 0 km/h
2203 01-09-2008 08:50:05 19.2 C 13.36 g/m*3 19.2 C 0 km/h
2204 01-09-2008 09:02:05 19.3 C 13.44 g/m*3 19.3 C 0 km/h
2205 01-09-2008 09:14:05 19.3 C 13.44 g/m*3 19.3 C 0 km/h
2206 01-09-2008 09:26:05 19.4 C 13.18 g/m*3 19.4 C 0 km/h
2207 01-09-2008 09:38:03 20.7 C 13.14 g/m*3 20.7 C 0 km/h
2208 01-09-2008 09:50:02 21.2 C 12.23 g/m*3 21.2 C 0 km/h
2209 01-09-2008 10:02:01 21.5 C 11.88 g/m*3 21.5 C 0 km/h
2210 01-09-2008 10:14:01 21.4 C 11.81 g/m*3 21.4 C 0 km/h
2211 01-09-2008 10:26:02 21.2 C 11.68 g/m*3 21.2 C 0 km/h
2212 01-09-2008 10:38:01 21.3 C 11.74 g/m*3 21.3 C 0 km/h
2213 01-09-2008 10:50:01 21.7 C 11.45 g/m*3 21.7 C 0 km/h
2214 01-09-2008 11:02:01 22.1 C 10.93 g/m*3 22.1 C 0 km/h
2215 01-09-2008 11:14:01 22.4 C 10.53 g/m*3 22.4 C 0 km/h
2216 01-09-2008 11:26:01 22.4 C 10.53 g/m*3 22.4 C 0 km/h
2217 01-09-2008 11:38:01 22.6 C 10.45 g/m*3 22.6 C 0 km/h
2218 01-09-2008 11:50:01 22.6 C 9.84 g/m*3 22.6 C 0 km/h
2219 01-09-2008 12:02:02 22.6 C 9.84 g/m*3 22.6 C 0 km/h
2220 01-09-2008 12:14:02 22.5 C 9.99 g/m*3 22.5 C 0 km/h
2221 01-09-2008 12:26:01 21.4 C 9.56 g/m*3 21.4 C 0 km/h
2222 01-09-2008 12:38:02 21.5 C 9.81 g/m*3 21.5 C 0 km/h
2223 01-09-2008 12:50:02 21.5 C 9.81 g/m*3 21.5 C 0 km/h
2224 01-09-2008 13:02:02 22 C 9.9 g/m*3 22 C 0 km/h
2225 01-09-2008 13:14:02 22.6 C 10.04 g/m*3 22.6 C 0 km/h
Sensor: Nr:Datum:Temp:Abs-Feuchte:Windchill:Wind:
Aussen-T/F 2226 01-09-2008 13:26:02 24.1 C 9.63 g/m*3 24.1 C 0 km/h
2227 01-09-2008 13:38:02 24.1 C 7.66 g/m*3 24.1 C 0 km/h
2228 01-09-2008 13:50:02 24 C 7.4 g/m*3 24 C 0 km/h
2229 01-09-2008 14:02:03 24.9 C 7.32 g/m*3 24.9 C 0 km/h
2230 01-09-2008 14:14:03 24.8 C 7.74 g/m*3 24.8 C 0 km/h
2231 01-09-2008 14:26:02 24.5 C 7.39 g/m*3 24.5 C 0 km/h
2232 01-09-2008 14:38:03 24.1 C 7.22 g/m*3 24.1 C 0 km/h
2233 01-09-2008 14:50:02 23.7 C 7.49 g/m*3 23.7 C 0 km/h
2234 01-09-2008 15:02:01 23.5 C 7.82 g/m*3 23.5 C 0 km/h
2235 01-09-2008 15:14:01 23.5 C 8.04 g/m*3 23.5 C 0 km/h
2236 01-09-2008 15:26:02 23.9 C 7.57 g/m*3 23.9 C 0 km/h
2237 01-09-2008 15:38:01 23.5 C 7.19 g/m*3 23.5 C 0 km/h
2238 01-09-2008 15:50:02 23.4 C 7.36 g/m*3 23.4 C 0 km/h
2239 01-09-2008 16:02:01 23.4 C 7.15 g/m*3 23.4 C 0 km/h
2240 01-09-2008 16:14:01 23.4 C 7.36 g/m*3 23.4 C 0 km/h
2241 01-09-2008 16:26:02 23.2 C 7.07 g/m*3 23.2 C 0 km/h
2242 01-09-2008 16:38:01 23.3 C 6.9 g/m*3 23.3 C 0 km/h
2243 01-09-2008 16:50:02 23.3 C 6.9 g/m*3 23.3 C 0 km/h
2244 01-09-2008 17:02:01 23.2 C 6.86 g/m*3 23.2 C 0 km/h
2245 01-09-2008 17:14:01 23.1 C 6.82 g/m*3 23.1 C 0 km/h
2246 01-09-2008 17:26:02 22.9 C 6.95 g/m*3 22.9 C 0 km/h
2247 01-09-2008 17:38:01 22.8 C 7.11 g/m*3 22.8 C 0 km/h
2248 01-09-2008 17:50:01 22.5 C 6.99 g/m*3 22.5 C 0 km/h
2249 01-09-2008 18:02:01 22.5 C 6.99 g/m*3 22.5 C 0 km/h
2250 01-09-2008 18:14:01 22.7 C 7.07 g/m*3 22.7 C 0 km/h
Sensor: Nr:Datum:Temp:Abs-Feuchte:Windchill:Wind:
Aussen-T/F 2251 01-09-2008 18:26:02 22.6 C 6.83 g/m*3 22.6 C 0 km/h
2252 01-09-2008 18:38:01 22 C 6.79 g/m*3 22 C 0 km/h
2253 01-09-2008 18:50:01 21.9 C 7.33 g/m*3 21.9 C 0 km/h
2254 01-09-2008 19:02:02 21.6 C 7.21 g/m*3 21.6 C 0 km/h
2255 01-09-2008 19:14:03 21.4 C 7.31 g/m*3 21.4 C 0 km/h
2256 01-09-2008 19:26:01 21.3 C 7.64 g/m*3 21.3 C 0 km/h
2257 01-09-2008 19:38:02 21 C 7.69 g/m*3 21 C 0 km/h
2258 01-09-2008 19:50:02 20.6 C 7.87 g/m*3 20.6 C 0 km/h
2259 01-09-2008 20:02:02 20 C 7.95 g/m*3 20 C 0 km/h
2260 01-09-2008 20:14:02 19.6 C 7.93 g/m*3 19.6 C 0 km/h
2261 01-09-2008 20:26:02 19.5 C 8.06 g/m*3 19.5 C 0 km/h
2262 01-09-2008 20:38:02 19.4 C 8.18 g/m*3 19.4 C 0 km/h
2263 01-09-2008 20:50:02 19.4 C 8.18 g/m*3 19.4 C 0 km/h
2264 01-09-2008 21:02:02 19.3 C 8.29 g/m*3 19.3 C 0 km/h
2265 01-09-2008 21:14:02 18.9 C 8.26 g/m*3 18.9 C 0 km/h
2266 01-09-2008 21:26:02 18.6 C 8.59 g/m*3 18.6 C 0 km/h
2267 01-09-2008 21:38:02 18.2 C 8.39 g/m*3 18.2 C 0 km/h
2268 01-09-2008 21:50:02 18 C 8.45 g/m*3 18 C 0 km/h
2269 01-09-2008 22:02:02 17.9 C 8.55 g/m*3 17.9 C 0 km/h
2270 01-09-2008 22:14:02 17.7 C 8.6 g/m*3 17.7 C 0 km/h
2271 01-09-2008 22:27:03 17.5 C 8.65 g/m*3 17.5 C 0 km/h
2272 01-09-2008 22:39:03 17.3 C 8.69 g/m*3 17.3 C 0 km/h
2273 01-09-2008 22:51:03 17.3 C 8.69 g/m*3 17.3 C 0 km/h
2274 01-09-2008 23:03:03 17.2 C 8.79 g/m*3 17.2 C 0 km/h
2275 01-09-2008 23:15:03 17 C 8.83 g/m*3 17 C 0 km/h
Sensor: Nr:Datum:Temp:Abs-Feuchte:Windchill:Wind:
Aussen-T/F 2276 01-09-2008 23:27:03 17 C 8.83 g/m*3 17 C 0 km/h
2277 01-09-2008 23:39:03 16.9 C 9.06 g/m*3 16.9 C 0 km/h
2278 01-09-2008 23:51:03 16.8 C 9.15 g/m*3 16.8 C 0 km/h
2279 02-09-2008 00:03:03 16.7 C 9.1 g/m*3 16.7 C 0 km/h
2280 02-09-2008 00:15:03 16.6 C 9.18 g/m*3 16.6 C 0 km/h
2281 02-09-2008 00:27:03 16.6 C 9.18 g/m*3 16.6 C 0 km/h
2282 02-09-2008 00:39:03 16.6 C 9.18 g/m*3 16.6 C 0 km/h
2283 02-09-2008 00:51:03 16.4 C 9.21 g/m*3 16.4 C 0 km/h
2284 02-09-2008 01:03:04 16 C 9.26 g/m*3 16 C 0 km/h
2285 02-09-2008 01:15:04 15.9 C 9.48 g/m*3 15.9 C 0 km/h
2286 02-09-2008 01:27:04 15.7 C 9.5 g/m*3 15.7 C 0 km/h
2287 02-09-2008 01:39:04 15.6 C 9.44 g/m*3 15.6 C 0 km/h
2288 02-09-2008 01:51:04 15.7 C 9.5 g/m*3 15.7 C 0 km/h
2289 02-09-2008 02:03:04 15.6 C 9.44 g/m*3 15.6 C 0 km/h
2290 02-09-2008 02:15:04 15.4 C 9.33 g/m*3 15.4 C 0 km/h
2291 02-09-2008 02:27:04 15.1 C 9.29 g/m*3 15.1 C 0 km/h
2292 02-09-2008 02:39:04 14.9 C 9.43 g/m*3 14.9 C 0 km/h
2293 02-09-2008 02:51:04 14.7 C 9.44 g/m*3 14.7 C 0 km/h
2294 02-09-2008 03:03:04 14.2 C 9.16 g/m*3 14.2 C 0 km/h
2295 02-09-2008 03:15:04 14.3 C 9.34 g/m*3 14.3 C 0 km/h
2296 02-09-2008 03:27:04 14.2 C 9.4 g/m*3 14.2 C 0 km/h
2297 02-09-2008 03:39:04 14 C 9.41 g/m*3 14 C 0 km/h
2298 02-09-2008 03:51:04 14 C 9.53 g/m*3 14 C 0 km/h
2299 02-09-2008 04:03:04 14 C 9.53 g/m*3 14 C 0 km/h
2300 02-09-2008 04:15:04 13.9 C 9.47 g/m*3 13.9 C 0 km/h
Sensor: Nr:Datum:Temp:Abs-Feuchte:Windchill:Wind:
Aussen-T/F 2301 02-09-2008 04:27:04 13.8 C 9.41 g/m*3 13.8 C 0 km/h
2302 02-09-2008 04:39:04 13.5 C 9.36 g/m*3 13.5 C 0 km/h
2303 02-09-2008 04:51:04 13.4 C 9.3 g/m*3 13.4 C 0 km/h
2304 02-09-2008 05:03:05 13.4 C 9.42 g/m*3 13.4 C 0 km/h
2305 02-09-2008 05:15:05 13.3 C 9.36 g/m*3 13.3 C 0 km/h
2306 02-09-2008 05:27:05 13.3 C 9.36 g/m*3 13.3 C 0 km/h
2307 02-09-2008 05:39:05 13.2 C 9.42 g/m*3 13.2 C 0 km/h
2308 02-09-2008 05:51:05 13 C 9.3 g/m*3 13 C 0 km/h
2309 02-09-2008 06:03:05 12.9 C 9.35 g/m*3 12.9 C 0 km/h
2310 02-09-2008 06:15:05 12.8 C 9.3 g/m*3 12.8 C 0 km/h
2311 02-09-2008 06:27:05 12.6 C 9.18 g/m*3 12.6 C 0 km/h
2312 02-09-2008 06:39:05 12.5 C 9.24 g/m*3 12.5 C 0 km/h
2313 02-09-2008 06:51:05 12.4 C 9.18 g/m*3 12.4 C 0 km/h
2314 02-09-2008 07:03:02 12.4 C 9.18 g/m*3 12.4 C 0 km/h
2315 02-09-2008 07:15:02 12.4 C 9.18 g/m*3 12.4 C 0 km/h
2316 02-09-2008 07:27:02 12.5 C 9.24 g/m*3 12.5 C 0 km/h
2317 02-09-2008 07:39:02 12.6 C 9.29 g/m*3 12.6 C 0 km/h
2318 02-09-2008 07:51:01 12.7 C 9.35 g/m*3 12.7 C 0 km/h
2319 02-09-2008 08:03:02 12.8 C 9.52 g/m*3 12.8 C 0 km/h
2320 02-09-2008 08:15:01 13.2 C 9.64 g/m*3 13.2 C 0 km/h
2321 02-09-2008 08:27:01 14 C 10.01 g/m*3 14 C 0 km/h
2322 02-09-2008 08:39:01 14.6 C 10.26 g/m*3 14.6 C 0 km/h
2323 02-09-2008 08:51:01 14.8 C 10.01 g/m*3 14.8 C 0 km/h
2324 02-09-2008 09:03:01 14.6 C 9.64 g/m*3 14.6 C 0 km/h
2325 02-09-2008 09:15:02 14.8 C 9.88 g/m*3 14.8 C 0 km/h
Sensor: Nr:Datum:Temp:Abs-Feuchte:Windchill:Wind:
Aussen-T/F 2326 02-09-2008 09:27:02 15.4 C 9.99 g/m*3 15.4 C 0 km/h
2327 02-09-2008 09:39:01 16.4 C 9.91 g/m*3 16.4 C 0 km/h
2328 02-09-2008 09:51:02 17.2 C 9.81 g/m*3 17.2 C 0 km/h
2329 02-09-2008 10:03:02 17.8 C 10.02 g/m*3 17.8 C 0 km/h
2330 02-09-2008 10:15:02 18.3 C 10.01 g/m*3 18.3 C 0 km/h
2331 02-09-2008 10:27:02 18.6 C 9.87 g/m*3 18.6 C 0 km/h
2332 02-09-2008 10:39:02 19 C 10.1 g/m*3 19 C 0 km/h
2333 02-09-2008 10:51:02 19.5 C 10.07 g/m*3 19.5 C 0 km/h
2334 02-09-2008 11:03:03 20 C 9.68 g/m*3 20 C 0 km/h
2335 02-09-2008 11:15:02 20.3 C 9.15 g/m*3 20.3 C 0 km/h
2336 02-09-2008 11:27:02 20.8 C 9.05 g/m*3 20.8 C 0 km/h
2337 02-09-2008 11:39:03 21.6 C 8.91 g/m*3 21.6 C 0 km/h
2338 02-09-2008 11:51:02 21.9 C 8.88 g/m*3 21.9 C 0 km/h
2339 02-09-2008 12:03:02 21.9 C 8.88 g/m*3 21.9 C 0 km/h
2340 02-09-2008 12:15:02 22 C 8.54 g/m*3 22 C 0 km/h
2341 02-09-2008 12:27:02 22.7 C 8.49 g/m*3 22.7 C 0 km/h
2342 02-09-2008 12:39:01 23 C 8.22 g/m*3 23 C 0 km/h
2343 02-09-2008 12:51:02 23.4 C 8.41 g/m*3 23.4 C 0 km/h
2344 02-09-2008 13:03:02 23.7 C 8.13 g/m*3 23.7 C 0 km/h
2345 02-09-2008 13:15:02 23.5 C 7.61 g/m*3 23.5 C 0 km/h
2346 02-09-2008 13:27:02 23.4 C 7.57 g/m*3 23.4 C 0 km/h
2347 02-09-2008 13:39:02 23.6 C 7.66 g/m*3 23.6 C 0 km/h
2348 02-09-2008 13:51:02 23.6 C 7.44 g/m*3 23.6 C 0 km/h
2349 02-09-2008 14:03:02 24.8 C 7.74 g/m*3 24.8 C 0 km/h
2350 02-09-2008 14:15:02 24.5 C 7.39 g/m*3 24.5 C 0 km/h
Sensor: Nr:Datum:Temp:Abs-Feuchte:Windchill:Wind:
Aussen-T/F 2351 02-09-2008 14:27:02 25.1 C 7.18 g/m*3 25.1 C 0 km/h
2352 02-09-2008 14:39:02 24.8 C 7.28 g/m*3 24.8 C 0 km/h
2353 02-09-2008 14:51:02 25.2 C 7.22 g/m*3 25.2 C 0 km/h
2354 02-09-2008 15:03:02 24.7 C 7.24 g/m*3 24.7 C 0 km/h
2355 02-09-2008 15:15:01 25.5 C 7.34 g/m*3 25.5 C 0 km/h
2356 02-09-2008 15:27:01 25.5 C 7.1 g/m*3 25.5 C 0 km/h
2357 02-09-2008 15:39:02 25.7 C 7.42 g/m*3 25.7 C 0 km/h
2358 02-09-2008 15:51:02 24.9 C 7.32 g/m*3 24.9 C 0 km/h
2359 02-09-2008 16:03:02 24.8 C 7.06 g/m*3 24.8 C 0 km/h
2360 02-09-2008 16:15:02 24.6 C 7.2 g/m*3 24.6 C 0 km/h
2361 02-09-2008 16:27:03 24.4 C 7.12 g/m*3 24.4 C 0 km/h
2362 02-09-2008 16:39:02 24.5 C 7.16 g/m*3 24.5 C 0 km/h
2363 02-09-2008 16:51:02 24.1 C 7.22 g/m*3 24.1 C 0 km/h
2364 02-09-2008 17:03:02 24 C 7.18 g/m*3 24 C 0 km/h
2365 02-09-2008 17:15:02 24 C 7.4 g/m*3 24 C 0 km/h
2366 02-09-2008 17:27:02 24.1 C 7.44 g/m*3 24.1 C 0 km/h
2367 02-09-2008 17:39:01 25.1 C 7.64 g/m*3 25.1 C 0 km/h
2368 02-09-2008 17:51:01 24.8 C 7.74 g/m*3 24.8 C 0 km/h
2369 02-09-2008 18:03:02 24.3 C 7.75 g/m*3 24.3 C 0 km/h
2370 02-09-2008 18:15:02 24.1 C 7.88 g/m*3 24.1 C 0 km/h
2371 02-09-2008 18:27:02 23.9 C 8 g/m*3 23.9 C 0 km/h
2372 02-09-2008 18:39:02 23.7 C 8.13 g/m*3 23.7 C 0 km/h
2373 02-09-2008 18:51:01 23.6 C 7.87 g/m*3 23.6 C 0 km/h
2374 02-09-2008 19:03:02 23.9 C 8 g/m*3 23.9 C 0 km/h
2375 02-09-2008 19:15:01 23.7 C 8.13 g/m*3 23.7 C 0 km/h
Sensor: Nr:Datum:Temp:Abs-Feuchte:Windchill:Wind:
Aussen-T/F 2376 02-09-2008 19:27:01 23.3 C 7.95 g/m*3 23.3 C 0 km/h
2377 02-09-2008 19:39:02 22.8 C 8.13 g/m*3 22.8 C 0 km/h
2378 02-09-2008 19:51:02 22.5 C 8.19 g/m*3 22.5 C 0 km/h
2379 02-09-2008 20:03:02 22.3 C 8.29 g/m*3 22.3 C 0 km/h
2380 02-09-2008 20:15:02 22.1 C 8.2 g/m*3 22.1 C 0 km/h
2381 02-09-2008 20:27:02 22 C 8.15 g/m*3 22 C 0 km/h
2382 02-09-2008 20:39:02 21.8 C 8.63 g/m*3 21.8 C 0 km/h
2383 02-09-2008 20:51:01 21.6 C 8.53 g/m*3 21.6 C 0 km/h
2384 02-09-2008 21:03:02 21.4 C 8.62 g/m*3 21.4 C 0 km/h
2385 02-09-2008 21:15:01 21.2 C 8.71 g/m*3 21.2 C 0 km/h
2386 02-09-2008 21:27:01 21.1 C 8.84 g/m*3 21.1 C 0 km/h
2387 02-09-2008 21:39:02 20.9 C 8.92 g/m*3 20.9 C 0 km/h
2388 02-09-2008 21:51:02 20.8 C 9.05 g/m*3 20.8 C 0 km/h
2389 02-09-2008 22:03:01 20.7 C 9 g/m*3 20.7 C 0 km/h
2390 02-09-2008 22:16:05 20.2 C 9.09 g/m*3 20.2 C 0 km/h
2391 02-09-2008 22:28:05 20 C 8.99 g/m*3 20 C 0 km/h
2392 02-09-2008 22:40:05 20 C 9.16 g/m*3 20 C 0 km/h
2393 02-09-2008 22:52:05 20.3 C 9.15 g/m*3 20.3 C 0 km/h
2394 02-09-2008 23:04:05 20.2 C 9.27 g/m*3 20.2 C 0 km/h
2395 02-09-2008 23:16:05 20.2 C 9.27 g/m*3 20.2 C 0 km/h
2396 02-09-2008 23:28:05 20.1 C 9.39 g/m*3 20.1 C 0 km/h
2397 02-09-2008 23:40:05 20.2 C 9.44 g/m*3 20.2 C 0 km/h
2398 02-09-2008 23:52:05 20.4 C 9.38 g/m*3 20.4 C 0 km/h
2399 03-09-2008 00:04:05 20.7 C 9.36 g/m*3 20.7 C 0 km/h
2400 03-09-2008 00:16:05 20.8 C 9.42 g/m*3 20.8 C 0 km/h
Sensor: Nr:Datum:Temp:Abs-Feuchte:Windchill:Wind:
Aussen-T/F 2401 03-09-2008 00:28:05 20.4 C 9.73 g/m*3 20.4 C 0 km/h
2402 03-09-2008 00:40:05 18.4 C 11.17 g/m*3 18.4 C 0 km/h
2403 03-09-2008 00:52:06 18 C 11.83 g/m*3 18 C 0 km/h
2404 03-09-2008 01:04:06 17.8 C 12.29 g/m*3 17.8 C 0 km/h
2405 03-09-2008 01:16:06 18 C 12.44 g/m*3 18 C 0 km/h
2406 03-09-2008 01:28:06 18.4 C 12.58 g/m*3 18.4 C 0 km/h
2407 03-09-2008 01:40:06 18.5 C 12.5 g/m*3 18.5 C 0 km/h
2408 03-09-2008 01:52:06 18.6 C 12.41 g/m*3 18.6 C 0 km/h
2409 03-09-2008 02:04:06 18.6 C 12.26 g/m*3 18.6 C 0 km/h
2410 03-09-2008 02:16:06 18.4 C 12.11 g/m*3 18.4 C 0 km/h
2411 03-09-2008 02:28:06 18.4 C 11.95 g/m*3 18.4 C 0 km/h
2412 03-09-2008 02:40:06 18.3 C 11.88 g/m*3 18.3 C 0 km/h
2413 03-09-2008 02:52:06 18.3 C 11.73 g/m*3 18.3 C 0 km/h
2414 03-09-2008 03:04:06 18.5 C 11.87 g/m*3 18.5 C 0 km/h
2415 03-09-2008 03:16:06 18.6 C 11.78 g/m*3 18.6 C 0 km/h
2416 03-09-2008 03:28:06 18.5 C 11.71 g/m*3 18.5 C 0 km/h
2417 03-09-2008 03:40:06 17.5 C 12.37 g/m*3 17.5 C 0 km/h
2418 03-09-2008 03:52:06 17 C 12.3 g/m*3 17 C 0 km/h
2419 03-09-2008 04:04:06 16.6 C 12.29 g/m*3 16.6 C 0 km/h
2420 03-09-2008 04:16:06 16.4 C 12.42 g/m*3 16.4 C 0 km/h
2421 03-09-2008 04:28:06 16.2 C 12.27 g/m*3 16.2 C 0 km/h
2422 03-09-2008 04:40:06 16.2 C 12.41 g/m*3 16.2 C 0 km/h
2423 03-09-2008 04:52:06 16 C 12.26 g/m*3 16 C 0 km/h
2424 03-09-2008 05:04:07 15.9 C 12.32 g/m*3 15.9 C 0 km/h
2425 03-09-2008 05:16:07 15.9 C 12.46 g/m*3 15.9 C 0 km/h
Sensor: Nr:Datum:Temp:Abs-Feuchte:Windchill:Wind:
Aussen-T/F 2426 03-09-2008 05:28:07 15.8 C 12.38 g/m*3 15.8 C 0 km/h
2427 03-09-2008 05:40:07 15.8 C 12.38 g/m*3 15.8 C 0 km/h
2428 03-09-2008 05:52:07 15.7 C 12.31 g/m*3 15.7 C 0 km/h
2429 03-09-2008 06:04:02 15.6 C 12.37 g/m*3 15.6 C 0 km/h
2430 03-09-2008 06:16:02 15.5 C 12.29 g/m*3 15.5 C 0 km/h
2431 03-09-2008 06:28:02 15.5 C 12.29 g/m*3 15.5 C 0 km/h
2432 03-09-2008 06:40:02 15.5 C 12.29 g/m*3 15.5 C 0 km/h
2433 03-09-2008 06:52:02 15.4 C 12.22 g/m*3 15.4 C 0 km/h
2434 03-09-2008 07:04:02 15.1 C 11.87 g/m*3 15.1 C 0 km/h
2435 03-09-2008 07:16:02 14.8 C 11.53 g/m*3 14.8 C 0 km/h
2436 03-09-2008 07:28:02 14.8 C 11.53 g/m*3 14.8 C 0 km/h
2437 03-09-2008 07:40:02 14.9 C 11.6 g/m*3 14.9 C 0 km/h
2438 03-09-2008 07:52:02 14.8 C 11.4 g/m*3 14.8 C 0 km/h
2439 03-09-2008 08:04:02 15 C 10.9 g/m*3 15 C 0 km/h
2440 03-09-2008 08:16:02 15.1 C 10.71 g/m*3 15.1 C 0 km/h
2441 03-09-2008 08:28:02 15 C 10.51 g/m*3 15 C 0 km/h
2442 03-09-2008 08:40:02 15.1 C 10.06 g/m*3 15.1 C 0 km/h
2443 03-09-2008 08:52:01 15.2 C 9.99 g/m*3 15.2 C 0 km/h
2444 03-09-2008 09:04:02 15.6 C 10.24 g/m*3 15.6 C 0 km/h
2445 03-09-2008 09:16:01 15.9 C 10.16 g/m*3 15.9 C 0 km/h
2446 03-09-2008 09:28:01 15.8 C 9.83 g/m*3 15.8 C 0 km/h
2447 03-09-2008 09:40:02 16.1 C 10.01 g/m*3 16.1 C 0 km/h
2448 03-09-2008 09:52:01 16.1 C 9.6 g/m*3 16.1 C 0 km/h
2449 03-09-2008 10:04:01 16 C 9.26 g/m*3 16 C 0 km/h
2450 03-09-2008 10:16:02 16.2 C 9.24 g/m*3 16.2 C 0 km/h
Sensor: Nr:Datum:Temp:Abs-Feuchte:Windchill:Wind:
Aussen-T/F 2451 03-09-2008 10:28:02 16.6 C 9.04 g/m*3 16.6 C 0 km/h
2452 03-09-2008 10:40:01 16.7 C 9.24 g/m*3 16.7 C 0 km/h
2453 03-09-2008 10:52:01 16.6 C 8.9 g/m*3 16.6 C 0 km/h
2454 03-09-2008 11:04:02 16.8 C 9.01 g/m*3 16.8 C 0 km/h
2455 03-09-2008 11:16:01 16.6 C 8.9 g/m*3 16.6 C 0 km/h
2456 03-09-2008 11:28:01 16.8 C 8.86 g/m*3 16.8 C 0 km/h
2457 03-09-2008 11:40:02 16.6 C 8.9 g/m*3 16.6 C 0 km/h
2458 03-09-2008 11:52:02 16.5 C 8.57 g/m*3 16.5 C 0 km/h
2459 03-09-2008 12:04:02 16.7 C 8.67 g/m*3 16.7 C 0 km/h
2460 03-09-2008 12:16:02 16.9 C 8.77 g/m*3 16.9 C 0 km/h
2461 03-09-2008 12:28:02 17 C 9.55 g/m*3 17 C 0 km/h
2462 03-09-2008 12:40:02 17.2 C 9.37 g/m*3 17.2 C 0 km/h
2463 03-09-2008 12:52:01 17.5 C 8.65 g/m*3 17.5 C 0 km/h
2464 03-09-2008 13:04:02 17.7 C 8.3 g/m*3 17.7 C 0 km/h
2465 03-09-2008 13:16:01 17.4 C 8.45 g/m*3 17.4 C 0 km/h
2466 03-09-2008 13:28:01 17.3 C 8.25 g/m*3 17.3 C 0 km/h
2467 03-09-2008 13:40:02 17 C 8.39 g/m*3 17 C 0 km/h
2468 03-09-2008 13:52:02 15.9 C 9.34 g/m*3 15.9 C 0 km/h
2469 03-09-2008 14:04:02 14.9 C 9.94 g/m*3 14.9 C 0 km/h
2470 03-09-2008 14:16:02 14.9 C 10.32 g/m*3 14.9 C 0 km/h
2471 03-09-2008 14:28:03 14.4 C 10.01 g/m*3 14.4 C 0 km/h
2472 03-09-2008 14:40:02 13.6 C 9.42 g/m*3 13.6 C 0 km/h
2473 03-09-2008 14:52:02 13.6 C 9.65 g/m*3 13.6 C 0 km/h
2474 03-09-2008 15:04:02 13.8 C 10.01 g/m*3 13.8 C 0 km/h
2475 03-09-2008 15:16:02 13.9 C 10.19 g/m*3 13.9 C 0 km/h
Sensor: Nr:Datum:Temp:Abs-Feuchte:Windchill:Wind:
Aussen-T/F 2476 03-09-2008 15:28:02 13.8 C 10.25 g/m*3 13.8 C 0 km/h
2477 03-09-2008 15:40:02 13.8 C 10.13 g/m*3 13.8 C 0 km/h
2478 03-09-2008 15:52:01 13.7 C 10.18 g/m*3 13.7 C 0 km/h
2479 03-09-2008 16:04:02 13.7 C 10.18 g/m*3 13.7 C 0 km/h
2480 03-09-2008 16:16:02 13.5 C 10.06 g/m*3 13.5 C 0 km/h
2481 03-09-2008 16:28:02 13.7 C 10.3 g/m*3 13.7 C 0 km/h
2482 03-09-2008 16:40:02 14 C 10.49 g/m*3 14 C 0 km/h
2483 03-09-2008 16:52:02 14 C 10.49 g/m*3 14 C 0 km/h
2484 03-09-2008 17:04:02 13.6 C 10.36 g/m*3 13.6 C 0 km/h
2485 03-09-2008 17:16:02 13.5 C 10.29 g/m*3 13.5 C 0 km/h
2486 03-09-2008 17:28:02 14 C 10.61 g/m*3 14 C 0 km/h
2487 03-09-2008 17:40:02 13.9 C 10.67 g/m*3 13.9 C 0 km/h
2488 03-09-2008 17:52:01 14.1 C 10.68 g/m*3 14.1 C 0 km/h
2489 03-09-2008 18:04:02 13.9 C 10.67 g/m*3 13.9 C 0 km/h
2490 03-09-2008 18:16:01 13.7 C 10.54 g/m*3 13.7 C 0 km/h
2491 03-09-2008 18:28:01 13.7 C 10.54 g/m*3 13.7 C 0 km/h
2492 03-09-2008 18:40:02 13.5 C 10.41 g/m*3 13.5 C 0 km/h
2493 03-09-2008 18:52:02 13.4 C 10.35 g/m*3 13.4 C 0 km/h
2494 03-09-2008 19:04:02 13.3 C 10.28 g/m*3 13.3 C 0 km/h
2495 03-09-2008 19:16:02 13 C 9.98 g/m*3 13 C 0 km/h
2496 03-09-2008 19:28:02 12.8 C 9.86 g/m*3 12.8 C 0 km/h
2497 03-09-2008 19:40:02 12.8 C 9.97 g/m*3 12.8 C 0 km/h
2498 03-09-2008 19:52:02 12.7 C 9.8 g/m*3 12.7 C 0 km/h
2499 03-09-2008 20:04:01 12.8 C 9.97 g/m*3 12.8 C 0 km/h
2500 03-09-2008 20:16:02 12.7 C 9.8 g/m*3 12.7 C 0 km/h
Sensor: Nr:Datum:Temp:Abs-Feuchte:Windchill:Wind:
Aussen-T/F 2501 03-09-2008 20:28:02 12.5 C 9.57 g/m*3 12.5 C 0 km/h
2502 03-09-2008 20:40:02 12.4 C 9.4 g/m*3 12.4 C 0 km/h
2503 03-09-2008 20:52:02 12.4 C 9.4 g/m*3 12.4 C 0 km/h
2504 03-09-2008 21:04:02 12.4 C 9.4 g/m*3 12.4 C 0 km/h
2505 03-09-2008 21:16:01 12.2 C 9.28 g/m*3 12.2 C 0 km/h
2506 03-09-2008 21:28:01 12.1 C 9.22 g/m*3 12.1 C 0 km/h
2507 03-09-2008 21:40:02 12.1 C 9.22 g/m*3 12.1 C 0 km/h
2508 03-09-2008 21:52:02 12.1 C 9.12 g/m*3 12.1 C 0 km/h
2509 03-09-2008 22:04:02 12 C 9.06 g/m*3 12 C 0 km/h
2510 03-09-2008 22:16:02 11.8 C 8.95 g/m*3 11.8 C 0 km/h
2511 03-09-2008 22:28:02 11.7 C 8.89 g/m*3 11.7 C 0 km/h
2512 03-09-2008 22:41:02 11.6 C 8.73 g/m*3 11.6 C 0 km/h
2513 03-09-2008 22:53:02 11.5 C 8.68 g/m*3 11.5 C 0 km/h
2514 03-09-2008 23:05:02 11.4 C 8.72 g/m*3 11.4 C 0 km/h
2515 03-09-2008 23:17:02 11.3 C 8.77 g/m*3 11.3 C 0 km/h
2516 03-09-2008 23:29:02 11.3 C 8.77 g/m*3 11.3 C 0 km/h
2517 03-09-2008 23:41:02 11.4 C 8.83 g/m*3 11.4 C 0 km/h
2518 03-09-2008 23:53:02 11.4 C 8.72 g/m*3 11.4 C 0 km/h
2519 04-09-2008 00:05:02 11.2 C 8.51 g/m*3 11.2 C 0 km/h
2520 04-09-2008 00:17:02 11.1 C 8.46 g/m*3 11.1 C 0 km/h
2521 04-09-2008 00:29:02 11 C 8.51 g/m*3 11 C 0 km/h
2522 04-09-2008 00:41:02 10.8 C 8.4 g/m*3 10.8 C 0 km/h
2523 04-09-2008 00:53:02 10.5 C 8.34 g/m*3 10.5 C 0 km/h
2524 04-09-2008 01:05:02 10.1 C 8.13 g/m*3 10.1 C 0 km/h
2525 04-09-2008 01:17:02 10 C 8.17 g/m*3 10 C 0 km/h
Sensor: Nr:Datum:Temp:Abs-Feuchte:Windchill:Wind:
Aussen-T/F 2526 04-09-2008 01:29:03 10.1 C 8.32 g/m*3 10.1 C 0 km/h
2527 04-09-2008 01:41:03 10.1 C 8.32 g/m*3 10.1 C 0 km/h
2528 04-09-2008 01:53:03 10.4 C 8.58 g/m*3 10.4 C 0 km/h
2529 04-09-2008 02:05:03 10.4 C 8.48 g/m*3 10.4 C 0 km/h
2530 04-09-2008 02:17:03 10.4 C 8.48 g/m*3 10.4 C 0 km/h
2531 04-09-2008 02:29:03 10.3 C 8.33 g/m*3 10.3 C 0 km/h
2532 04-09-2008 02:41:03 10.1 C 8.23 g/m*3 10.1 C 0 km/h
2533 04-09-2008 02:53:03 10 C 8.17 g/m*3 10 C 0 km/h
2534 04-09-2008 03:05:03 9.7 C 8.2 g/m*3 9.7 C 0 km/h
2535 04-09-2008 03:17:03 9.6 C 8.15 g/m*3 9.6 C 0 km/h
2536 04-09-2008 03:29:03 9.5 C 8.1 g/m*3 9.5 C 0 km/h
2537 04-09-2008 03:41:03 9.5 C 8.19 g/m*3 9.5 C 0 km/h
2538 04-09-2008 03:53:03 9.4 C 8.14 g/m*3 9.4 C 0 km/h
2539 04-09-2008 04:05:03 9.4 C 8.14 g/m*3 9.4 C 0 km/h
2540 04-09-2008 04:17:03 9.4 C 8.14 g/m*3 9.4 C 0 km/h
2541 04-09-2008 04:29:03 9.4 C 8.14 g/m*3 9.4 C 0 km/h
2542 04-09-2008 04:41:03 9.3 C 8.09 g/m*3 9.3 C 0 km/h
2543 04-09-2008 04:53:03 9.2 C 8.04 g/m*3 9.2 C 0 km/h
2544 04-09-2008 05:05:03 9.2 C 8.13 g/m*3 9.2 C 0 km/h
2545 04-09-2008 05:17:03 9.2 C 8.13 g/m*3 9.2 C 0 km/h
2546 04-09-2008 05:29:04 9.1 C 8.07 g/m*3 9.1 C 0 km/h
2547 04-09-2008 05:41:04 9 C 8.02 g/m*3 9 C 0 km/h
2548 04-09-2008 05:53:04 8.9 C 8.06 g/m*3 8.9 C 0 km/h
2549 04-09-2008 06:05:04 8.7 C 7.96 g/m*3 8.7 C 0 km/h
2550 04-09-2008 06:17:04 8.6 C 7.91 g/m*3 8.6 C 0 km/h
Sensor: Nr:Datum:Temp:Abs-Feuchte:Windchill:Wind:
Aussen-T/F 2551 04-09-2008 06:29:04 8.5 C 7.85 g/m*3 8.5 C 0 km/h
2552 04-09-2008 06:41:04 8.6 C 7.91 g/m*3 8.6 C 0 km/h
2553 04-09-2008 06:53:04 8.8 C 8.09 g/m*3 8.8 C 0 km/h
2554 04-09-2008 07:05:02 9.1 C 8.16 g/m*3 9.1 C 0 km/h
2555 04-09-2008 07:17:01 9.3 C 8.27 g/m*3 9.3 C 0 km/h
2556 04-09-2008 07:29:01 9.4 C 8.32 g/m*3 9.4 C 0 km/h
2557 04-09-2008 07:41:02 9.5 C 8.37 g/m*3 9.5 C 0 km/h
2558 04-09-2008 07:53:02 9.5 C 8.28 g/m*3 9.5 C 0 km/h
2559 04-09-2008 08:05:02 9.5 C 8.28 g/m*3 9.5 C 0 km/h
2560 04-09-2008 08:17:02 9.8 C 8.44 g/m*3 9.8 C 0 km/h
2561 04-09-2008 08:29:02 9.9 C 8.5 g/m*3 9.9 C 0 km/h
2562 04-09-2008 08:41:02 10.1 C 8.42 g/m*3 10.1 C 0 km/h
2563 04-09-2008 08:53:01 10.4 C 8.58 g/m*3 10.4 C 0 km/h
2564 04-09-2008 09:05:02 10.6 C 8.69 g/m*3 10.6 C 0 km/h
2565 04-09-2008 09:17:01 10.8 C 8.8 g/m*3 10.8 C 0 km/h
2566 04-09-2008 09:29:01 11.2 C 8.92 g/m*3 11.2 C 0 km/h
2567 04-09-2008 09:41:02 12 C 9.06 g/m*3 12 C 0 km/h
2568 04-09-2008 09:53:02 12.6 C 8.96 g/m*3 12.6 C 0 km/h
2569 04-09-2008 10:05:02 13.5 C 8.54 g/m*3 13.5 C 0 km/h
2570 04-09-2008 10:17:02 14 C 8.2 g/m*3 14 C 0 km/h
2571 04-09-2008 10:29:02 14.5 C 8.21 g/m*3 14.5 C 0 km/h
2572 04-09-2008 10:41:02 14.8 C 8.11 g/m*3 14.8 C 0 km/h
2573 04-09-2008 10:53:02 14.7 C 7.93 g/m*3 14.7 C 0 km/h
2574 04-09-2008 11:05:03 15.2 C 7.79 g/m*3 15.2 C 0 km/h
2575 04-09-2008 11:17:02 14.5 C 7.59 g/m*3 14.5 C 0 km/h
Sensor: Nr:Datum:Temp:Abs-Feuchte:Windchill:Wind:
Aussen-T/F 2576 04-09-2008 11:29:02 14.5 C 7.59 g/m*3 14.5 C 0 km/h
2577 04-09-2008 11:41:03 14.7 C 7.68 g/m*3 14.7 C 0 km/h
2578 04-09-2008 11:53:02 15.6 C 7.58 g/m*3 15.6 C 0 km/h
2579 04-09-2008 12:05:02 16.2 C 7.45 g/m*3 16.2 C 0 km/h
2580 04-09-2008 12:17:02 16.4 C 7.54 g/m*3 16.4 C 0 km/h
2581 04-09-2008 12:29:02 16.6 C 7.63 g/m*3 16.6 C 0 km/h
2582 04-09-2008 12:41:02 17.1 C 7.42 g/m*3 17.1 C 0 km/h
2583 04-09-2008 12:53:02 16.8 C 7.58 g/m*3 16.8 C 0 km/h
2584 04-09-2008 13:05:01 17.2 C 7.32 g/m*3 17.2 C 0 km/h
2585 04-09-2008 13:17:02 17.6 C 7.5 g/m*3 17.6 C 0 km/h
2586 04-09-2008 13:29:03 17.7 C 7.24 g/m*3 17.7 C 0 km/h
2587 04-09-2008 13:41:01 18 C 7.07 g/m*3 18 C 0 km/h
2588 04-09-2008 13:53:03 17.2 C 6.88 g/m*3 17.2 C 0 km/h
2589 04-09-2008 14:05:02 17.1 C 6.84 g/m*3 17.1 C 0 km/h
2590 04-09-2008 14:17:02 17.2 C 6.74 g/m*3 17.2 C 0 km/h
2591 04-09-2008 14:29:02 17.2 C 6.59 g/m*3 17.2 C 0 km/h
2592 04-09-2008 14:41:02 17.2 C 6.59 g/m*3 17.2 C 0 km/h
2593 04-09-2008 14:53:03 17.1 C 6.55 g/m*3 17.1 C 0 km/h
2594 04-09-2008 15:05:02 17.5 C 6.86 g/m*3 17.5 C 0 km/h
2595 04-09-2008 15:17:02 17.6 C 6.75 g/m*3 17.6 C 0 km/h
2596 04-09-2008 15:29:02 17.4 C 6.52 g/m*3 17.4 C 0 km/h
2597 04-09-2008 15:41:02 18 C 6.45 g/m*3 18 C 0 km/h
2598 04-09-2008 15:53:02 19 C 6.52 g/m*3 19 C 0 km/h
2599 04-09-2008 16:05:02 19.9 C 6.53 g/m*3 19.9 C 0 km/h
2600 04-09-2008 16:17:02 18.8 C 6.28 g/m*3 18.8 C 0 km/h
Sensor: Nr:Datum:Temp:Abs-Feuchte:Windchill:Wind:
Aussen-T/F 2601 04-09-2008 16:29:02 18.6 C 6.05 g/m*3 18.6 C 0 km/h
2602 04-09-2008 16:41:03 19.2 C 6.27 g/m*3 19.2 C 0 km/h
2603 04-09-2008 16:53:02 19 C 5.87 g/m*3 19 C 0 km/h
2604 04-09-2008 17:05:02 19.8 C 5.81 g/m*3 19.8 C 0 km/h
2605 04-09-2008 17:17:02 20 C 5.88 g/m*3 20 C 0 km/h
2606 04-09-2008 17:29:02 19.8 C 5.81 g/m*3 19.8 C 0 km/h
2607 04-09-2008 17:41:02 19.6 C 5.91 g/m*3 19.6 C 0 km/h
2608 04-09-2008 17:53:02 19.3 C 5.81 g/m*3 19.3 C 0 km/h
2609 04-09-2008 18:05:01 19.3 C 6.14 g/m*3 19.3 C 0 km/h
2610 04-09-2008 18:17:01 19.1 C 5.9 g/m*3 19.1 C 0 km/h
2611 04-09-2008 18:29:01 18.8 C 6.12 g/m*3 18.8 C 0 km/h
2612 04-09-2008 18:41:01 18.3 C 5.94 g/m*3 18.3 C 0 km/h
2613 04-09-2008 18:53:02 17.8 C 6.07 g/m*3 17.8 C 0 km/h
2614 04-09-2008 19:05:02 17.7 C 6.34 g/m*3 17.7 C 0 km/h
2615 04-09-2008 19:17:02 17.3 C 6.33 g/m*3 17.3 C 0 km/h
2616 04-09-2008 19:29:02 16.8 C 6.58 g/m*3 16.8 C 0 km/h
2617 04-09-2008 19:41:02 16.5 C 6.88 g/m*3 16.5 C 0 km/h
2618 04-09-2008 19:53:03 16.1 C 6.99 g/m*3 16.1 C 0 km/h
2619 04-09-2008 20:05:02 15.6 C 7.31 g/m*3 15.6 C 0 km/h
2620 04-09-2008 20:17:02 15.2 C 7.4 g/m*3 15.2 C 0 km/h
2621 04-09-2008 20:29:02 14.9 C 7.52 g/m*3 14.9 C 0 km/h
2622 04-09-2008 20:41:02 14.7 C 7.3 g/m*3 14.7 C 0 km/h
2623 04-09-2008 20:53:02 14.3 C 7.13 g/m*3 14.3 C 0 km/h
2624 04-09-2008 21:05:02 14.3 C 7.13 g/m*3 14.3 C 0 km/h
2625 04-09-2008 21:17:02 14.4 C 7.17 g/m*3 14.4 C 0 km/h
Sensor: Nr:Datum:Temp:Abs-Feuchte:Windchill:Wind:
Aussen-T/F 2626 04-09-2008 21:29:02 14.7 C 6.8 g/m*3 14.7 C 0 km/h
2627 04-09-2008 21:41:02 14.7 C 6.92 g/m*3 14.7 C 0 km/h
2628 04-09-2008 21:54:03 14.4 C 7.05 g/m*3 14.4 C 0 km/h
2629 04-09-2008 22:06:03 14.4 C 7.29 g/m*3 14.4 C 0 km/h
2630 04-09-2008 22:18:03 14.3 C 7.37 g/m*3 14.3 C 0 km/h
2631 04-09-2008 22:30:03 14.2 C 7.57 g/m*3 14.2 C 0 km/h
2632 04-09-2008 22:42:03 14 C 7.72 g/m*3 14 C 0 km/h
2633 04-09-2008 22:54:03 14 C 7.84 g/m*3 14 C 0 km/h
2634 04-09-2008 23:06:03 13.9 C 8.03 g/m*3 13.9 C 0 km/h
2635 04-09-2008 23:18:03 13.9 C 8.15 g/m*3 13.9 C 0 km/h
2636 04-09-2008 23:30:03 13.8 C 8.34 g/m*3 13.8 C 0 km/h
2637 04-09-2008 23:42:03 13.8 C 8.34 g/m*3 13.8 C 0 km/h
2638 04-09-2008 23:54:04 13.8 C 8.34 g/m*3 13.8 C 0 km/h
2639 05-09-2008 00:06:04 13.8 C 8.34 g/m*3 13.8 C 0 km/h
2640 05-09-2008 00:18:04 13.7 C 8.29 g/m*3 13.7 C 0 km/h
2641 05-09-2008 00:30:04 13.6 C 8.36 g/m*3 13.6 C 0 km/h
2642 05-09-2008 00:42:04 13.6 C 8.47 g/m*3 13.6 C 0 km/h
2643 05-09-2008 00:54:04 13.3 C 8.55 g/m*3 13.3 C 0 km/h
2644 05-09-2008 01:06:04 13.2 C 8.84 g/m*3 13.2 C 0 km/h
2645 05-09-2008 01:18:04 13.2 C 8.96 g/m*3 13.2 C 0 km/h
2646 05-09-2008 01:30:04 13.3 C 9.01 g/m*3 13.3 C 0 km/h
2647 05-09-2008 01:42:04 13.3 C 9.01 g/m*3 13.3 C 0 km/h
2648 05-09-2008 01:54:04 13.2 C 8.84 g/m*3 13.2 C 0 km/h
2649 05-09-2008 02:06:04 13.2 C 8.84 g/m*3 13.2 C 0 km/h
2650 05-09-2008 02:18:04 13.3 C 8.9 g/m*3 13.3 C 0 km/h
Sensor: Nr:Datum:Temp:Abs-Feuchte:Windchill:Wind:
Aussen-T/F 2651 05-09-2008 02:30:04 13.2 C 8.84 g/m*3 13.2 C 0 km/h
2652 05-09-2008 02:42:04 13.2 C 8.96 g/m*3 13.2 C 0 km/h
2653 05-09-2008 02:54:04 13 C 8.96 g/m*3 13 C 0 km/h
2654 05-09-2008 03:06:04 13 C 9.19 g/m*3 13 C 0 km/h
2655 05-09-2008 03:18:04 13 C 9.19 g/m*3 13 C 0 km/h
2656 05-09-2008 03:30:04 12.8 C 9.3 g/m*3 12.8 C 0 km/h
2657 05-09-2008 03:42:04 12.7 C 9.35 g/m*3 12.7 C 0 km/h
2658 05-09-2008 03:54:04 12.7 C 9.46 g/m*3 12.7 C 0 km/h
2659 05-09-2008 04:06:05 12.8 C 9.52 g/m*3 12.8 C 0 km/h
2660 05-09-2008 04:18:05 12.7 C 9.46 g/m*3 12.7 C 0 km/h
2661 05-09-2008 04:30:05 12.5 C 9.35 g/m*3 12.5 C 0 km/h
2662 05-09-2008 04:42:05 12.3 C 9.23 g/m*3 12.3 C 0 km/h
2663 05-09-2008 04:54:05 12.1 C 9.22 g/m*3 12.1 C 0 km/h
2664 05-09-2008 05:06:05 12.1 C 9.22 g/m*3 12.1 C 0 km/h
2665 05-09-2008 05:18:05 12.1 C 9.22 g/m*3 12.1 C 0 km/h
2666 05-09-2008 05:30:05 12.3 C 9.45 g/m*3 12.3 C 0 km/h
2667 05-09-2008 05:42:05 12.3 C 9.45 g/m*3 12.3 C 0 km/h
2668 05-09-2008 05:54:05 12.4 C 9.29 g/m*3 12.4 C 0 km/h
2669 05-09-2008 06:06:05 12.3 C 9.23 g/m*3 12.3 C 0 km/h
2670 05-09-2008 06:18:05 12.4 C 9.29 g/m*3 12.4 C 0 km/h
2671 05-09-2008 06:30:05 12.5 C 9.35 g/m*3 12.5 C 0 km/h
2672 05-09-2008 06:42:05 12.8 C 9.63 g/m*3 12.8 C 0 km/h
2673 05-09-2008 06:54:05 13 C 9.53 g/m*3 13 C 0 km/h
2674 05-09-2008 07:06:04 13.1 C 9.47 g/m*3 13.1 C 0 km/h
2675 05-09-2008 07:18:04 13 C 9.41 g/m*3 13 C 0 km/h
Sensor: Nr:Datum:Temp:Abs-Feuchte:Windchill:Wind:
Aussen-T/F 2676 05-09-2008 07:30:04 13 C 9.41 g/m*3 13 C 0 km/h
2677 05-09-2008 07:42:04 13.4 C 9.65 g/m*3 13.4 C 0 km/h
2678 05-09-2008 07:54:03 13.4 C 9.53 g/m*3 13.4 C 0 km/h
2679 05-09-2008 08:06:02 13.5 C 9.59 g/m*3 13.5 C 0 km/h
2680 05-09-2008 08:18:02 13.6 C 9.53 g/m*3 13.6 C 0 km/h
2681 05-09-2008 08:30:03 13.5 C 9.59 g/m*3 13.5 C 0 km/h
2682 05-09-2008 08:42:02 13.4 C 9.53 g/m*3 13.4 C 0 km/h
2683 05-09-2008 08:54:02 13.4 C 9.65 g/m*3 13.4 C 0 km/h
2684 05-09-2008 09:06:02 13.7 C 9.95 g/m*3 13.7 C 0 km/h
2685 05-09-2008 09:18:02 14.3 C 10.2 g/m*3 14.3 C 0 km/h
2686 05-09-2008 09:30:02 15.2 C 9.99 g/m*3 15.2 C 0 km/h
2687 05-09-2008 09:42:03 15.8 C 10.23 g/m*3 15.8 C 0 km/h
2688 05-09-2008 09:54:02 16.4 C 10.05 g/m*3 16.4 C 0 km/h
2689 05-09-2008 10:06:03 16.7 C 9.95 g/m*3 16.7 C 0 km/h
2690 05-09-2008 10:18:02 17.2 C 9.81 g/m*3 17.2 C 0 km/h
2691 05-09-2008 10:30:02 17.6 C 9.75 g/m*3 17.6 C 0 km/h
2692 05-09-2008 10:42:02 17.8 C 9.71 g/m*3 17.8 C 0 km/h
2693 05-09-2008 10:54:02 18.1 C 9.58 g/m*3 18.1 C 0 km/h
2694 05-09-2008 11:06:02 18.3 C 9.38 g/m*3 18.3 C 0 km/h
2695 05-09-2008 11:18:01 18.3 C 9.54 g/m*3 18.3 C 0 km/h
2696 05-09-2008 11:30:01 18.5 C 9.65 g/m*3 18.5 C 0 km/h
2697 05-09-2008 11:42:02 19.4 C 9.84 g/m*3 19.4 C 0 km/h
2698 05-09-2008 11:54:02 19.8 C 9.57 g/m*3 19.8 C 0 km/h
2699 05-09-2008 12:06:03 20.1 C 9.56 g/m*3 20.1 C 0 km/h
2700 05-09-2008 12:18:02 19.9 C 9.62 g/m*3 19.9 C 0 km/h
Sensor: Nr:Datum:Temp:Abs-Feuchte:Windchill:Wind:
Aussen-T/F 2701 05-09-2008 12:30:02 21.1 C 9.58 g/m*3 21.1 C 0 km/h
2702 05-09-2008 12:42:02 21.4 C 9.56 g/m*3 21.4 C 0 km/h
2703 05-09-2008 12:54:02 21.2 C 9.45 g/m*3 21.2 C 0 km/h
2704 05-09-2008 13:06:01 21.2 C 9.45 g/m*3 21.2 C 0 km/h
2705 05-09-2008 13:18:02 22.1 C 9.56 g/m*3 22.1 C 0 km/h
2706 05-09-2008 13:30:03 22.5 C 9.79 g/m*3 22.5 C 0 km/h
2707 05-09-2008 13:42:01 22.5 C 9.79 g/m*3 22.5 C 0 km/h
2708 05-09-2008 13:54:02 21.9 C 9.84 g/m*3 21.9 C 0 km/h
2709 05-09-2008 14:06:01 22.3 C 9.68 g/m*3 22.3 C 0 km/h
2710 05-09-2008 14:18:02 22.2 C 9.82 g/m*3 22.2 C 0 km/h
2711 05-09-2008 14:30:02 22.1 C 9.96 g/m*3 22.1 C 0 km/h
2712 05-09-2008 14:42:01 21.9 C 10.03 g/m*3 21.9 C 0 km/h
2713 05-09-2008 14:54:02 21.6 C 10.24 g/m*3 21.6 C 0 km/h
2714 05-09-2008 15:06:02 20.9 C 10.2 g/m*3 20.9 C 0 km/h
2715 05-09-2008 15:18:02 20.8 C 10.5 g/m*3 20.8 C 0 km/h
2716 05-09-2008 15:30:02 20.8 C 10.5 g/m*3 20.8 C 0 km/h
2717 05-09-2008 15:42:02 20.9 C 10.56 g/m*3 20.9 C 0 km/h
2718 05-09-2008 15:54:01 21.2 C 10.56 g/m*3 21.2 C 0 km/h
2719 05-09-2008 16:06:02 21.7 C 10.68 g/m*3 21.7 C 0 km/h
2720 05-09-2008 16:18:01 22.1 C 10.35 g/m*3 22.1 C 0 km/h
2721 05-09-2008 16:30:01 22 C 10.48 g/m*3 22 C 0 km/h
2722 05-09-2008 16:42:02 22.1 C 10.54 g/m*3 22.1 C 0 km/h
2723 05-09-2008 16:54:02 22.6 C 10.65 g/m*3 22.6 C 0 km/h
2724 05-09-2008 17:06:01 22.5 C 10.99 g/m*3 22.5 C 0 km/h
2725 05-09-2008 17:18:02 21.8 C 10.74 g/m*3 21.8 C 0 km/h
Sensor: Nr:Datum:Temp:Abs-Feuchte:Windchill:Wind:
Aussen-T/F 2726 05-09-2008 17:30:02 21.9 C 10.81 g/m*3 21.9 C 0 km/h
2727 05-09-2008 17:42:02 21.7 C 10.49 g/m*3 21.7 C 0 km/h
2728 05-09-2008 17:54:03 21.6 C 10.43 g/m*3 21.6 C 0 km/h
2729 05-09-2008 18:06:02 21.6 C 10.62 g/m*3 21.6 C 0 km/h
2730 05-09-2008 18:18:03 21.6 C 10.81 g/m*3 21.6 C 0 km/h
2731 05-09-2008 18:30:03 21.5 C 10.94 g/m*3 21.5 C 0 km/h
2732 05-09-2008 18:42:02 21.4 C 10.87 g/m*3 21.4 C 0 km/h
2733 05-09-2008 18:54:02 21.5 C 11.13 g/m*3 21.5 C 0 km/h
2734 05-09-2008 19:06:02 21.5 C 11.13 g/m*3 21.5 C 0 km/h
2735 05-09-2008 19:18:02 21 C 11.36 g/m*3 21 C 0 km/h
2736 05-09-2008 19:30:02 20 C 11.92 g/m*3 20 C 0 km/h
2737 05-09-2008 19:42:02 19.5 C 12.25 g/m*3 19.5 C 0 km/h
2738 05-09-2008 19:54:01 18.1 C 11.43 g/m*3 18.1 C 0 km/h
2739 05-09-2008 20:06:02 17.2 C 12.15 g/m*3 17.2 C 0 km/h
2740 05-09-2008 20:18:01 17 C 12.3 g/m*3 17 C 0 km/h
2741 05-09-2008 20:30:01 16.9 C 12.66 g/m*3 16.9 C 0 km/h
2742 05-09-2008 20:42:02 16.9 C 12.8 g/m*3 16.9 C 0 km/h
2743 05-09-2008 20:54:02 16.9 C 12.94 g/m*3 16.9 C 0 km/h
2744 05-09-2008 21:06:02 16.9 C 12.94 g/m*3 16.9 C 0 km/h
2745 05-09-2008 21:18:02 16.9 C 13.09 g/m*3 16.9 C 0 km/h
2746 05-09-2008 21:30:02 17 C 13.17 g/m*3 17 C 0 km/h
2747 05-09-2008 21:42:02 17 C 13.17 g/m*3 17 C 0 km/h
2748 05-09-2008 21:54:02 17.1 C 13.39 g/m*3 17.1 C 0 km/h
2749 05-09-2008 22:06:02 17.1 C 13.39 g/m*3 17.1 C 0 km/h
2750 05-09-2008 22:19:02 17.1 C 13.39 g/m*3 17.1 C 0 km/h
Sensor: Nr:Datum:Temp:Abs-Feuchte:Windchill:Wind:
Aussen-T/F 2751 05-09-2008 22:31:02 17.2 C 13.62 g/m*3 17.2 C 0 km/h
2752 05-09-2008 22:43:02 17.2 C 13.62 g/m*3 17.2 C 0 km/h
2753 05-09-2008 22:55:02 17.1 C 13.54 g/m*3 17.1 C 0 km/h
2754 05-09-2008 23:07:02 17 C 13.46 g/m*3 17 C 0 km/h
2755 05-09-2008 23:19:02 16.9 C 13.52 g/m*3 16.9 C 0 km/h
2756 05-09-2008 23:31:02 16.8 C 13.44 g/m*3 16.8 C 0 km/h
2757 05-09-2008 23:43:03 16.8 C 13.44 g/m*3 16.8 C 0 km/h
2758 05-09-2008 23:55:03 16.7 C 13.36 g/m*3 16.7 C 0 km/h
2759 06-09-2008 00:07:03 16.5 C 13.2 g/m*3 16.5 C 0 km/h
2760 06-09-2008 00:19:03 16.4 C 13.12 g/m*3 16.4 C 0 km/h
2761 06-09-2008 00:31:03 16.4 C 13.12 g/m*3 16.4 C 0 km/h
2762 06-09-2008 00:43:03 16.4 C 13.12 g/m*3 16.4 C 0 km/h
2763 06-09-2008 00:55:03 16.4 C 13.26 g/m*3 16.4 C 0 km/h
2764 06-09-2008 01:07:03 16.1 C 12.88 g/m*3 16.1 C 0 km/h
2765 06-09-2008 01:19:03 16 C 12.81 g/m*3 16 C 0 km/h
2766 06-09-2008 01:31:03 15.9 C 12.87 g/m*3 15.9 C 0 km/h
2767 06-09-2008 01:43:03 15.7 C 12.71 g/m*3 15.7 C 0 km/h
2768 06-09-2008 01:55:03 15.6 C 12.63 g/m*3 15.6 C 0 km/h
2769 06-09-2008 02:07:03 15.6 C 12.63 g/m*3 15.6 C 0 km/h
2770 06-09-2008 02:19:03 15.7 C 12.71 g/m*3 15.7 C 0 km/h
2771 06-09-2008 02:31:03 15.7 C 12.71 g/m*3 15.7 C 0 km/h
2772 06-09-2008 02:43:03 15.7 C 12.71 g/m*3 15.7 C 0 km/h
2773 06-09-2008 02:55:03 15.7 C 12.71 g/m*3 15.7 C 0 km/h
2774 06-09-2008 03:07:03 15.6 C 12.5 g/m*3 15.6 C 0 km/h
2775 06-09-2008 03:19:03 15.6 C 12.5 g/m*3 15.6 C 0 km/h
Sensor: Nr:Datum:Temp:Abs-Feuchte:Windchill:Wind:
Aussen-T/F 2776 06-09-2008 03:31:04 15.6 C 12.5 g/m*3 15.6 C 0 km/h
2777 06-09-2008 03:43:04 15.6 C 12.5 g/m*3 15.6 C 0 km/h
2778 06-09-2008 03:55:04 15.5 C 12.56 g/m*3 15.5 C 0 km/h
2779 06-09-2008 04:07:04 15.5 C 12.56 g/m*3 15.5 C 0 km/h
2780 06-09-2008 04:19:04 15.5 C 12.56 g/m*3 15.5 C 0 km/h
2781 06-09-2008 04:31:04 15.4 C 12.48 g/m*3 15.4 C 0 km/h
2782 06-09-2008 04:43:04 15.4 C 12.48 g/m*3 15.4 C 0 km/h
2783 06-09-2008 04:55:04 15.2 C 12.33 g/m*3 15.2 C 0 km/h
2784 06-09-2008 05:07:04 15.2 C 12.33 g/m*3 15.2 C 0 km/h
2785 06-09-2008 05:19:04 15.2 C 12.33 g/m*3 15.2 C 0 km/h
2786 06-09-2008 05:31:04 15.3 C 12.41 g/m*3 15.3 C 0 km/h
2787 06-09-2008 05:43:04 15.3 C 12.41 g/m*3 15.3 C 0 km/h
2788 06-09-2008 05:55:04 15.4 C 12.48 g/m*3 15.4 C 0 km/h
2789 06-09-2008 06:07:04 15.6 C 12.63 g/m*3 15.6 C 0 km/h
2790 06-09-2008 06:19:04 15.7 C 12.71 g/m*3 15.7 C 0 km/h
2791 06-09-2008 06:31:04 15.8 C 12.79 g/m*3 15.8 C 0 km/h
2792 06-09-2008 06:43:04 15.8 C 12.79 g/m*3 15.8 C 0 km/h
2793 06-09-2008 06:55:04 15.7 C 12.71 g/m*3 15.7 C 0 km/h
2794 06-09-2008 07:07:04 15.8 C 12.79 g/m*3 15.8 C 0 km/h
2795 06-09-2008 07:19:05 15.7 C 12.71 g/m*3 15.7 C 0 km/h
2796 06-09-2008 07:31:05 16 C 12.81 g/m*3 16 C 0 km/h
2797 06-09-2008 07:43:05 16.2 C 12.82 g/m*3 16.2 C 0 km/h
2798 06-09-2008 07:55:05 16.3 C 12.62 g/m*3 16.3 C 0 km/h
2799 06-09-2008 08:07:02 16.3 C 12.35 g/m*3 16.3 C 0 km/h
2800 06-09-2008 08:19:02 16.3 C 12.35 g/m*3 16.3 C 0 km/h
Sensor: Nr:Datum:Temp:Abs-Feuchte:Windchill:Wind:
Aussen-T/F 2801 06-09-2008 08:31:02 16.6 C 12.57 g/m*3 16.6 C 0 km/h
2802 06-09-2008 08:43:02 17 C 12.44 g/m*3 17 C 0 km/h
2803 06-09-2008 08:55:02 17.1 C 12.23 g/m*3 17.1 C 0 km/h
2804 06-09-2008 09:07:03 17.4 C 12.45 g/m*3 17.4 C 0 km/h
2805 06-09-2008 09:19:02 18 C 12.13 g/m*3 18 C 0 km/h
2806 06-09-2008 09:31:02 18.5 C 12.02 g/m*3 18.5 C 0 km/h
2807 06-09-2008 09:43:02 18.5 C 11.71 g/m*3 18.5 C 0 km/h
2808 06-09-2008 09:55:02 19.1 C 11.47 g/m*3 19.1 C 0 km/h
2809 06-09-2008 10:07:02 19.5 C 11.24 g/m*3 19.5 C 0 km/h
2810 06-09-2008 10:19:02 19.6 C 10.97 g/m*3 19.6 C 0 km/h
2811 06-09-2008 10:31:02 20.2 C 10.84 g/m*3 20.2 C 0 km/h
2812 06-09-2008 10:43:02 20 C 10.54 g/m*3 20 C 0 km/h
2813 06-09-2008 10:55:02 20.3 C 10.73 g/m*3 20.3 C 0 km/h
2814 06-09-2008 11:07:01 20.4 C 10.61 g/m*3 20.4 C 0 km/h
2815 06-09-2008 11:19:01 20.9 C 10.56 g/m*3 20.9 C 0 km/h
2816 06-09-2008 11:31:02 20.9 C 10.38 g/m*3 20.9 C 0 km/h
2817 06-09-2008 11:43:02 21.3 C 10.25 g/m*3 21.3 C 0 km/h
2818 06-09-2008 11:55:02 21.7 C 10.3 g/m*3 21.7 C 0 km/h
2819 06-09-2008 12:07:02 21.2 C 10.01 g/m*3 21.2 C 0 km/h
2820 06-09-2008 12:19:02 21.3 C 10.25 g/m*3 21.3 C 0 km/h
2821 06-09-2008 12:31:02 21 C 9.89 g/m*3 21 C 0 km/h
2822 06-09-2008 12:43:02 20.8 C 10.14 g/m*3 20.8 C 0 km/h
2823 06-09-2008 12:55:02 20.8 C 10.32 g/m*3 20.8 C 0 km/h
2824 06-09-2008 13:07:02 20.8 C 10.32 g/m*3 20.8 C 0 km/h
2825 06-09-2008 13:19:02 20.8 C 9.6 g/m*3 20.8 C 0 km/h
Sensor: Nr:Datum:Temp:Abs-Feuchte:Windchill:Wind:
Aussen-T/F 2826 06-09-2008 13:31:02 20.9 C 9.47 g/m*3 20.9 C 0 km/h
2827 06-09-2008 13:43:02 20.8 C 9.6 g/m*3 20.8 C 0 km/h
2828 06-09-2008 13:55:01 20.6 C 9.66 g/m*3 20.6 C 0 km/h
2829 06-09-2008 14:07:02 20.3 C 9.5 g/m*3 20.3 C 0 km/h
2830 06-09-2008 14:19:02 20.4 C 9.38 g/m*3 20.4 C 0 km/h
2831 06-09-2008 14:31:02 20.2 C 9.79 g/m*3 20.2 C 0 km/h
2832 06-09-2008 14:43:02 20 C 9.85 g/m*3 20 C 0 km/h
2833 06-09-2008 14:55:02 19.8 C 9.57 g/m*3 19.8 C 0 km/h
2834 06-09-2008 15:07:02 19.8 C 8.71 g/m*3 19.8 C 0 km/h
2835 06-09-2008 15:19:02 19.7 C 8.32 g/m*3 19.7 C 0 km/h
2836 06-09-2008 15:31:02 19.8 C 8.03 g/m*3 19.8 C 0 km/h
2837 06-09-2008 15:43:03 19.8 C 8.03 g/m*3 19.8 C 0 km/h
2838 06-09-2008 15:55:01 19.5 C 8.06 g/m*3 19.5 C 0 km/h
2839 06-09-2008 16:07:02 19.4 C 8.18 g/m*3 19.4 C 0 km/h
2840 06-09-2008 16:19:01 19.3 C 8.79 g/m*3 19.3 C 0 km/h
2841 06-09-2008 16:31:02 19.3 C 8.79 g/m*3 19.3 C 0 km/h
2842 06-09-2008 16:43:02 19.2 C 9.23 g/m*3 19.2 C 0 km/h
2843 06-09-2008 16:55:02 19.2 C 9.56 g/m*3 19.2 C 0 km/h
2844 06-09-2008 17:07:02 19 C 9.61 g/m*3 19 C 0 km/h
2845 06-09-2008 17:19:02 18.1 C 10.66 g/m*3 18.1 C 0 km/h
2846 06-09-2008 17:31:02 17.9 C 11.3 g/m*3 17.9 C 0 km/h
2847 06-09-2008 17:43:02 18 C 10.91 g/m*3 18 C 0 km/h
2848 06-09-2008 17:55:02 18.1 C 11.12 g/m*3 18.1 C 0 km/h
2849 06-09-2008 18:07:01 18.3 C 10.94 g/m*3 18.3 C 0 km/h
2850 06-09-2008 18:19:02 18.5 C 10.76 g/m*3 18.5 C 0 km/h
Sensor: Nr:Datum:Temp:Abs-Feuchte:Windchill:Wind:
Aussen-T/F 2851 06-09-2008 18:31:01 18.5 C 10.76 g/m*3 18.5 C 0 km/h
2852 06-09-2008 18:43:01 18.4 C 10.85 g/m*3 18.4 C 0 km/h
2853 06-09-2008 18:55:03 18 C 10.75 g/m*3 18 C 0 km/h
2854 06-09-2008 19:07:02 17.9 C 10.99 g/m*3 17.9 C 0 km/h
2855 06-09-2008 19:19:02 17.7 C 11.01 g/m*3 17.7 C 0 km/h
2856 06-09-2008 19:31:02 17.5 C 11.03 g/m*3 17.5 C 0 km/h
2857 06-09-2008 19:43:02 17.4 C 10.82 g/m*3 17.4 C 0 km/h
2858 06-09-2008 19:55:02 17.5 C 10.88 g/m*3 17.5 C 0 km/h
2859 06-09-2008 20:07:02 17.2 C 10.98 g/m*3 17.2 C 0 km/h
2860 06-09-2008 20:19:02 17.1 C 10.92 g/m*3 17.1 C 0 km/h
2861 06-09-2008 20:31:02 16.9 C 10.93 g/m*3 16.9 C 0 km/h
2862 06-09-2008 20:43:02 16.8 C 10.87 g/m*3 16.8 C 0 km/h
2863 06-09-2008 20:55:02 16.8 C 10.58 g/m*3 16.8 C 0 km/h
2864 06-09-2008 21:07:02 16.7 C 10.23 g/m*3 16.7 C 0 km/h
2865 06-09-2008 21:19:02 16.6 C 10.31 g/m*3 16.6 C 0 km/h
2866 06-09-2008 21:31:02 16.4 C 10.33 g/m*3 16.4 C 0 km/h
2867 06-09-2008 21:43:02 16.2 C 10.34 g/m*3 16.2 C 0 km/h
2868 06-09-2008 21:55:01 16 C 10.49 g/m*3 16 C 0 km/h
2869 06-09-2008 22:07:01 15.9 C 10.56 g/m*3 15.9 C 0 km/h
2870 06-09-2008 22:20:02 15.9 C 10.56 g/m*3 15.9 C 0 km/h
2871 06-09-2008 22:32:02 15.7 C 10.57 g/m*3 15.7 C 0 km/h
2872 06-09-2008 22:44:02 15.6 C 10.51 g/m*3 15.6 C 0 km/h
2873 06-09-2008 22:56:02 15.5 C 10.44 g/m*3 15.5 C 0 km/h
2874 06-09-2008 23:08:02 15.4 C 10.38 g/m*3 15.4 C 0 km/h
2875 06-09-2008 23:20:02 15.4 C 10.51 g/m*3 15.4 C 0 km/h
Sensor: Nr:Datum:Temp:Abs-Feuchte:Windchill:Wind:
Aussen-T/F 2876 06-09-2008 23:32:02 15.4 C 10.38 g/m*3 15.4 C 0 km/h
2877 06-09-2008 23:44:02 15.6 C 10.51 g/m*3 15.6 C 0 km/h
2878 06-09-2008 23:56:02 15.6 C 10.51 g/m*3 15.6 C 0 km/h
2879 07-09-2008 00:08:02 15.3 C 10.19 g/m*3 15.3 C 0 km/h
2880 07-09-2008 00:20:02 15.2 C 10.25 g/m*3 15.2 C 0 km/h
2881 07-09-2008 00:32:02 15.2 C 10.25 g/m*3 15.2 C 0 km/h
2882 07-09-2008 00:44:02 15.3 C 10.32 g/m*3 15.3 C 0 km/h
2883 07-09-2008 00:56:02 15.3 C 10.32 g/m*3 15.3 C 0 km/h
2884 07-09-2008 01:08:02 15.3 C 10.32 g/m*3 15.3 C 0 km/h
2885 07-09-2008 01:20:02 15.2 C 10.25 g/m*3 15.2 C 0 km/h
2886 07-09-2008 01:32:03 15.3 C 10.19 g/m*3 15.3 C 0 km/h
2887 07-09-2008 01:44:03 15.3 C 10.06 g/m*3 15.3 C 0 km/h
2888 07-09-2008 01:56:03 15.2 C 9.99 g/m*3 15.2 C 0 km/h
2889 07-09-2008 02:08:03 15.3 C 10.06 g/m*3 15.3 C 0 km/h
2890 07-09-2008 02:20:03 15.3 C 9.92 g/m*3 15.3 C 0 km/h
2891 07-09-2008 02:32:03 15.1 C 9.8 g/m*3 15.1 C 0 km/h
2892 07-09-2008 02:44:03 15 C 9.87 g/m*3 15 C 0 km/h
2893 07-09-2008 02:56:03 14.7 C 9.82 g/m*3 14.7 C 0 km/h
2894 07-09-2008 03:08:03 14.4 C 9.64 g/m*3 14.4 C 0 km/h
2895 07-09-2008 03:20:03 14.3 C 9.71 g/m*3 14.3 C 0 km/h
2896 07-09-2008 03:32:03 14.4 C 9.77 g/m*3 14.4 C 0 km/h
2897 07-09-2008 03:44:03 14.3 C 9.58 g/m*3 14.3 C 0 km/h
2898 07-09-2008 03:56:03 14.1 C 9.47 g/m*3 14.1 C 0 km/h
2899 07-09-2008 04:08:03 14.1 C 9.59 g/m*3 14.1 C 0 km/h
2900 07-09-2008 04:20:03 14.1 C 9.47 g/m*3 14.1 C 0 km/h
Sensor: Nr:Datum:Temp:Abs-Feuchte:Windchill:Wind:
Aussen-T/F 2901 07-09-2008 04:32:03 13.8 C 9.53 g/m*3 13.8 C 0 km/h
2902 07-09-2008 04:44:03 14.1 C 9.59 g/m*3 14.1 C 0 km/h
2903 07-09-2008 04:56:03 14.2 C 9.65 g/m*3 14.2 C 0 km/h
2904 07-09-2008 05:08:03 13.9 C 9.47 g/m*3 13.9 C 0 km/h
2905 07-09-2008 05:20:04 13.7 C 9.47 g/m*3 13.7 C 0 km/h
2906 07-09-2008 05:32:04 13.5 C 9.47 g/m*3 13.5 C 0 km/h
2907 07-09-2008 05:44:04 13.2 C 9.42 g/m*3 13.2 C 0 km/h
2908 07-09-2008 05:56:04 13.1 C 9.47 g/m*3 13.1 C 0 km/h
2909 07-09-2008 06:08:04 13.1 C 9.47 g/m*3 13.1 C 0 km/h
2910 07-09-2008 06:20:04 13.1 C 9.47 g/m*3 13.1 C 0 km/h
2911 07-09-2008 06:32:04 13.2 C 9.42 g/m*3 13.2 C 0 km/h
2912 07-09-2008 06:44:04 13.5 C 9.59 g/m*3 13.5 C 0 km/h
2913 07-09-2008 06:56:04 13.7 C 9.47 g/m*3 13.7 C 0 km/h
2914 07-09-2008 07:08:04 13.8 C 9.29 g/m*3 13.8 C 0 km/h
2915 07-09-2008 07:20:04 13.8 C 9.17 g/m*3 13.8 C 0 km/h
2916 07-09-2008 07:32:04 13.8 C 9.17 g/m*3 13.8 C 0 km/h
2917 07-09-2008 07:44:04 14.1 C 9.1 g/m*3 14.1 C 0 km/h
2918 07-09-2008 07:56:04 14.3 C 8.97 g/m*3 14.3 C 0 km/h
2919 07-09-2008 08:08:04 14.3 C 9.09 g/m*3 14.3 C 0 km/h
2920 07-09-2008 08:20:04 14.5 C 9.2 g/m*3 14.5 C 0 km/h
2921 07-09-2008 08:32:04 14.6 C 9.26 g/m*3 14.6 C 0 km/h
2922 07-09-2008 08:44:04 14.7 C 9.07 g/m*3 14.7 C 0 km/h
2923 07-09-2008 08:56:04 15.3 C 9.27 g/m*3 15.3 C 0 km/h
2924 07-09-2008 09:08:01 15.8 C 9.42 g/m*3 15.8 C 0 km/h
2925 07-09-2008 09:20:02 16.1 C 8.5 g/m*3 16.1 C 0 km/h
Sensor: Nr:Datum:Temp:Abs-Feuchte:Windchill:Wind:
Aussen-T/F 2926 07-09-2008 09:32:02 16.1 C 8.5 g/m*3 16.1 C 0 km/h
2927 07-09-2008 09:44:02 15.9 C 8.4 g/m*3 15.9 C 0 km/h
2928 07-09-2008 09:56:03 16.3 C 8.46 g/m*3 16.3 C 0 km/h
2929 07-09-2008 10:08:02 17.3 C 8.4 g/m*3 17.3 C 0 km/h
2930 07-09-2008 10:20:03 18.2 C 8.39 g/m*3 18.2 C 0 km/h
2931 07-09-2008 10:32:02 18.2 C 8.24 g/m*3 18.2 C 0 km/h
2932 07-09-2008 10:44:02 17.9 C 8.4 g/m*3 17.9 C 0 km/h
2933 07-09-2008 10:56:03 17.6 C 8.4 g/m*3 17.6 C 0 km/h
2934 07-09-2008 11:08:02 17.1 C 8.73 g/m*3 17.1 C 0 km/h
2935 07-09-2008 11:20:03 16.9 C 8.63 g/m*3 16.9 C 0 km/h
2936 07-09-2008 11:32:02 17.6 C 8.4 g/m*3 17.6 C 0 km/h
2937 07-09-2008 11:44:02 17.9 C 8.24 g/m*3 17.9 C 0 km/h
2938 07-09-2008 11:56:01 18.2 C 8.08 g/m*3 18.2 C 0 km/h
2939 07-09-2008 12:08:02 18.3 C 7.82 g/m*3 18.3 C 0 km/h
2940 07-09-2008 12:20:01 18.6 C 8.12 g/m*3 18.6 C 0 km/h
2941 07-09-2008 12:32:01 18.7 C 8.33 g/m*3 18.7 C 0 km/h
2942 07-09-2008 12:44:01 19.1 C 8.03 g/m*3 19.1 C 0 km/h
2943 07-09-2008 12:56:01 19.4 C 8.34 g/m*3 19.4 C 0 km/h
2944 07-09-2008 13:08:02 19 C 8.15 g/m*3 19 C 0 km/h
2945 07-09-2008 13:20:01 19.1 C 8.36 g/m*3 19.1 C 0 km/h
2946 07-09-2008 13:32:02 19.3 C 8.29 g/m*3 19.3 C 0 km/h
2947 07-09-2008 13:44:02 20 C 8.3 g/m*3 20 C 0 km/h
2948 07-09-2008 13:56:02 20.7 C 8.46 g/m*3 20.7 C 0 km/h
2949 07-09-2008 14:08:02 20 C 8.12 g/m*3 20 C 0 km/h
2950 07-09-2008 14:20:02 20.4 C 8.31 g/m*3 20.4 C 0 km/h
Sensor: Nr:Datum:Temp:Abs-Feuchte:Windchill:Wind:
Aussen-T/F 2951 07-09-2008 14:32:02 20.6 C 8.05 g/m*3 20.6 C 0 km/h
2952 07-09-2008 14:44:02 20.6 C 8.23 g/m*3 20.6 C 0 km/h
2953 07-09-2008 14:56:02 20 C 8.12 g/m*3 20 C 0 km/h
2954 07-09-2008 15:08:01 19.2 C 8.24 g/m*3 19.2 C 0 km/h
2955 07-09-2008 15:20:02 18.9 C 8.75 g/m*3 18.9 C 0 km/h
2956 07-09-2008 15:32:02 19.3 C 8.96 g/m*3 19.3 C 0 km/h
2957 07-09-2008 15:44:02 20.3 C 8.44 g/m*3 20.3 C 0 km/h
2958 07-09-2008 15:56:03 20 C 8.47 g/m*3 20 C 0 km/h
2959 07-09-2008 16:08:02 18.4 C 9.12 g/m*3 18.4 C 0 km/h
2960 07-09-2008 16:20:02 16.7 C 11.08 g/m*3 16.7 C 0 km/h
2961 07-09-2008 16:32:02 17.8 C 11.99 g/m*3 17.8 C 0 km/h
2962 07-09-2008 16:44:02 18.7 C 11.53 g/m*3 18.7 C 0 km/h
2963 07-09-2008 16:56:03 19.5 C 10.74 g/m*3 19.5 C 0 km/h
2964 07-09-2008 17:08:02 19.3 C 9.79 g/m*3 19.3 C 0 km/h
2965 07-09-2008 17:20:02 19 C 9.61 g/m*3 19 C 0 km/h
2966 07-09-2008 17:32:02 19.6 C 9.28 g/m*3 19.6 C 0 km/h
2967 07-09-2008 17:44:02 20.8 C 9.05 g/m*3 20.8 C 0 km/h
2968 07-09-2008 17:56:02 21 C 8.43 g/m*3 21 C 0 km/h
2969 07-09-2008 18:08:02 21.3 C 8.57 g/m*3 21.3 C 0 km/h
2970 07-09-2008 18:20:02 21.4 C 8.62 g/m*3 21.4 C 0 km/h
2971 07-09-2008 18:32:01 21.7 C 8.97 g/m*3 21.7 C 0 km/h
2972 07-09-2008 18:44:01 20.6 C 8.23 g/m*3 20.6 C 0 km/h
2973 07-09-2008 18:56:02 20.7 C 8.28 g/m*3 20.7 C 0 km/h
2974 07-09-2008 19:08:02 20.1 C 8 g/m*3 20.1 C 0 km/h
2975 07-09-2008 19:20:02 19.4 C 8.18 g/m*3 19.4 C 0 km/h
Sensor: Nr:Datum:Temp:Abs-Feuchte:Windchill:Wind:
Aussen-T/F 2976 07-09-2008 19:32:02 19 C 9.13 g/m*3 19 C 0 km/h
2977 07-09-2008 19:44:02 18.7 C 9.13 g/m*3 18.7 C 0 km/h
2978 07-09-2008 19:56:02 18.4 C 9.44 g/m*3 18.4 C 0 km/h
2979 07-09-2008 20:08:01 18.2 C 9.17 g/m*3 18.2 C 0 km/h
2980 07-09-2008 20:20:01 18 C 9.22 g/m*3 18 C 0 km/h
2981 07-09-2008 20:32:02 17.8 C 9.26 g/m*3 17.8 C 0 km/h
2982 07-09-2008 20:44:02 17.6 C 9 g/m*3 17.6 C 0 km/h
2983 07-09-2008 20:56:02 17.4 C 9.04 g/m*3 17.4 C 0 km/h
2984 07-09-2008 21:08:02 17.2 C 8.93 g/m*3 17.2 C 0 km/h
2985 07-09-2008 21:20:02 16.9 C 9.06 g/m*3 16.9 C 0 km/h
2986 07-09-2008 21:32:02 16.7 C 9.38 g/m*3 16.7 C 0 km/h
2987 07-09-2008 21:44:02 16.7 C 9.38 g/m*3 16.7 C 0 km/h
2988 07-09-2008 21:56:02 16.4 C 9.35 g/m*3 16.4 C 0 km/h
2989 07-09-2008 22:09:02 16.3 C 9.43 g/m*3 16.3 C 0 km/h
2990 07-09-2008 22:21:02 16.3 C 9.43 g/m*3 16.3 C 0 km/h
2991 07-09-2008 22:33:02 16.1 C 9.46 g/m*3 16.1 C 0 km/h
2992 07-09-2008 22:45:02 16 C 9.54 g/m*3 16 C 0 km/h
2993 07-09-2008 22:57:02 15.9 C 9.62 g/m*3 15.9 C 0 km/h
2994 07-09-2008 23:09:02 15.8 C 9.56 g/m*3 15.8 C 0 km/h
2995 07-09-2008 23:21:03 15.8 C 9.69 g/m*3 15.8 C 0 km/h
2996 07-09-2008 23:33:03 15.9 C 9.62 g/m*3 15.9 C 0 km/h
2997 07-09-2008 23:45:03 15.8 C 9.56 g/m*3 15.8 C 0 km/h
2998 07-09-2008 23:57:03 15.8 C 9.56 g/m*3 15.8 C 0 km/h
2999 08-09-2008 00:09:03 15.8 C 9.56 g/m*3 15.8 C 0 km/h
3000 08-09-2008 00:21:03 15.7 C 9.5 g/m*3 15.7 C 0 km/h
Sensor: Nr:Datum:Temp:Abs-Feuchte:Windchill:Wind:
Aussen-T/F 3001 08-09-2008 00:33:03 15.5 C 9.39 g/m*3 15.5 C 0 km/h
3002 08-09-2008 00:45:03 15.6 C 9.44 g/m*3 15.6 C 0 km/h
3003 08-09-2008 00:57:03 15.6 C 9.44 g/m*3 15.6 C 0 km/h
3004 08-09-2008 01:09:03 15.5 C 9.39 g/m*3 15.5 C 0 km/h
3005 08-09-2008 01:21:03 15.6 C 9.44 g/m*3 15.6 C 0 km/h
3006 08-09-2008 01:33:03 15.5 C 9.39 g/m*3 15.5 C 0 km/h
3007 08-09-2008 01:45:03 15.2 C 9.35 g/m*3 15.2 C 0 km/h
3008 08-09-2008 01:57:03 15.1 C 9.42 g/m*3 15.1 C 0 km/h
3009 08-09-2008 02:09:03 14.9 C 9.56 g/m*3 14.9 C 0 km/h
3010 08-09-2008 02:21:03 14.9 C 9.56 g/m*3 14.9 C 0 km/h
3011 08-09-2008 02:33:03 15.1 C 9.55 g/m*3 15.1 C 0 km/h
3012 08-09-2008 02:45:03 15 C 9.36 g/m*3 15 C 0 km/h
3013 08-09-2008 02:57:03 14.8 C 9.37 g/m*3 14.8 C 0 km/h
3014 08-09-2008 03:09:04 14.4 C 9.27 g/m*3 14.4 C 0 km/h
3015 08-09-2008 03:21:04 14.3 C 9.34 g/m*3 14.3 C 0 km/h
3016 08-09-2008 03:33:04 14.2 C 9.4 g/m*3 14.2 C 0 km/h
3017 08-09-2008 03:45:04 14.3 C 9.34 g/m*3 14.3 C 0 km/h
3018 08-09-2008 03:57:04 14.2 C 9.4 g/m*3 14.2 C 0 km/h
3019 08-09-2008 04:09:04 14.1 C 9.47 g/m*3 14.1 C 0 km/h
3020 08-09-2008 04:21:04 14.2 C 9.52 g/m*3 14.2 C 0 km/h
3021 08-09-2008 04:33:04 14.4 C 9.39 g/m*3 14.4 C 0 km/h
3022 08-09-2008 04:45:04 14.5 C 9.33 g/m*3 14.5 C 0 km/h
3023 08-09-2008 04:57:04 14.5 C 9.33 g/m*3 14.5 C 0 km/h
3024 08-09-2008 05:09:04 14.4 C 9.27 g/m*3 14.4 C 0 km/h
3025 08-09-2008 05:21:04 14.1 C 8.98 g/m*3 14.1 C 0 km/h
Sensor: Nr:Datum:Temp:Abs-Feuchte:Windchill:Wind:
Aussen-T/F 3026 08-09-2008 05:33:04 14.1 C 8.86 g/m*3 14.1 C 0 km/h
3027 08-09-2008 05:45:04 14 C 8.81 g/m*3 14 C 0 km/h
3028 08-09-2008 05:57:04 13.9 C 8.99 g/m*3 13.9 C 0 km/h
3029 08-09-2008 06:09:04 13.5 C 8.89 g/m*3 13.5 C 0 km/h
3030 08-09-2008 06:21:04 13.2 C 8.96 g/m*3 13.2 C 0 km/h
3031 08-09-2008 06:33:04 13.1 C 9.01 g/m*3 13.1 C 0 km/h
3032 08-09-2008 06:45:04 13 C 9.07 g/m*3 13 C 0 km/h
3033 08-09-2008 06:57:05 12.8 C 9.07 g/m*3 12.8 C 0 km/h
3034 08-09-2008 07:09:02 12.8 C 9.18 g/m*3 12.8 C 0 km/h
3035 08-09-2008 07:21:02 12.8 C 9.3 g/m*3 12.8 C 0 km/h
3036 08-09-2008 07:33:02 13.1 C 9.36 g/m*3 13.1 C 0 km/h
3037 08-09-2008 07:45:02 13.7 C 9.71 g/m*3 13.7 C 0 km/h
3038 08-09-2008 07:57:02 14.2 C 9.65 g/m*3 14.2 C 0 km/h
3039 08-09-2008 08:09:02 14.4 C 9.52 g/m*3 14.4 C 0 km/h
3040 08-09-2008 08:21:02 14.5 C 9.58 g/m*3 14.5 C 0 km/h
3041 08-09-2008 08:33:02 14.7 C 9.57 g/m*3 14.7 C 0 km/h
3042 08-09-2008 08:45:02 14.8 C 9.63 g/m*3 14.8 C 0 km/h
3043 08-09-2008 08:57:02 14.9 C 9.56 g/m*3 14.9 C 0 km/h
3044 08-09-2008 09:09:02 15.2 C 9.61 g/m*3 15.2 C 0 km/h
3045 08-09-2008 09:21:03 15.3 C 9.53 g/m*3 15.3 C 0 km/h
3046 08-09-2008 09:33:02 15.5 C 9.39 g/m*3 15.5 C 0 km/h
3047 08-09-2008 09:45:02 15.8 C 9.29 g/m*3 15.8 C 0 km/h
3048 08-09-2008 09:57:02 16.1 C 9.18 g/m*3 16.1 C 0 km/h
3049 08-09-2008 10:09:02 16.3 C 9.16 g/m*3 16.3 C 0 km/h
3050 08-09-2008 10:21:02 16.6 C 9.04 g/m*3 16.6 C 0 km/h
Sensor: Nr:Datum:Temp:Abs-Feuchte:Windchill:Wind:
Aussen-T/F 3051 08-09-2008 10:33:02 16.9 C 9.06 g/m*3 16.9 C 0 km/h
3052 08-09-2008 10:45:02 17.1 C 8.73 g/m*3 17.1 C 0 km/h
3053 08-09-2008 10:57:02 17.3 C 8.4 g/m*3 17.3 C 0 km/h
3054 08-09-2008 11:09:02 17.6 C 8.4 g/m*3 17.6 C 0 km/h
3055 08-09-2008 11:21:02 17.6 C 8.55 g/m*3 17.6 C 0 km/h
3056 08-09-2008 11:33:02 17.3 C 8.4 g/m*3 17.3 C 0 km/h
3057 08-09-2008 11:45:01 18.2 C 8.24 g/m*3 18.2 C 0 km/h
3058 08-09-2008 11:57:01 18.7 C 8.01 g/m*3 18.7 C 0 km/h
3059 08-09-2008 12:09:02 18.9 C 7.94 g/m*3 18.9 C 0 km/h
3060 08-09-2008 12:21:01 19.4 C 7.84 g/m*3 19.4 C 0 km/h
3061 08-09-2008 12:33:02 19.7 C 7.64 g/m*3 19.7 C 0 km/h
3062 08-09-2008 12:45:02 19.8 C 7.52 g/m*3 19.8 C 0 km/h
3063 08-09-2008 12:57:02 19.6 C 7.43 g/m*3 19.6 C 0 km/h
3064 08-09-2008 13:09:01 20.7 C 7.56 g/m*3 20.7 C 0 km/h
3065 08-09-2008 13:21:02 20.8 C 7.42 g/m*3 20.8 C 0 km/h
3066 08-09-2008 13:33:01 20.5 C 7.3 g/m*3 20.5 C 0 km/h
3067 08-09-2008 13:45:02 20.7 C 7.38 g/m*3 20.7 C 0 km/h
3068 08-09-2008 13:57:02 21.6 C 7.4 g/m*3 21.6 C 0 km/h
3069 08-09-2008 14:09:01 22 C 6.79 g/m*3 22 C 0 km/h
3070 08-09-2008 14:21:02 21.9 C 7.14 g/m*3 21.9 C 0 km/h
3071 08-09-2008 14:33:01 22.1 C 6.83 g/m*3 22.1 C 0 km/h
3072 08-09-2008 14:45:01 22.3 C 6.71 g/m*3 22.3 C 0 km/h
3073 08-09-2008 14:57:01 23 C 6.58 g/m*3 23 C 0 km/h
3074 08-09-2008 15:09:02 23.2 C 6.44 g/m*3 23.2 C 0 km/h
3075 08-09-2008 15:21:01 23.7 C 6.63 g/m*3 23.7 C 0 km/h
Sensor: Nr:Datum:Temp:Abs-Feuchte:Windchill:Wind:
Aussen-T/F 3076 08-09-2008 15:33:01 23.7 C 6.42 g/m*3 23.7 C 0 km/h
3077 08-09-2008 15:49:01 23.1 C 6.41 g/m*3 23.1 C 0 km/h
3078 08-09-2008 16:01:07 24 C 6.53 g/m*3 24 C 0 km/h
3079 08-09-2008 16:13:02 24.1 C 5.91 g/m*3 24.1 C 0 km/h
3080 08-09-2008 16:25:01 23.8 C 6.24 g/m*3 23.8 C 0 km/h
3081 08-09-2008 16:37:02 23.7 C 6.42 g/m*3 23.7 C 0 km/h
3082 08-09-2008 16:49:02 24 C 5.87 g/m*3 24 C 0 km/h
3083 08-09-2008 17:01:02 23.3 C 6.27 g/m*3 23.3 C 0 km/h
3084 08-09-2008 17:13:02 24.1 C 6.13 g/m*3 24.1 C 0 km/h
3085 08-09-2008 17:20:03 24.1 C 4.38 g/m*3 24.1 C 0 km/h
3086 08-09-2008 17:25:03 24.3 C 5.97 g/m*3 24.3 C 0 km/h
3087 08-09-2008 17:30:03 24.2 C 5.94 g/m*3 24.2 C 0 km/h
3088 08-09-2008 17:35:03 24.2 C 5.72 g/m*3 24.2 C 0 km/h
3089 08-09-2008 17:40:03 23.8 C 5.81 g/m*3 23.8 C 0 km/h
3090 08-09-2008 17:45:02 23.4 C 6.1 g/m*3 23.4 C 0 km/h
3091 08-09-2008 17:50:02 23.2 C 6.24 g/m*3 23.2 C 0 km/h
3092 08-09-2008 17:55:02 22.9 C 6.34 g/m*3 22.9 C 0 km/h
3093 08-09-2008 18:00:02 23.5 C 6.56 g/m*3 23.5 C 0 km/h
3094 08-09-2008 18:05:01 24.2 C 6.38 g/m*3 24.2 C 0 km/h
3095 08-09-2008 18:10:01 23.7 C 6.42 g/m*3 23.7 C 0 km/h
3096 08-09-2008 18:15:02 23.2 C 6.24 g/m*3 23.2 C 0 km/h
3097 08-09-2008 18:20:02 22.9 C 6.54 g/m*3 22.9 C 0 km/h
3098 08-09-2008 18:25:02 23.3 C 6.48 g/m*3 23.3 C 0 km/h
3099 08-09-2008 18:30:02 22.9 C 6.34 g/m*3 22.9 C 0 km/h
3100 08-09-2008 18:35:01 23 C 6.37 g/m*3 23 C 0 km/h
Sensor: Nr:Datum:Temp:Abs-Feuchte:Windchill:Wind:
Aussen-T/F 3101 08-09-2008 18:40:01 23.2 C 6.44 g/m*3 23.2 C 0 km/h
3102 08-09-2008 18:45:01 23 C 6.37 g/m*3 23 C 0 km/h
3103 08-09-2008 18:50:01 23 C 6.58 g/m*3 23 C 0 km/h
3104 08-09-2008 18:55:01 22.6 C 6.63 g/m*3 22.6 C 0 km/h
3105 08-09-2008 19:00:01 22.5 C 6.99 g/m*3 22.5 C 0 km/h
3106 08-09-2008 19:05:02 22.6 C 7.43 g/m*3 22.6 C 0 km/h
3107 08-09-2008 19:10:02 22.7 C 7.07 g/m*3 22.7 C 0 km/h
3108 08-09-2008 19:15:02 22.4 C 7.15 g/m*3 22.4 C 0 km/h
3109 08-09-2008 19:20:02 22.3 C 7.11 g/m*3 22.3 C 0 km/h
3110 08-09-2008 19:25:02 22.1 C 7.22 g/m*3 22.1 C 0 km/h
3111 08-09-2008 19:30:02 21.7 C 7.25 g/m*3 21.7 C 0 km/h
3112 08-09-2008 19:35:02 21.4 C 7.31 g/m*3 21.4 C 0 km/h
3113 08-09-2008 19:40:02 20.7 C 7.38 g/m*3 20.7 C 0 km/h
3114 08-09-2008 19:45:02 20.1 C 7.3 g/m*3 20.1 C 0 km/h
3115 08-09-2008 19:50:02 19.9 C 7.39 g/m*3 19.9 C 0 km/h
3116 08-09-2008 19:55:02 19.6 C 7.43 g/m*3 19.6 C 0 km/h
3117 08-09-2008 20:00:02 19.1 C 7.38 g/m*3 19.1 C 0 km/h
3118 08-09-2008 20:05:01 18.9 C 7.29 g/m*3 18.9 C 0 km/h
3119 08-09-2008 20:10:01 18.8 C 7.57 g/m*3 18.8 C 0 km/h
3120 08-09-2008 20:15:02 18.6 C 7.32 g/m*3 18.6 C 0 km/h
3121 08-09-2008 20:20:02 18.5 C 7.59 g/m*3 18.5 C 0 km/h
3122 08-09-2008 20:25:02 18.4 C 7.71 g/m*3 18.4 C 0 km/h
3123 08-09-2008 20:30:02 18.2 C 7.46 g/m*3 18.2 C 0 km/h
3124 08-09-2008 20:35:01 17.9 C 7.48 g/m*3 17.9 C 0 km/h
3125 08-09-2008 20:40:01 17.8 C 7.59 g/m*3 17.8 C 0 km/h
Sensor: Nr:Datum:Temp:Abs-Feuchte:Windchill:Wind:
Aussen-T/F 3126 08-09-2008 20:45:01 17.7 C 7.85 g/m*3 17.7 C 0 km/h
3127 08-09-2008 20:50:01 17.5 C 7.9 g/m*3 17.5 C 0 km/h
3128 08-09-2008 20:55:01 17.4 C 7.85 g/m*3 17.4 C 0 km/h
3129 08-09-2008 21:00:01 17.4 C 7.85 g/m*3 17.4 C 0 km/h
3130 08-09-2008 21:05:02 17.4 C 8 g/m*3 17.4 C 0 km/h
3131 08-09-2008 21:10:02 17.3 C 7.81 g/m*3 17.3 C 0 km/h
3132 08-09-2008 21:16:03 17.2 C 7.76 g/m*3 17.2 C 0 km/h
3133 08-09-2008 21:21:03 17.4 C 8 g/m*3 17.4 C 0 km/h
3134 08-09-2008 21:26:03 16.9 C 8.05 g/m*3 16.9 C 0 km/h
3135 08-09-2008 21:31:03 16.9 C 8.05 g/m*3 16.9 C 0 km/h
3136 08-09-2008 21:36:03 16.6 C 8.19 g/m*3 16.6 C 0 km/h
3137 08-09-2008 21:41:03 16.5 C 8 g/m*3 16.5 C 0 km/h
3138 08-09-2008 21:46:03 16.5 C 8.14 g/m*3 16.5 C 0 km/h
3139 08-09-2008 21:51:03 16.4 C 8.37 g/m*3 16.4 C 0 km/h
3140 08-09-2008 21:56:03 16.2 C 8.27 g/m*3 16.2 C 0 km/h
3141 08-09-2008 22:01:03 16.1 C 8.22 g/m*3 16.1 C 0 km/h
3142 08-09-2008 22:06:03 15.9 C 8.26 g/m*3 15.9 C 0 km/h
3143 08-09-2008 22:11:03 15.8 C 8.35 g/m*3 15.8 C 0 km/h
3144 08-09-2008 22:16:04 15.6 C 8.25 g/m*3 15.6 C 0 km/h
3145 08-09-2008 22:21:04 15.5 C 8.2 g/m*3 15.5 C 0 km/h
3146 08-09-2008 22:26:04 15.5 C 8.2 g/m*3 15.5 C 0 km/h
3147 08-09-2008 22:31:04 15.4 C 8.15 g/m*3 15.4 C 0 km/h
3148 08-09-2008 22:36:04 15.3 C 8.1 g/m*3 15.3 C 0 km/h
3149 08-09-2008 22:41:04 15.4 C 8.28 g/m*3 15.4 C 0 km/h
3150 08-09-2008 22:46:04 15.3 C 8.23 g/m*3 15.3 C 0 km/h
Sensor: Nr:Datum:Temp:Abs-Feuchte:Windchill:Wind:
Aussen-T/F 3151 08-09-2008 22:51:04 15.2 C 8.18 g/m*3 15.2 C 0 km/h
3152 08-09-2008 22:56:04 15.1 C 8.26 g/m*3 15.1 C 0 km/h
3153 08-09-2008 23:01:04 15 C 8.21 g/m*3 15 C 0 km/h
3154 08-09-2008 23:06:04 14.9 C 8.41 g/m*3 14.9 C 0 km/h
3155 08-09-2008 23:11:04 14.8 C 8.36 g/m*3 14.8 C 0 km/h
3156 08-09-2008 23:16:04 14.7 C 8.44 g/m*3 14.7 C 0 km/h
3157 08-09-2008 23:21:04 14.7 C 8.44 g/m*3 14.7 C 0 km/h
3158 08-09-2008 23:26:04 14.7 C 8.44 g/m*3 14.7 C 0 km/h
3159 08-09-2008 23:31:04 14.7 C 8.44 g/m*3 14.7 C 0 km/h
3160 08-09-2008 23:36:04 14.7 C 8.44 g/m*3 14.7 C 0 km/h
3161 08-09-2008 23:41:04 14.5 C 8.33 g/m*3 14.5 C 0 km/h
3162 08-09-2008 23:46:04 14.3 C 8.35 g/m*3 14.3 C 0 km/h
3163 08-09-2008 23:51:04 14.2 C 8.3 g/m*3 14.2 C 0 km/h
3164 08-09-2008 23:56:05 14.2 C 8.43 g/m*3 14.2 C 0 km/h
3165 09-09-2008 00:01:05 14 C 8.32 g/m*3 14 C 0 km/h
3166 09-09-2008 00:06:05 13.9 C 8.51 g/m*3 13.9 C 0 km/h
3167 09-09-2008 00:11:05 13.8 C 8.58 g/m*3 13.8 C 0 km/h
3168 09-09-2008 00:16:05 13.7 C 8.53 g/m*3 13.7 C 0 km/h
3169 09-09-2008 00:21:05 13.6 C 8.59 g/m*3 13.6 C 0 km/h
3170 09-09-2008 00:26:05 13.6 C 8.59 g/m*3 13.6 C 0 km/h
3171 09-09-2008 00:31:05 13.5 C 8.54 g/m*3 13.5 C 0 km/h
3172 09-09-2008 00:36:05 13.5 C 8.54 g/m*3 13.5 C 0 km/h
3173 09-09-2008 00:41:05 13.4 C 8.6 g/m*3 13.4 C 0 km/h
3174 09-09-2008 00:46:05 13.3 C 8.55 g/m*3 13.3 C 0 km/h
3175 09-09-2008 00:51:05 13.2 C 8.5 g/m*3 13.2 C 0 km/h
Sensor: Nr:Datum:Temp:Abs-Feuchte:Windchill:Wind:
Aussen-T/F 3176 09-09-2008 00:56:05 13.1 C 8.44 g/m*3 13.1 C 0 km/h
3177 09-09-2008 01:01:05 13.1 C 8.44 g/m*3 13.1 C 0 km/h
3178 09-09-2008 01:06:05 13 C 8.51 g/m*3 13 C 0 km/h
3179 09-09-2008 01:11:05 12.9 C 8.57 g/m*3 12.9 C 0 km/h
3180 09-09-2008 01:16:05 12.8 C 8.51 g/m*3 12.8 C 0 km/h
3181 09-09-2008 01:21:05 12.7 C 8.46 g/m*3 12.7 C 0 km/h
3182 09-09-2008 01:26:05 12.7 C 8.57 g/m*3 12.7 C 0 km/h
3183 09-09-2008 01:31:06 12.7 C 8.57 g/m*3 12.7 C 0 km/h
3184 09-09-2008 01:36:06 12.6 C 8.52 g/m*3 12.6 C 0 km/h
3185 09-09-2008 01:41:06 12.6 C 8.52 g/m*3 12.6 C 0 km/h
3186 09-09-2008 01:46:06 12.5 C 8.47 g/m*3 12.5 C 0 km/h
3187 09-09-2008 01:51:06 12.5 C 8.47 g/m*3 12.5 C 0 km/h
3188 09-09-2008 01:56:06 12.4 C 8.41 g/m*3 12.4 C 0 km/h
3189 09-09-2008 02:01:06 12.4 C 8.52 g/m*3 12.4 C 0 km/h
3190 09-09-2008 02:06:06 12.3 C 8.58 g/m*3 12.3 C 0 km/h
3191 09-09-2008 02:11:06 12.3 C 8.58 g/m*3 12.3 C 0 km/h
3192 09-09-2008 02:16:06 12.2 C 8.52 g/m*3 12.2 C 0 km/h
3193 09-09-2008 02:21:06 12.3 C 8.58 g/m*3 12.3 C 0 km/h
3194 09-09-2008 02:26:06 12.1 C 8.47 g/m*3 12.1 C 0 km/h
3195 09-09-2008 02:31:06 12.4 C 8.63 g/m*3 12.4 C 0 km/h
3196 09-09-2008 02:36:06 12 C 8.42 g/m*3 12 C 0 km/h
3197 09-09-2008 02:41:06 12 C 8.42 g/m*3 12 C 0 km/h
3198 09-09-2008 02:46:06 11.8 C 8.42 g/m*3 11.8 C 0 km/h
3199 09-09-2008 02:51:06 11.8 C 8.42 g/m*3 11.8 C 0 km/h
3200 09-09-2008 02:56:06 11.7 C 8.37 g/m*3 11.7 C 0 km/h
Sensor: Nr:Datum:Temp:Abs-Feuchte:Windchill:Wind:
Aussen-T/F 3201 09-09-2008 03:01:06 11.7 C 8.37 g/m*3 11.7 C 0 km/h
3202 09-09-2008 03:06:06 11.7 C 8.37 g/m*3 11.7 C 0 km/h
3203 09-09-2008 03:11:07 11.7 C 8.37 g/m*3 11.7 C 0 km/h
3204 09-09-2008 03:16:07 11.7 C 8.37 g/m*3 11.7 C 0 km/h
3205 09-09-2008 03:21:07 11.6 C 8.42 g/m*3 11.6 C 0 km/h
3206 09-09-2008 03:26:07 11.5 C 8.37 g/m*3 11.5 C 0 km/h
3207 09-09-2008 03:31:07 11.4 C 8.42 g/m*3 11.4 C 0 km/h
3208 09-09-2008 03:36:07 11.4 C 8.42 g/m*3 11.4 C 0 km/h
3209 09-09-2008 03:41:07 11.3 C 8.36 g/m*3 11.3 C 0 km/h
3210 09-09-2008 03:46:07 11.2 C 8.31 g/m*3 11.2 C 0 km/h
3211 09-09-2008 03:51:07 11.2 C 8.31 g/m*3 11.2 C 0 km/h
3212 09-09-2008 03:56:07 11.2 C 8.31 g/m*3 11.2 C 0 km/h
3213 09-09-2008 04:01:07 11.2 C 8.31 g/m*3 11.2 C 0 km/h
3214 09-09-2008 04:06:07 11.1 C 8.26 g/m*3 11.1 C 0 km/h
3215 09-09-2008 04:11:07 11.1 C 8.26 g/m*3 11.1 C 0 km/h
3216 09-09-2008 04:16:07 11.1 C 8.26 g/m*3 11.1 C 0 km/h
3217 09-09-2008 04:21:07 11.1 C 8.26 g/m*3 11.1 C 0 km/h
3218 09-09-2008 04:26:07 11.1 C 8.26 g/m*3 11.1 C 0 km/h
3219 09-09-2008 04:31:07 11 C 8.31 g/m*3 11 C 0 km/h
3220 09-09-2008 04:36:07 11 C 8.31 g/m*3 11 C 0 km/h
3221 09-09-2008 04:41:07 10.9 C 8.26 g/m*3 10.9 C 0 km/h
3222 09-09-2008 04:46:08 10.8 C 8.2 g/m*3 10.8 C 0 km/h
3223 09-09-2008 04:51:08 10.8 C 8.2 g/m*3 10.8 C 0 km/h
3224 09-09-2008 04:56:08